Darstellungsparameter: Aktuell verwendete Einstellungen:
Skalierung der Graphiken ... ?
xyx+y,   Skalierungsfaktor:      Skalierung: Modus: x, Faktor: 1
Darstellungszeitraum ... ?
Vom - - bis: - -   Zeitraum: 30.04.2010 - 29.05.2010
Min/Max/Avg-Anzeige ... ?
Zeige MMA aktuell
Zeige MMA Monat
Zeige MMA alles
Zeige --A aktuell
Zeige --A Monat
Zeige --A alles
Keine MMA-Anzeige
MMA:
Minimum Maximum Average (ber die Originaldaten)
MMA-Basis: 30.04.2010 - 29.05.2010
Quicknavigation für Darstellung... ?
Tage:      1T, 2T, 3T, 5T -1T -2T -3T -5T +1T +2T +3T +5T
Wochen: 1W, 2W, 3W -1W -2W -3W +1W +2W +3W
Monate: 1M, 3M, 6M -1M -3M -6M +1M +3M +6M
Jahre:    1J, 3J, 5J, 10J -1J -3J -5J -10J +1J +3J +5J +10J
Nutze für die Darstellung ... ?
Originaldaten oder Mittelwerte auf ...
Stundenbasis Tagesbasis Wochenbasis
Monatsbasis Jahresbasis      Datenbasis: Original-Daten
Darstellen als:
Statistik (Auto) Statistik J:M      Darstellung:
Zur Graphik,    zurück zur Übersicht aller Sensoren.
 
Tabellarische Datenbersicht: ?
 
Sensor: Nr:Datum:Temp:Abs-Feuchte:Windchill:Wind:
Aussen-T/F 1 30-04-2010 00:04:01 19.4 C 7.17 g/m*3 19.4 C 0 km/h
2 30-04-2010 00:16:02 19.6 C 7.09 g/m*3 19.6 C 0 km/h
3 30-04-2010 00:28:02 19.7 C 6.96 g/m*3 19.7 C 0 km/h
4 30-04-2010 00:40:02 20 C 6.91 g/m*3 20 C 0 km/h
5 30-04-2010 00:52:02 20.3 C 6.68 g/m*3 20.3 C 0 km/h
6 30-04-2010 01:04:02 20.5 C 6.58 g/m*3 20.5 C 0 km/h
7 30-04-2010 01:16:02 20.8 C 6.7 g/m*3 20.8 C 0 km/h
8 30-04-2010 01:28:02 20.9 C 6.92 g/m*3 20.9 C 0 km/h
9 30-04-2010 01:40:02 20.7 C 6.84 g/m*3 20.7 C 0 km/h
10 30-04-2010 01:52:02 20.8 C 6.7 g/m*3 20.8 C 0 km/h
11 30-04-2010 02:04:02 20.8 C 6.7 g/m*3 20.8 C 0 km/h
12 30-04-2010 02:16:02 20.9 C 6.74 g/m*3 20.9 C 0 km/h
13 30-04-2010 02:28:02 21 C 6.59 g/m*3 21 C 0 km/h
14 30-04-2010 02:40:02 20.5 C 6.94 g/m*3 20.5 C 0 km/h
15 30-04-2010 02:52:02 20.6 C 6.98 g/m*3 20.6 C 0 km/h
16 30-04-2010 03:04:02 20.4 C 7.08 g/m*3 20.4 C 0 km/h
17 30-04-2010 03:16:02 20.1 C 7.13 g/m*3 20.1 C 0 km/h
18 30-04-2010 03:28:02 20.1 C 7.3 g/m*3 20.1 C 0 km/h
19 30-04-2010 03:40:02 19.8 C 7.69 g/m*3 19.8 C 0 km/h
20 30-04-2010 03:52:02 19.8 C 7.86 g/m*3 19.8 C 0 km/h
21 30-04-2010 04:04:02 19.7 C 7.81 g/m*3 19.7 C 0 km/h
22 30-04-2010 04:16:02 19.7 C 7.98 g/m*3 19.7 C 0 km/h
23 30-04-2010 04:28:02 19.4 C 8.18 g/m*3 19.4 C 0 km/h
24 30-04-2010 04:40:03 19.2 C 8.24 g/m*3 19.2 C 0 km/h
25 30-04-2010 04:52:03 18.9 C 8.42 g/m*3 18.9 C 0 km/h
Sensor: Nr:Datum:Temp:Abs-Feuchte:Windchill:Wind:
Aussen-T/F 26 30-04-2010 05:04:03 18.7 C 8.33 g/m*3 18.7 C 0 km/h
27 30-04-2010 05:16:03 18.6 C 8.44 g/m*3 18.6 C 0 km/h
28 30-04-2010 05:28:03 18.2 C 8.39 g/m*3 18.2 C 0 km/h
29 30-04-2010 05:40:03 17.9 C 8.7 g/m*3 17.9 C 0 km/h
30 30-04-2010 05:52:03 17.8 C 8.65 g/m*3 17.8 C 0 km/h
31 30-04-2010 06:04:03 17.5 C 8.65 g/m*3 17.5 C 0 km/h
32 30-04-2010 06:16:03 17.4 C 8.74 g/m*3 17.4 C 0 km/h
33 30-04-2010 06:28:03 17.3 C 8.69 g/m*3 17.3 C 0 km/h
34 30-04-2010 06:40:03 17.4 C 8.74 g/m*3 17.4 C 0 km/h
35 30-04-2010 06:52:03 17.2 C 8.64 g/m*3 17.2 C 0 km/h
36 30-04-2010 07:04:02 17.1 C 8.73 g/m*3 17.1 C 0 km/h
37 30-04-2010 07:16:01 17.3 C 8.84 g/m*3 17.3 C 0 km/h
38 30-04-2010 07:28:01 17.5 C 8.95 g/m*3 17.5 C 0 km/h
39 30-04-2010 07:40:02 17.7 C 8.9 g/m*3 17.7 C 0 km/h
40 30-04-2010 07:52:02 17.6 C 8.55 g/m*3 17.6 C 0 km/h
41 30-04-2010 08:04:02 18.1 C 8.19 g/m*3 18.1 C 0 km/h
42 30-04-2010 08:16:02 18.3 C 7.97 g/m*3 18.3 C 0 km/h
43 30-04-2010 08:28:02 18.3 C 7.97 g/m*3 18.3 C 0 km/h
44 30-04-2010 08:40:02 18.2 C 7.93 g/m*3 18.2 C 0 km/h
45 30-04-2010 08:52:02 18.4 C 8.02 g/m*3 18.4 C 0 km/h
46 30-04-2010 09:04:03 18.3 C 7.97 g/m*3 18.3 C 0 km/h
47 30-04-2010 09:16:02 18.3 C 7.82 g/m*3 18.3 C 0 km/h
48 30-04-2010 09:28:02 18.4 C 7.24 g/m*3 18.4 C 0 km/h
49 30-04-2010 09:40:02 18.5 C 6.65 g/m*3 18.5 C 0 km/h
50 30-04-2010 09:52:01 18.4 C 6.61 g/m*3 18.4 C 0 km/h
Sensor: Nr:Datum:Temp:Abs-Feuchte:Windchill:Wind:
Aussen-T/F 51 30-04-2010 10:04:02 18.3 C 6.57 g/m*3 18.3 C 0 km/h
52 30-04-2010 10:16:01 18.5 C 6.33 g/m*3 18.5 C 0 km/h
53 30-04-2010 10:28:01 18.6 C 6.37 g/m*3 18.6 C 0 km/h
54 30-04-2010 10:40:02 18.8 C 6.44 g/m*3 18.8 C 0 km/h
55 30-04-2010 10:52:02 18.6 C 5.73 g/m*3 18.6 C 0 km/h
56 30-04-2010 11:04:02 19 C 5.87 g/m*3 19 C 0 km/h
57 30-04-2010 11:16:02 18.9 C 5.83 g/m*3 18.9 C 0 km/h
58 30-04-2010 11:28:02 19 C 5.87 g/m*3 19 C 0 km/h
59 30-04-2010 11:40:02 19.5 C 6.04 g/m*3 19.5 C 0 km/h
60 30-04-2010 11:52:02 19.7 C 6.11 g/m*3 19.7 C 0 km/h
61 30-04-2010 12:04:02 20.6 C 6.09 g/m*3 20.6 C 0 km/h
62 30-04-2010 12:16:02 20.8 C 5.79 g/m*3 20.8 C 0 km/h
63 30-04-2010 12:28:02 19.9 C 6.01 g/m*3 19.9 C 0 km/h
64 30-04-2010 12:40:02 19.8 C 5.98 g/m*3 19.8 C 0 km/h
65 30-04-2010 12:52:01 20 C 5.88 g/m*3 20 C 0 km/h
66 30-04-2010 13:04:02 20.6 C 5.73 g/m*3 20.6 C 0 km/h
67 30-04-2010 13:16:01 20.7 C 5.76 g/m*3 20.7 C 0 km/h
68 30-04-2010 13:28:01 21 C 5.5 g/m*3 21 C 0 km/h
69 30-04-2010 13:40:01 21 C 5.5 g/m*3 21 C 0 km/h
70 30-04-2010 13:52:01 20.8 C 5.61 g/m*3 20.8 C 0 km/h
71 30-04-2010 14:04:02 20.5 C 5.69 g/m*3 20.5 C 0 km/h
72 30-04-2010 14:16:01 21.4 C 5.81 g/m*3 21.4 C 0 km/h
73 30-04-2010 14:28:01 20.9 C 5.65 g/m*3 20.9 C 0 km/h
74 30-04-2010 14:40:02 20.8 C 5.79 g/m*3 20.8 C 0 km/h
75 30-04-2010 14:52:02 20.8 C 6.34 g/m*3 20.8 C 0 km/h
Sensor: Nr:Datum:Temp:Abs-Feuchte:Windchill:Wind:
Aussen-T/F 76 30-04-2010 15:04:02 20.4 C 6.01 g/m*3 20.4 C 0 km/h
77 30-04-2010 15:16:01 20.7 C 6.12 g/m*3 20.7 C 0 km/h
78 30-04-2010 15:28:01 20.6 C 6.09 g/m*3 20.6 C 0 km/h
79 30-04-2010 15:40:02 20.9 C 6.19 g/m*3 20.9 C 0 km/h
80 30-04-2010 15:52:02 20.6 C 6.09 g/m*3 20.6 C 0 km/h
81 30-04-2010 16:04:02 19.7 C 5.94 g/m*3 19.7 C 0 km/h
82 30-04-2010 16:16:01 19.4 C 5.84 g/m*3 19.4 C 0 km/h
83 30-04-2010 16:28:01 19.6 C 5.91 g/m*3 19.6 C 0 km/h
84 30-04-2010 16:40:02 19.7 C 5.94 g/m*3 19.7 C 0 km/h
85 30-04-2010 16:52:02 19.5 C 6.04 g/m*3 19.5 C 0 km/h
86 30-04-2010 17:04:02 19.7 C 6.11 g/m*3 19.7 C 0 km/h
87 30-04-2010 17:16:02 19.8 C 5.98 g/m*3 19.8 C 0 km/h
88 30-04-2010 17:28:02 20 C 6.22 g/m*3 20 C 0 km/h
89 30-04-2010 17:40:02 19.4 C 6.01 g/m*3 19.4 C 0 km/h
90 30-04-2010 17:52:02 19.5 C 6.04 g/m*3 19.5 C 0 km/h
91 30-04-2010 18:04:02 19.5 C 6.04 g/m*3 19.5 C 0 km/h
92 30-04-2010 18:16:02 19.7 C 6.28 g/m*3 19.7 C 0 km/h
93 30-04-2010 18:28:02 19.2 C 5.94 g/m*3 19.2 C 0 km/h
94 30-04-2010 18:40:02 19.1 C 6.07 g/m*3 19.1 C 0 km/h
95 30-04-2010 18:52:02 18.9 C 6.16 g/m*3 18.9 C 0 km/h
96 30-04-2010 19:04:02 18.8 C 6.44 g/m*3 18.8 C 0 km/h
97 30-04-2010 19:16:03 18.7 C 6.24 g/m*3 18.7 C 0 km/h
98 30-04-2010 19:28:03 18.4 C 6.13 g/m*3 18.4 C 0 km/h
99 30-04-2010 19:40:02 18.1 C 6.18 g/m*3 18.1 C 0 km/h
100 30-04-2010 19:52:02 18.1 C 6.33 g/m*3 18.1 C 0 km/h
Sensor: Nr:Datum:Temp:Abs-Feuchte:Windchill:Wind:
Aussen-T/F 101 30-04-2010 20:04:02 18 C 6.3 g/m*3 18 C 0 km/h
102 30-04-2010 20:16:03 17.9 C 6.41 g/m*3 17.9 C 0 km/h
103 30-04-2010 20:28:03 17.7 C 6.49 g/m*3 17.7 C 0 km/h
104 30-04-2010 20:40:02 17 C 7.23 g/m*3 17 C 0 km/h
105 30-04-2010 20:52:02 16.3 C 7.77 g/m*3 16.3 C 0 km/h
106 30-04-2010 21:04:02 15.1 C 8.26 g/m*3 15.1 C 0 km/h
107 30-04-2010 21:16:02 14.7 C 8.69 g/m*3 14.7 C 0 km/h
108 30-04-2010 21:28:02 15.1 C 8.9 g/m*3 15.1 C 0 km/h
109 30-04-2010 21:40:02 15.3 C 8.75 g/m*3 15.3 C 0 km/h
110 30-04-2010 21:52:02 15.2 C 8.44 g/m*3 15.2 C 0 km/h
111 30-04-2010 22:04:02 15.3 C 8.23 g/m*3 15.3 C 0 km/h
112 30-04-2010 22:16:02 15.2 C 8.05 g/m*3 15.2 C 0 km/h
113 30-04-2010 22:28:02 14.9 C 8.16 g/m*3 14.9 C 0 km/h
114 30-04-2010 22:40:02 14.9 C 8.16 g/m*3 14.9 C 0 km/h
115 30-04-2010 22:52:01 14.8 C 8.11 g/m*3 14.8 C 0 km/h
116 30-04-2010 23:05:02 14.2 C 7.33 g/m*3 14.2 C 0 km/h
117 30-04-2010 23:17:02 13.8 C 7.15 g/m*3 13.8 C 0 km/h
118 30-04-2010 23:29:02 13.4 C 6.74 g/m*3 13.4 C 0 km/h
119 30-04-2010 23:41:02 13.1 C 6.39 g/m*3 13.1 C 0 km/h
120 30-04-2010 23:53:02 13.1 C 6.28 g/m*3 13.1 C 0 km/h
121 01-05-2010 00:05:02 13.2 C 6.32 g/m*3 13.2 C 0 km/h
122 01-05-2010 00:17:02 13.3 C 6.47 g/m*3 13.3 C 0 km/h
123 01-05-2010 00:29:02 13.3 C 6.47 g/m*3 13.3 C 0 km/h
124 01-05-2010 00:41:03 13.4 C 6.86 g/m*3 13.4 C 0 km/h
125 01-05-2010 00:53:03 13.4 C 6.86 g/m*3 13.4 C 0 km/h
Sensor: Nr:Datum:Temp:Abs-Feuchte:Windchill:Wind:
Aussen-T/F 126 01-05-2010 01:05:03 13.4 C 6.86 g/m*3 13.4 C 0 km/h
127 01-05-2010 01:17:03 13.3 C 6.59 g/m*3 13.3 C 0 km/h
128 01-05-2010 01:29:03 13.2 C 6.77 g/m*3 13.2 C 0 km/h
129 01-05-2010 01:41:03 13.1 C 7.07 g/m*3 13.1 C 0 km/h
130 01-05-2010 01:53:03 13 C 7.03 g/m*3 13 C 0 km/h
131 01-05-2010 02:05:03 12.9 C 7.1 g/m*3 12.9 C 0 km/h
132 01-05-2010 02:17:03 12.8 C 7.06 g/m*3 12.8 C 0 km/h
133 01-05-2010 02:29:03 12.9 C 6.88 g/m*3 12.9 C 0 km/h
134 01-05-2010 02:41:03 12.9 C 6.65 g/m*3 12.9 C 0 km/h
135 01-05-2010 02:53:03 12.9 C 6.54 g/m*3 12.9 C 0 km/h
136 01-05-2010 03:05:03 12.8 C 6.83 g/m*3 12.8 C 0 km/h
137 01-05-2010 03:17:03 12.7 C 6.79 g/m*3 12.7 C 0 km/h
138 01-05-2010 03:29:03 12.6 C 6.53 g/m*3 12.6 C 0 km/h
139 01-05-2010 03:41:03 12.5 C 6.49 g/m*3 12.5 C 0 km/h
140 01-05-2010 03:53:03 12.5 C 6.6 g/m*3 12.5 C 0 km/h
141 01-05-2010 04:05:03 12.5 C 6.82 g/m*3 12.5 C 0 km/h
142 01-05-2010 04:17:03 12.5 C 7.26 g/m*3 12.5 C 0 km/h
143 01-05-2010 04:29:03 12.5 C 7.04 g/m*3 12.5 C 0 km/h
144 01-05-2010 04:41:03 12.4 C 7.21 g/m*3 12.4 C 0 km/h
145 01-05-2010 04:53:03 12.4 C 7.21 g/m*3 12.4 C 0 km/h
146 01-05-2010 05:05:04 12.4 C 7.21 g/m*3 12.4 C 0 km/h
147 01-05-2010 05:17:04 12.4 C 7.32 g/m*3 12.4 C 0 km/h
148 01-05-2010 05:29:04 12.4 C 7.43 g/m*3 12.4 C 0 km/h
149 01-05-2010 05:41:04 12.3 C 7.49 g/m*3 12.3 C 0 km/h
150 01-05-2010 05:53:04 11.8 C 7.79 g/m*3 11.8 C 0 km/h
Sensor: Nr:Datum:Temp:Abs-Feuchte:Windchill:Wind:
Aussen-T/F 151 01-05-2010 06:05:04 11.6 C 8.11 g/m*3 11.6 C 0 km/h
152 01-05-2010 06:17:04 11.5 C 8.16 g/m*3 11.5 C 0 km/h
153 01-05-2010 06:29:04 11.5 C 8.37 g/m*3 11.5 C 0 km/h
154 01-05-2010 06:41:04 11.5 C 8.47 g/m*3 11.5 C 0 km/h
155 01-05-2010 06:53:04 11.4 C 8.42 g/m*3 11.4 C 0 km/h
156 01-05-2010 07:05:04 11.4 C 8.42 g/m*3 11.4 C 0 km/h
157 01-05-2010 07:17:04 11.4 C 8.31 g/m*3 11.4 C 0 km/h
158 01-05-2010 07:29:04 11.6 C 8.52 g/m*3 11.6 C 0 km/h
159 01-05-2010 07:41:02 11.8 C 8.63 g/m*3 11.8 C 0 km/h
160 01-05-2010 07:53:01 12.1 C 8.69 g/m*3 12.1 C 0 km/h
161 01-05-2010 08:05:02 12.6 C 8.85 g/m*3 12.6 C 0 km/h
162 01-05-2010 08:17:01 12.7 C 8.24 g/m*3 12.7 C 0 km/h
163 01-05-2010 08:29:01 13 C 7.94 g/m*3 13 C 0 km/h
164 01-05-2010 08:41:01 13.4 C 8.14 g/m*3 13.4 C 0 km/h
165 01-05-2010 08:53:01 13.6 C 8.12 g/m*3 13.6 C 0 km/h
166 01-05-2010 09:05:02 13.9 C 8.15 g/m*3 13.9 C 0 km/h
167 01-05-2010 09:17:01 14.3 C 7.99 g/m*3 14.3 C 0 km/h
168 01-05-2010 09:29:01 14.3 C 7.86 g/m*3 14.3 C 0 km/h
169 01-05-2010 09:41:01 14.2 C 8.06 g/m*3 14.2 C 0 km/h
170 01-05-2010 09:53:01 14 C 7.96 g/m*3 14 C 0 km/h
171 01-05-2010 10:05:02 14.3 C 7.74 g/m*3 14.3 C 0 km/h
172 01-05-2010 10:17:01 14.3 C 7.49 g/m*3 14.3 C 0 km/h
173 01-05-2010 10:29:01 14.7 C 7.81 g/m*3 14.7 C 0 km/h
174 01-05-2010 10:41:02 14.7 C 7.43 g/m*3 14.7 C 0 km/h
175 01-05-2010 10:53:02 15.1 C 7.22 g/m*3 15.1 C 0 km/h
Sensor: Nr:Datum:Temp:Abs-Feuchte:Windchill:Wind:
Aussen-T/F 176 01-05-2010 11:05:02 15.8 C 7.4 g/m*3 15.8 C 0 km/h
177 01-05-2010 11:17:01 15.9 C 6.91 g/m*3 15.9 C 0 km/h
178 01-05-2010 11:29:01 16.5 C 6.46 g/m*3 16.5 C 0 km/h
179 01-05-2010 11:41:02 16.9 C 6.33 g/m*3 16.9 C 0 km/h
180 01-05-2010 11:53:02 17.2 C 5.71 g/m*3 17.2 C 0 km/h
181 01-05-2010 12:05:02 17.6 C 5.85 g/m*3 17.6 C 0 km/h
182 01-05-2010 12:17:02 17.7 C 5.88 g/m*3 17.7 C 0 km/h
183 01-05-2010 12:29:02 17.6 C 5.85 g/m*3 17.6 C 0 km/h
184 01-05-2010 12:41:02 16.9 C 5.32 g/m*3 16.9 C 0 km/h
185 01-05-2010 12:53:02 17.6 C 5.7 g/m*3 17.6 C 0 km/h
186 01-05-2010 13:05:02 18.9 C 5.67 g/m*3 18.9 C 0 km/h
187 01-05-2010 13:17:02 18.6 C 5.09 g/m*3 18.6 C 0 km/h
188 01-05-2010 13:29:02 18.9 C 5.18 g/m*3 18.9 C 0 km/h
189 01-05-2010 13:41:02 18.9 C 5.02 g/m*3 18.9 C 0 km/h
190 01-05-2010 13:53:01 20.7 C 4.68 g/m*3 20.7 C 0 km/h
191 01-05-2010 14:05:02 19.1 C 4.92 g/m*3 19.1 C 0 km/h
192 01-05-2010 14:17:01 19.9 C 4.98 g/m*3 19.9 C 0 km/h
193 01-05-2010 14:29:01 19.7 C 4.92 g/m*3 19.7 C 0 km/h
194 01-05-2010 14:41:02 20.3 C 4.75 g/m*3 20.3 C 0 km/h
195 01-05-2010 14:53:02 20.1 C 4.87 g/m*3 20.1 C 0 km/h
196 01-05-2010 15:05:03 19.7 C 4.75 g/m*3 19.7 C 0 km/h
197 01-05-2010 15:17:02 19.9 C 4.81 g/m*3 19.9 C 0 km/h
198 01-05-2010 15:29:02 18.9 C 4.86 g/m*3 18.9 C 0 km/h
199 01-05-2010 15:41:02 18.8 C 4.99 g/m*3 18.8 C 0 km/h
200 01-05-2010 15:53:02 18.1 C 5.1 g/m*3 18.1 C 0 km/h
Sensor: Nr:Datum:Temp:Abs-Feuchte:Windchill:Wind:
Aussen-T/F 201 01-05-2010 16:05:02 17.7 C 5.28 g/m*3 17.7 C 0 km/h
202 01-05-2010 16:17:01 17.5 C 5.37 g/m*3 17.5 C 0 km/h
203 01-05-2010 16:29:01 17.5 C 5.52 g/m*3 17.5 C 0 km/h
204 01-05-2010 16:41:02 17.5 C 5.67 g/m*3 17.5 C 0 km/h
205 01-05-2010 16:53:01 17.7 C 5.73 g/m*3 17.7 C 0 km/h
206 01-05-2010 17:05:02 17.7 C 5.73 g/m*3 17.7 C 0 km/h
207 01-05-2010 17:17:01 17.9 C 5.8 g/m*3 17.9 C 0 km/h
208 01-05-2010 17:29:01 17.9 C 5.65 g/m*3 17.9 C 0 km/h
209 01-05-2010 17:41:02 17.7 C 5.73 g/m*3 17.7 C 0 km/h
210 01-05-2010 17:53:01 17.2 C 5.71 g/m*3 17.2 C 0 km/h
211 01-05-2010 18:05:02 17.4 C 5.93 g/m*3 17.4 C 0 km/h
212 01-05-2010 18:17:02 17.5 C 5.96 g/m*3 17.5 C 0 km/h
213 01-05-2010 18:29:02 17.6 C 6.15 g/m*3 17.6 C 0 km/h
214 01-05-2010 18:41:01 17.4 C 5.93 g/m*3 17.4 C 0 km/h
215 01-05-2010 18:53:01 17.4 C 5.78 g/m*3 17.4 C 0 km/h
216 01-05-2010 19:05:01 17 C 5.64 g/m*3 17 C 0 km/h
217 01-05-2010 19:17:01 16.9 C 5.9 g/m*3 16.9 C 0 km/h
218 01-05-2010 19:29:01 16.8 C 6 g/m*3 16.8 C 0 km/h
219 01-05-2010 19:41:01 16.7 C 6.11 g/m*3 16.7 C 0 km/h
220 01-05-2010 19:53:02 16.4 C 6 g/m*3 16.4 C 0 km/h
221 01-05-2010 20:05:02 16.3 C 5.97 g/m*3 16.3 C 0 km/h
222 01-05-2010 20:17:02 16 C 5.99 g/m*3 16 C 0 km/h
223 01-05-2010 20:29:02 15.7 C 6.15 g/m*3 15.7 C 0 km/h
224 01-05-2010 20:41:02 15.6 C 6.25 g/m*3 15.6 C 0 km/h
225 01-05-2010 20:53:02 15.6 C 6.38 g/m*3 15.6 C 0 km/h
Sensor: Nr:Datum:Temp:Abs-Feuchte:Windchill:Wind:
Aussen-T/F 226 01-05-2010 21:05:01 15.5 C 6.34 g/m*3 15.5 C 0 km/h
227 01-05-2010 21:17:02 15.3 C 6.27 g/m*3 15.3 C 0 km/h
228 01-05-2010 21:29:02 15 C 6.41 g/m*3 15 C 0 km/h
229 01-05-2010 21:41:02 14.7 C 6.55 g/m*3 14.7 C 0 km/h
230 01-05-2010 21:53:02 14.4 C 6.55 g/m*3 14.4 C 0 km/h
231 01-05-2010 22:05:02 14.3 C 6.63 g/m*3 14.3 C 0 km/h
232 01-05-2010 22:17:02 14.3 C 5.77 g/m*3 14.3 C 0 km/h
233 01-05-2010 22:29:02 14.2 C 5.74 g/m*3 14.2 C 0 km/h
234 01-05-2010 22:41:01 14.2 C 5.98 g/m*3 14.2 C 0 km/h
235 01-05-2010 22:54:02 14.1 C 6.07 g/m*3 14.1 C 0 km/h
236 01-05-2010 23:06:03 14.2 C 6.23 g/m*3 14.2 C 0 km/h
237 01-05-2010 23:18:03 14.2 C 6.23 g/m*3 14.2 C 0 km/h
238 01-05-2010 23:30:03 14.2 C 6.35 g/m*3 14.2 C 0 km/h
239 01-05-2010 23:42:03 14 C 6.39 g/m*3 14 C 0 km/h
240 01-05-2010 23:54:03 13.9 C 6.47 g/m*3 13.9 C 0 km/h
241 02-05-2010 00:06:03 13.8 C 6.55 g/m*3 13.8 C 0 km/h
242 02-05-2010 00:18:03 13.3 C 6.93 g/m*3 13.3 C 0 km/h
243 02-05-2010 00:30:03 12.6 C 7.3 g/m*3 12.6 C 0 km/h
244 02-05-2010 00:42:03 12.6 C 7.41 g/m*3 12.6 C 0 km/h
245 02-05-2010 00:54:03 12.5 C 7.26 g/m*3 12.5 C 0 km/h
246 02-05-2010 01:06:03 12.5 C 7.26 g/m*3 12.5 C 0 km/h
247 02-05-2010 01:18:03 12.6 C 7.3 g/m*3 12.6 C 0 km/h
248 02-05-2010 01:30:03 12.6 C 7.19 g/m*3 12.6 C 0 km/h
249 02-05-2010 01:42:03 12.5 C 7.26 g/m*3 12.5 C 0 km/h
250 02-05-2010 01:54:03 12.5 C 7.26 g/m*3 12.5 C 0 km/h
Sensor: Nr:Datum:Temp:Abs-Feuchte:Windchill:Wind:
Aussen-T/F 251 02-05-2010 02:06:03 12.5 C 7.26 g/m*3 12.5 C 0 km/h
252 02-05-2010 02:18:03 12.4 C 7.21 g/m*3 12.4 C 0 km/h
253 02-05-2010 02:30:03 12.3 C 7.28 g/m*3 12.3 C 0 km/h
254 02-05-2010 02:42:03 12.2 C 7.23 g/m*3 12.2 C 0 km/h
255 02-05-2010 02:54:03 12.1 C 7.29 g/m*3 12.1 C 0 km/h
256 02-05-2010 03:06:03 12 C 7.25 g/m*3 12 C 0 km/h
257 02-05-2010 03:18:03 12 C 7.14 g/m*3 12 C 0 km/h
258 02-05-2010 03:30:04 11.9 C 7.31 g/m*3 11.9 C 0 km/h
259 02-05-2010 03:42:04 11.7 C 7.32 g/m*3 11.7 C 0 km/h
260 02-05-2010 03:54:04 11.6 C 7.17 g/m*3 11.6 C 0 km/h
261 02-05-2010 04:06:04 11.6 C 7.17 g/m*3 11.6 C 0 km/h
262 02-05-2010 04:18:04 11.6 C 7.17 g/m*3 11.6 C 0 km/h
263 02-05-2010 04:30:04 11.6 C 7.28 g/m*3 11.6 C 0 km/h
264 02-05-2010 04:42:04 11.7 C 7.43 g/m*3 11.7 C 0 km/h
265 02-05-2010 04:54:04 11.3 C 7.24 g/m*3 11.3 C 0 km/h
266 02-05-2010 05:06:04 11.1 C 7.05 g/m*3 11.1 C 0 km/h
267 02-05-2010 05:18:04 11.1 C 7.05 g/m*3 11.1 C 0 km/h
268 02-05-2010 05:30:04 11.1 C 7.15 g/m*3 11.1 C 0 km/h
269 02-05-2010 05:42:04 11 C 7.11 g/m*3 11 C 0 km/h
270 02-05-2010 05:54:04 11 C 7.11 g/m*3 11 C 0 km/h
271 02-05-2010 06:06:04 10.9 C 7.16 g/m*3 10.9 C 0 km/h
272 02-05-2010 06:18:04 11 C 7.11 g/m*3 11 C 0 km/h
273 02-05-2010 06:30:04 11 C 7.31 g/m*3 11 C 0 km/h
274 02-05-2010 06:42:04 10.9 C 7.26 g/m*3 10.9 C 0 km/h
275 02-05-2010 06:54:04 10.9 C 7.26 g/m*3 10.9 C 0 km/h
Sensor: Nr:Datum:Temp:Abs-Feuchte:Windchill:Wind:
Aussen-T/F 276 02-05-2010 07:06:04 11 C 7.21 g/m*3 11 C 0 km/h
277 02-05-2010 07:18:04 11.2 C 7.4 g/m*3 11.2 C 0 km/h
278 02-05-2010 07:30:04 11.4 C 7.49 g/m*3 11.4 C 0 km/h
279 02-05-2010 07:42:04 11.4 C 7.49 g/m*3 11.4 C 0 km/h
280 02-05-2010 07:54:02 11.4 C 7.49 g/m*3 11.4 C 0 km/h
281 02-05-2010 08:06:02 11.4 C 7.6 g/m*3 11.4 C 0 km/h
282 02-05-2010 08:18:02 11.6 C 7.8 g/m*3 11.6 C 0 km/h
283 02-05-2010 08:30:02 11.2 C 7.7 g/m*3 11.2 C 0 km/h
284 02-05-2010 08:42:02 11.2 C 7.8 g/m*3 11.2 C 0 km/h
285 02-05-2010 08:54:01 11.5 C 8.06 g/m*3 11.5 C 0 km/h
286 02-05-2010 09:06:02 11.8 C 8.21 g/m*3 11.8 C 0 km/h
287 02-05-2010 09:18:01 11.8 C 8 g/m*3 11.8 C 0 km/h
288 02-05-2010 09:30:01 12.1 C 8.04 g/m*3 12.1 C 0 km/h
289 02-05-2010 09:42:02 12.4 C 8.09 g/m*3 12.4 C 0 km/h
290 02-05-2010 09:54:01 12.9 C 8.11 g/m*3 12.9 C 0 km/h
291 02-05-2010 10:06:02 13.1 C 8.1 g/m*3 13.1 C 0 km/h
292 02-05-2010 10:18:01 13.5 C 8.07 g/m*3 13.5 C 0 km/h
293 02-05-2010 10:30:01 14.1 C 8.01 g/m*3 14.1 C 0 km/h
294 02-05-2010 10:42:02 14.9 C 8.03 g/m*3 14.9 C 0 km/h
295 02-05-2010 10:54:01 15.5 C 7.8 g/m*3 15.5 C 0 km/h
296 02-05-2010 11:06:02 16.2 C 7.58 g/m*3 16.2 C 0 km/h
297 02-05-2010 11:18:02 16.7 C 7.82 g/m*3 16.7 C 0 km/h
298 02-05-2010 11:30:02 17.4 C 7.26 g/m*3 17.4 C 0 km/h
299 02-05-2010 11:42:01 18.1 C 7.11 g/m*3 18.1 C 0 km/h
300 02-05-2010 11:54:02 17.9 C 7.02 g/m*3 17.9 C 0 km/h
Sensor: Nr:Datum:Temp:Abs-Feuchte:Windchill:Wind:
Aussen-T/F 301 02-05-2010 12:06:01 16.4 C 6.42 g/m*3 16.4 C 0 km/h
302 02-05-2010 12:18:02 13.5 C 7.37 g/m*3 13.5 C 0 km/h
303 02-05-2010 12:30:02 12.5 C 7.92 g/m*3 12.5 C 0 km/h
304 02-05-2010 12:42:01 11.4 C 7.7 g/m*3 11.4 C 0 km/h
305 02-05-2010 12:54:02 10.7 C 8.05 g/m*3 10.7 C 0 km/h
306 02-05-2010 13:06:02 10.8 C 8.3 g/m*3 10.8 C 0 km/h
307 02-05-2010 13:18:02 11.8 C 8.95 g/m*3 11.8 C 0 km/h
308 02-05-2010 13:30:02 11.6 C 8.63 g/m*3 11.6 C 0 km/h
309 02-05-2010 13:42:03 12.2 C 8.85 g/m*3 12.2 C 0 km/h
310 02-05-2010 13:54:02 13.1 C 8.9 g/m*3 13.1 C 0 km/h
311 02-05-2010 14:06:02 13.9 C 8.99 g/m*3 13.9 C 0 km/h
312 02-05-2010 14:18:02 14.5 C 8.95 g/m*3 14.5 C 0 km/h
313 02-05-2010 14:30:02 15.2 C 9.09 g/m*3 15.2 C 0 km/h
314 02-05-2010 14:42:02 15.3 C 8.88 g/m*3 15.3 C 0 km/h
315 02-05-2010 14:54:02 15.4 C 8.54 g/m*3 15.4 C 0 km/h
316 02-05-2010 15:06:02 14.9 C 8.03 g/m*3 14.9 C 0 km/h
317 02-05-2010 15:18:02 15.9 C 8.13 g/m*3 15.9 C 0 km/h
318 02-05-2010 15:30:02 17.7 C 7.39 g/m*3 17.7 C 0 km/h
319 02-05-2010 15:42:02 18.7 C 6.56 g/m*3 18.7 C 0 km/h
320 02-05-2010 15:54:02 18.6 C 6.05 g/m*3 18.6 C 0 km/h
321 02-05-2010 16:06:02 19.4 C 6.17 g/m*3 19.4 C 0 km/h
322 02-05-2010 16:18:02 18.8 C 5.96 g/m*3 18.8 C 0 km/h
323 02-05-2010 16:30:02 18 C 6.6 g/m*3 18 C 0 km/h
324 02-05-2010 16:42:02 17.3 C 7.37 g/m*3 17.3 C 0 km/h
325 02-05-2010 16:54:01 13.5 C 7.25 g/m*3 13.5 C 0 km/h
Sensor: Nr:Datum:Temp:Abs-Feuchte:Windchill:Wind:
Aussen-T/F 326 02-05-2010 17:06:02 12.3 C 8.25 g/m*3 12.3 C 0 km/h
327 02-05-2010 17:18:01 13.4 C 9.18 g/m*3 13.4 C 0 km/h
328 02-05-2010 17:30:01 15.2 C 8.83 g/m*3 15.2 C 0 km/h
329 02-05-2010 17:42:01 16.5 C 8.28 g/m*3 16.5 C 0 km/h
330 02-05-2010 17:54:01 17.2 C 8.05 g/m*3 17.2 C 0 km/h
331 02-05-2010 18:06:01 18.5 C 7.59 g/m*3 18.5 C 0 km/h
332 02-05-2010 18:18:02 18 C 6.91 g/m*3 18 C 0 km/h
333 02-05-2010 18:30:02 16.7 C 6.68 g/m*3 16.7 C 0 km/h
334 02-05-2010 18:42:01 16.3 C 6.94 g/m*3 16.3 C 0 km/h
335 02-05-2010 18:54:03 16.4 C 7.12 g/m*3 16.4 C 0 km/h
336 02-05-2010 19:06:02 17.5 C 6.71 g/m*3 17.5 C 0 km/h
337 02-05-2010 19:18:02 16.9 C 6.9 g/m*3 16.9 C 0 km/h
338 02-05-2010 19:30:02 18 C 6.91 g/m*3 18 C 0 km/h
339 02-05-2010 19:42:02 17.6 C 6.75 g/m*3 17.6 C 0 km/h
340 02-05-2010 19:54:02 17.3 C 6.48 g/m*3 17.3 C 0 km/h
341 02-05-2010 20:06:02 17.3 C 6.92 g/m*3 17.3 C 0 km/h
342 02-05-2010 20:18:02 17 C 7.23 g/m*3 17 C 0 km/h
343 02-05-2010 20:30:02 16.2 C 7.31 g/m*3 16.2 C 0 km/h
344 02-05-2010 20:42:02 15.1 C 7.35 g/m*3 15.1 C 0 km/h
345 02-05-2010 20:54:02 14.1 C 7.4 g/m*3 14.1 C 0 km/h
346 02-05-2010 21:06:02 13.4 C 7.56 g/m*3 13.4 C 0 km/h
347 02-05-2010 21:18:02 12.8 C 7.62 g/m*3 12.8 C 0 km/h
348 02-05-2010 21:30:03 12.5 C 7.7 g/m*3 12.5 C 0 km/h
349 02-05-2010 21:42:01 12.3 C 7.82 g/m*3 12.3 C 0 km/h
350 02-05-2010 21:54:03 12.1 C 7.72 g/m*3 12.1 C 0 km/h
Sensor: Nr:Datum:Temp:Abs-Feuchte:Windchill:Wind:
Aussen-T/F 351 02-05-2010 22:06:03 11.8 C 7.79 g/m*3 11.8 C 0 km/h
352 02-05-2010 22:19:04 11.6 C 7.8 g/m*3 11.6 C 0 km/h
353 02-05-2010 22:31:04 11.3 C 7.65 g/m*3 11.3 C 0 km/h
354 02-05-2010 22:43:04 11.2 C 7.7 g/m*3 11.2 C 0 km/h
355 02-05-2010 22:55:04 11 C 7.61 g/m*3 11 C 0 km/h
356 02-05-2010 23:07:04 10.8 C 7.61 g/m*3 10.8 C 0 km/h
357 02-05-2010 23:19:04 10.6 C 7.52 g/m*3 10.6 C 0 km/h
358 02-05-2010 23:31:04 10.2 C 7.33 g/m*3 10.2 C 0 km/h
359 02-05-2010 23:43:04 10.2 C 7.42 g/m*3 10.2 C 0 km/h
360 02-05-2010 23:55:04 10.2 C 7.42 g/m*3 10.2 C 0 km/h
361 03-05-2010 00:07:04 10.1 C 7.28 g/m*3 10.1 C 0 km/h
362 03-05-2010 00:19:04 10 C 7.33 g/m*3 10 C 0 km/h
363 03-05-2010 00:31:04 9.9 C 7.38 g/m*3 9.9 C 0 km/h
364 03-05-2010 00:43:04 9.5 C 7.19 g/m*3 9.5 C 0 km/h
365 03-05-2010 00:55:04 9.3 C 7.19 g/m*3 9.3 C 0 km/h
366 03-05-2010 01:07:04 9.2 C 7.14 g/m*3 9.2 C 0 km/h
367 03-05-2010 01:19:04 9.1 C 7.1 g/m*3 9.1 C 0 km/h
368 03-05-2010 01:31:04 9.1 C 7.1 g/m*3 9.1 C 0 km/h
369 03-05-2010 01:43:04 8.7 C 7.09 g/m*3 8.7 C 0 km/h
370 03-05-2010 01:55:04 8.7 C 7.09 g/m*3 8.7 C 0 km/h
371 03-05-2010 02:07:04 8.5 C 7 g/m*3 8.5 C 0 km/h
372 03-05-2010 02:19:05 8.1 C 6.82 g/m*3 8.1 C 0 km/h
373 03-05-2010 02:31:05 8 C 6.78 g/m*3 8 C 0 km/h
374 03-05-2010 02:43:05 8 C 6.78 g/m*3 8 C 0 km/h
375 03-05-2010 02:55:05 8 C 6.78 g/m*3 8 C 0 km/h
Sensor: Nr:Datum:Temp:Abs-Feuchte:Windchill:Wind:
Aussen-T/F 376 03-05-2010 03:07:05 8.2 C 7.03 g/m*3 8.2 C 0 km/h
377 03-05-2010 03:19:05 8.2 C 7.03 g/m*3 8.2 C 0 km/h
378 03-05-2010 03:31:05 8 C 6.94 g/m*3 8 C 0 km/h
379 03-05-2010 03:43:05 8 C 7.03 g/m*3 8 C 0 km/h
380 03-05-2010 03:55:05 8.1 C 7.07 g/m*3 8.1 C 0 km/h
381 03-05-2010 04:07:05 8.2 C 7.12 g/m*3 8.2 C 0 km/h
382 03-05-2010 04:19:05 8.3 C 7.16 g/m*3 8.3 C 0 km/h
383 03-05-2010 04:31:05 8.4 C 7.21 g/m*3 8.4 C 0 km/h
384 03-05-2010 04:43:05 8.6 C 7.22 g/m*3 8.6 C 0 km/h
385 03-05-2010 04:55:05 8.6 C 7.22 g/m*3 8.6 C 0 km/h
386 03-05-2010 05:07:05 8.6 C 7.13 g/m*3 8.6 C 0 km/h
387 03-05-2010 05:19:05 8.6 C 7.13 g/m*3 8.6 C 0 km/h
388 03-05-2010 05:31:05 8.6 C 7.13 g/m*3 8.6 C 0 km/h
389 03-05-2010 05:43:05 8.7 C 7.18 g/m*3 8.7 C 0 km/h
390 03-05-2010 05:55:05 8.5 C 7.09 g/m*3 8.5 C 0 km/h
391 03-05-2010 06:07:05 8.6 C 7.13 g/m*3 8.6 C 0 km/h
392 03-05-2010 06:19:05 8.7 C 7.18 g/m*3 8.7 C 0 km/h
393 03-05-2010 06:31:05 8.6 C 7.13 g/m*3 8.6 C 0 km/h
394 03-05-2010 06:43:05 8.6 C 7.13 g/m*3 8.6 C 0 km/h
395 03-05-2010 06:55:02 8.5 C 7.09 g/m*3 8.5 C 0 km/h
396 03-05-2010 07:07:03 8.2 C 6.95 g/m*3 8.2 C 0 km/h
397 03-05-2010 07:19:02 8.3 C 7 g/m*3 8.3 C 0 km/h
398 03-05-2010 07:31:02 8.2 C 7.03 g/m*3 8.2 C 0 km/h
399 03-05-2010 07:43:02 8.5 C 7.17 g/m*3 8.5 C 0 km/h
400 03-05-2010 07:55:01 8.8 C 7.4 g/m*3 8.8 C 0 km/h
Sensor: Nr:Datum:Temp:Abs-Feuchte:Windchill:Wind:
Aussen-T/F 401 03-05-2010 08:07:02 9.1 C 7.28 g/m*3 9.1 C 0 km/h
402 03-05-2010 08:19:02 9.6 C 7.24 g/m*3 9.6 C 0 km/h
403 03-05-2010 08:31:02 10 C 6.86 g/m*3 10 C 0 km/h
404 03-05-2010 08:43:02 9.9 C 6.72 g/m*3 9.9 C 0 km/h
405 03-05-2010 08:55:02 10 C 6.67 g/m*3 10 C 0 km/h
406 03-05-2010 09:07:02 10.1 C 6.62 g/m*3 10.1 C 0 km/h
407 03-05-2010 09:19:02 10.6 C 6.83 g/m*3 10.6 C 0 km/h
408 03-05-2010 09:31:02 10.5 C 6.69 g/m*3 10.5 C 0 km/h
409 03-05-2010 09:43:02 10.8 C 6.82 g/m*3 10.8 C 0 km/h
410 03-05-2010 09:55:01 10.8 C 6.72 g/m*3 10.8 C 0 km/h
411 03-05-2010 10:07:02 10.8 C 6.72 g/m*3 10.8 C 0 km/h
412 03-05-2010 10:19:01 11 C 6.71 g/m*3 11 C 0 km/h
413 03-05-2010 10:31:01 10.9 C 6.76 g/m*3 10.9 C 0 km/h
414 03-05-2010 10:43:01 10.8 C 6.72 g/m*3 10.8 C 0 km/h
415 03-05-2010 10:55:01 11.5 C 6.92 g/m*3 11.5 C 0 km/h
416 03-05-2010 11:07:02 12.1 C 6.65 g/m*3 12.1 C 0 km/h
417 03-05-2010 11:19:01 11.9 C 6.67 g/m*3 11.9 C 0 km/h
418 03-05-2010 11:31:01 12.1 C 6.65 g/m*3 12.1 C 0 km/h
419 03-05-2010 11:43:01 14.1 C 6.8 g/m*3 14.1 C 0 km/h
420 03-05-2010 11:55:01 14.5 C 6.72 g/m*3 14.5 C 0 km/h
421 03-05-2010 12:07:01 14.7 C 6.55 g/m*3 14.7 C 0 km/h
422 03-05-2010 12:19:02 15.7 C 6.42 g/m*3 15.7 C 0 km/h
423 03-05-2010 12:31:01 15.2 C 6.23 g/m*3 15.2 C 0 km/h
424 03-05-2010 12:43:01 14.5 C 6.09 g/m*3 14.5 C 0 km/h
425 03-05-2010 12:55:02 13.6 C 6.94 g/m*3 13.6 C 0 km/h
Sensor: Nr:Datum:Temp:Abs-Feuchte:Windchill:Wind:
Aussen-T/F 426 03-05-2010 13:07:01 14.2 C 6.84 g/m*3 14.2 C 0 km/h
427 03-05-2010 13:19:01 14.9 C 6.88 g/m*3 14.9 C 0 km/h
428 03-05-2010 13:31:01 15.7 C 6.42 g/m*3 15.7 C 0 km/h
429 03-05-2010 13:43:01 16.7 C 6.25 g/m*3 16.7 C 0 km/h
430 03-05-2010 13:55:02 11.3 C 5.71 g/m*3 11.3 C 0 km/h
431 03-05-2010 14:07:02 11.2 C 6.28 g/m*3 11.2 C 0 km/h
432 03-05-2010 14:19:02 10.1 C 6.43 g/m*3 10.1 C 0 km/h
433 03-05-2010 14:31:01 9.1 C 6.83 g/m*3 9.1 C 0 km/h
434 03-05-2010 14:43:01 9 C 7.23 g/m*3 9 C 0 km/h
435 03-05-2010 14:55:02 8.4 C 7.13 g/m*3 8.4 C 0 km/h
436 03-05-2010 15:07:01 8.8 C 7.49 g/m*3 8.8 C 0 km/h
437 03-05-2010 15:19:02 9 C 7.67 g/m*3 9 C 0 km/h
438 03-05-2010 15:31:02 9.6 C 8.06 g/m*3 9.6 C 0 km/h
439 03-05-2010 15:43:02 10.2 C 8.18 g/m*3 10.2 C 0 km/h
440 03-05-2010 15:55:02 11.1 C 8.56 g/m*3 11.1 C 0 km/h
441 03-05-2010 16:07:02 11.1 C 7.86 g/m*3 11.1 C 0 km/h
442 03-05-2010 16:19:02 11 C 7.51 g/m*3 11 C 0 km/h
443 03-05-2010 16:31:02 10.2 C 7.23 g/m*3 10.2 C 0 km/h
444 03-05-2010 16:43:02 10.1 C 7.28 g/m*3 10.1 C 0 km/h
445 03-05-2010 16:55:01 10.5 C 7.37 g/m*3 10.5 C 0 km/h
446 03-05-2010 17:07:02 10.1 C 6.9 g/m*3 10.1 C 0 km/h
447 03-05-2010 17:19:01 10.4 C 7.42 g/m*3 10.4 C 0 km/h
448 03-05-2010 17:31:02 10.7 C 7.46 g/m*3 10.7 C 0 km/h
449 03-05-2010 17:43:03 11.4 C 7.49 g/m*3 11.4 C 0 km/h
450 03-05-2010 17:55:02 11.5 C 7.02 g/m*3 11.5 C 0 km/h
Sensor: Nr:Datum:Temp:Abs-Feuchte:Windchill:Wind:
Aussen-T/F 451 03-05-2010 18:07:02 11.3 C 7.14 g/m*3 11.3 C 0 km/h
452 03-05-2010 18:19:01 10.7 C 6.58 g/m*3 10.7 C 0 km/h
453 03-05-2010 18:31:02 10.9 C 6.96 g/m*3 10.9 C 0 km/h
454 03-05-2010 18:43:02 11 C 7.01 g/m*3 11 C 0 km/h
455 03-05-2010 18:55:02 10.9 C 6.66 g/m*3 10.9 C 0 km/h
456 03-05-2010 19:07:02 10.8 C 6.62 g/m*3 10.8 C 0 km/h
457 03-05-2010 19:19:01 10.7 C 6.58 g/m*3 10.7 C 0 km/h
458 03-05-2010 19:31:02 10.4 C 6.65 g/m*3 10.4 C 0 km/h
459 03-05-2010 19:43:02 10.3 C 6.42 g/m*3 10.3 C 0 km/h
460 03-05-2010 19:55:02 10.3 C 6.42 g/m*3 10.3 C 0 km/h
461 03-05-2010 20:07:02 10.1 C 6.15 g/m*3 10.1 C 0 km/h
462 03-05-2010 20:19:02 10 C 6.01 g/m*3 10 C 0 km/h
463 03-05-2010 20:31:02 9.8 C 6.12 g/m*3 9.8 C 0 km/h
464 03-05-2010 20:43:02 9.5 C 5.92 g/m*3 9.5 C 0 km/h
465 03-05-2010 20:55:01 9.3 C 6.11 g/m*3 9.3 C 0 km/h
466 03-05-2010 21:07:02 9.2 C 6.07 g/m*3 9.2 C 0 km/h
467 03-05-2010 21:19:02 9.2 C 6.25 g/m*3 9.2 C 0 km/h
468 03-05-2010 21:31:02 9.2 C 6.25 g/m*3 9.2 C 0 km/h
469 03-05-2010 21:43:02 8.9 C 6.39 g/m*3 8.9 C 0 km/h
470 03-05-2010 21:55:02 8.9 C 6.31 g/m*3 8.9 C 0 km/h
471 03-05-2010 22:07:02 8.8 C 6.44 g/m*3 8.8 C 0 km/h
472 03-05-2010 22:20:05 8.7 C 6.49 g/m*3 8.7 C 0 km/h
473 03-05-2010 22:32:05 8.5 C 6.49 g/m*3 8.5 C 0 km/h
474 03-05-2010 22:44:05 8.5 C 6.57 g/m*3 8.5 C 0 km/h
475 03-05-2010 22:56:05 8.4 C 6.45 g/m*3 8.4 C 0 km/h
Sensor: Nr:Datum:Temp:Abs-Feuchte:Windchill:Wind:
Aussen-T/F 476 03-05-2010 23:08:05 8.4 C 6.45 g/m*3 8.4 C 0 km/h
477 03-05-2010 23:20:05 8.4 C 6.53 g/m*3 8.4 C 0 km/h
478 03-05-2010 23:32:05 8.4 C 6.53 g/m*3 8.4 C 0 km/h
479 03-05-2010 23:44:05 8.3 C 6.49 g/m*3 8.3 C 0 km/h
480 03-05-2010 23:56:05 8.3 C 6.49 g/m*3 8.3 C 0 km/h
481 04-05-2010 00:08:05 8 C 6.37 g/m*3 8 C 0 km/h
482 04-05-2010 00:20:05 7.5 C 6.24 g/m*3 7.5 C 0 km/h
483 04-05-2010 00:32:05 7.2 C 6.28 g/m*3 7.2 C 0 km/h
484 04-05-2010 00:44:05 7.4 C 6.44 g/m*3 7.4 C 0 km/h
485 04-05-2010 00:56:05 7.8 C 6.69 g/m*3 7.8 C 0 km/h
486 04-05-2010 01:08:05 8 C 6.53 g/m*3 8 C 0 km/h
487 04-05-2010 01:20:06 8.1 C 6.49 g/m*3 8.1 C 0 km/h
488 04-05-2010 01:32:06 8.2 C 6.45 g/m*3 8.2 C 0 km/h
489 04-05-2010 01:44:06 8.3 C 6.49 g/m*3 8.3 C 0 km/h
490 04-05-2010 01:56:06 8.4 C 6.53 g/m*3 8.4 C 0 km/h
491 04-05-2010 02:08:06 8.4 C 6.53 g/m*3 8.4 C 0 km/h
492 04-05-2010 02:20:06 8.4 C 6.53 g/m*3 8.4 C 0 km/h
493 04-05-2010 02:32:06 8.4 C 6.53 g/m*3 8.4 C 0 km/h
494 04-05-2010 02:44:06 8.3 C 6.49 g/m*3 8.3 C 0 km/h
495 04-05-2010 02:56:06 8.4 C 6.62 g/m*3 8.4 C 0 km/h
496 04-05-2010 03:08:06 8.4 C 6.62 g/m*3 8.4 C 0 km/h
497 04-05-2010 03:20:06 8.4 C 6.62 g/m*3 8.4 C 0 km/h
498 04-05-2010 03:32:06 8.3 C 6.57 g/m*3 8.3 C 0 km/h
499 04-05-2010 03:44:06 8.2 C 6.62 g/m*3 8.2 C 0 km/h
500 04-05-2010 03:56:06 8.1 C 6.66 g/m*3 8.1 C 0 km/h
Sensor: Nr:Datum:Temp:Abs-Feuchte:Windchill:Wind:
Aussen-T/F 501 04-05-2010 04:08:06 8 C 6.61 g/m*3 8 C 0 km/h
502 04-05-2010 04:20:06 7.9 C 6.74 g/m*3 7.9 C 0 km/h
503 04-05-2010 04:32:06 7.9 C 6.82 g/m*3 7.9 C 0 km/h
504 04-05-2010 04:44:06 7.9 C 6.82 g/m*3 7.9 C 0 km/h
505 04-05-2010 04:56:06 7.9 C 6.82 g/m*3 7.9 C 0 km/h
506 04-05-2010 05:08:06 8 C 6.78 g/m*3 8 C 0 km/h
507 04-05-2010 05:20:06 8.1 C 6.82 g/m*3 8.1 C 0 km/h
508 04-05-2010 05:32:07 8.2 C 6.87 g/m*3 8.2 C 0 km/h
509 04-05-2010 05:44:07 8.2 C 6.87 g/m*3 8.2 C 0 km/h
510 04-05-2010 05:56:07 8.2 C 6.87 g/m*3 8.2 C 0 km/h
511 04-05-2010 06:08:07 8.1 C 6.82 g/m*3 8.1 C 0 km/h
512 04-05-2010 06:20:07 8.2 C 6.87 g/m*3 8.2 C 0 km/h
513 04-05-2010 06:32:07 8.2 C 6.87 g/m*3 8.2 C 0 km/h
514 04-05-2010 06:44:07 8.3 C 6.91 g/m*3 8.3 C 0 km/h
515 04-05-2010 06:56:02 8.4 C 6.96 g/m*3 8.4 C 0 km/h
516 04-05-2010 07:08:01 8.5 C 7 g/m*3 8.5 C 0 km/h
517 04-05-2010 07:20:02 8.6 C 6.96 g/m*3 8.6 C 0 km/h
518 04-05-2010 07:32:01 8.7 C 7.01 g/m*3 8.7 C 0 km/h
519 04-05-2010 07:44:01 8.7 C 6.92 g/m*3 8.7 C 0 km/h
520 04-05-2010 07:56:02 8.8 C 6.79 g/m*3 8.8 C 0 km/h
521 04-05-2010 08:08:01 9.2 C 6.61 g/m*3 9.2 C 0 km/h
522 04-05-2010 08:20:01 9 C 6.44 g/m*3 9 C 0 km/h
523 04-05-2010 08:32:02 9.1 C 6.48 g/m*3 9.1 C 0 km/h
524 04-05-2010 08:44:03 8.9 C 6.31 g/m*3 8.9 C 0 km/h
525 04-05-2010 08:56:02 8.9 C 6.31 g/m*3 8.9 C 0 km/h
Sensor: Nr:Datum:Temp:Abs-Feuchte:Windchill:Wind:
Aussen-T/F 526 04-05-2010 09:08:02 9.2 C 6.34 g/m*3 9.2 C 0 km/h
527 04-05-2010 09:20:01 9.1 C 6.21 g/m*3 9.1 C 0 km/h
528 04-05-2010 09:32:02 9.3 C 6.29 g/m*3 9.3 C 0 km/h
529 04-05-2010 09:44:02 9.3 C 6.2 g/m*3 9.3 C 0 km/h
530 04-05-2010 09:56:02 9.5 C 6.19 g/m*3 9.5 C 0 km/h
531 04-05-2010 10:08:02 9.6 C 6.14 g/m*3 9.6 C 0 km/h
532 04-05-2010 10:20:01 9.8 C 5.85 g/m*3 9.8 C 0 km/h
533 04-05-2010 10:32:02 9.8 C 5.85 g/m*3 9.8 C 0 km/h
534 04-05-2010 10:44:02 9.9 C 5.7 g/m*3 9.9 C 0 km/h
535 04-05-2010 10:56:01 10 C 5.54 g/m*3 10 C 0 km/h
536 04-05-2010 11:08:02 10.2 C 5.52 g/m*3 10.2 C 0 km/h
537 04-05-2010 11:20:02 10.5 C 5.24 g/m*3 10.5 C 0 km/h
538 04-05-2010 11:32:02 10.7 C 5.21 g/m*3 10.7 C 0 km/h
539 04-05-2010 11:44:02 11.1 C 5.04 g/m*3 11.1 C 0 km/h
540 04-05-2010 11:56:02 11.3 C 5 g/m*3 11.3 C 0 km/h
541 04-05-2010 12:08:02 10.8 C 4.94 g/m*3 10.8 C 0 km/h
542 04-05-2010 12:20:02 10.5 C 4.85 g/m*3 10.5 C 0 km/h
543 04-05-2010 12:32:01 10.6 C 4.78 g/m*3 10.6 C 0 km/h
544 04-05-2010 12:44:01 11.6 C 4.89 g/m*3 11.6 C 0 km/h
545 04-05-2010 12:56:02 12 C 4.69 g/m*3 12 C 0 km/h
546 04-05-2010 13:08:01 12.2 C 4.64 g/m*3 12.2 C 0 km/h
547 04-05-2010 13:20:02 11.7 C 4.71 g/m*3 11.7 C 0 km/h
548 04-05-2010 13:32:01 11.8 C 4.53 g/m*3 11.8 C 0 km/h
549 04-05-2010 13:44:01 12 C 4.48 g/m*3 12 C 0 km/h
550 04-05-2010 13:56:02 12.2 C 4.53 g/m*3 12.2 C 0 km/h
Sensor: Nr:Datum:Temp:Abs-Feuchte:Windchill:Wind:
Aussen-T/F 551 04-05-2010 14:08:02 12.1 C 4.5 g/m*3 12.1 C 0 km/h
552 04-05-2010 14:20:02 12.5 C 4.84 g/m*3 12.5 C 0 km/h
553 04-05-2010 14:32:02 13.1 C 4.56 g/m*3 13.1 C 0 km/h
554 04-05-2010 14:44:02 13.4 C 4.65 g/m*3 13.4 C 0 km/h
555 04-05-2010 14:56:02 13.5 C 4.44 g/m*3 13.5 C 0 km/h
556 04-05-2010 15:08:02 13.5 C 4.56 g/m*3 13.5 C 0 km/h
557 04-05-2010 15:20:02 13.8 C 4.41 g/m*3 13.8 C 0 km/h
558 04-05-2010 15:32:02 13.5 C 4.44 g/m*3 13.5 C 0 km/h
559 04-05-2010 15:44:02 13.5 C 4.56 g/m*3 13.5 C 0 km/h
560 04-05-2010 15:56:02 12.9 C 4.51 g/m*3 12.9 C 0 km/h
561 04-05-2010 16:08:02 12.5 C 4.51 g/m*3 12.5 C 0 km/h
562 04-05-2010 16:20:02 12.8 C 4.59 g/m*3 12.8 C 0 km/h
563 04-05-2010 16:32:02 12.5 C 4.4 g/m*3 12.5 C 0 km/h
564 04-05-2010 16:44:02 12.5 C 4.4 g/m*3 12.5 C 0 km/h
565 04-05-2010 16:56:01 12 C 4.26 g/m*3 12 C 0 km/h
566 04-05-2010 17:08:02 12 C 4.26 g/m*3 12 C 0 km/h
567 04-05-2010 17:20:01 11.4 C 4.31 g/m*3 11.4 C 0 km/h
568 04-05-2010 17:32:02 11.4 C 4.41 g/m*3 11.4 C 0 km/h
569 04-05-2010 17:44:02 11.5 C 4.34 g/m*3 11.5 C 0 km/h
570 04-05-2010 17:56:02 11.4 C 4.31 g/m*3 11.4 C 0 km/h
571 04-05-2010 18:08:02 11.5 C 4.23 g/m*3 11.5 C 0 km/h
572 04-05-2010 18:20:02 11.4 C 4.21 g/m*3 11.4 C 0 km/h
573 04-05-2010 18:32:02 11.2 C 4.16 g/m*3 11.2 C 0 km/h
574 04-05-2010 18:44:02 11.1 C 4.13 g/m*3 11.1 C 0 km/h
575 04-05-2010 18:56:02 11 C 4.3 g/m*3 11 C 0 km/h
Sensor: Nr:Datum:Temp:Abs-Feuchte:Windchill:Wind:
Aussen-T/F 576 04-05-2010 19:08:02 11 C 4.3 g/m*3 11 C 0 km/h
577 04-05-2010 19:20:02 12 C 4.16 g/m*3 12 C 0 km/h
578 04-05-2010 19:32:02 11.4 C 4 g/m*3 11.4 C 0 km/h
579 04-05-2010 19:44:02 11 C 4 g/m*3 11 C 0 km/h
580 04-05-2010 19:56:01 11 C 4.2 g/m*3 11 C 0 km/h
581 04-05-2010 20:08:02 10.7 C 4.22 g/m*3 10.7 C 0 km/h
582 04-05-2010 20:20:01 10.6 C 4.49 g/m*3 10.6 C 0 km/h
583 04-05-2010 20:32:01 10.1 C 4.35 g/m*3 10.1 C 0 km/h
584 04-05-2010 20:44:01 9.8 C 4.36 g/m*3 9.8 C 0 km/h
585 04-05-2010 20:56:01 9.4 C 4.34 g/m*3 9.4 C 0 km/h
586 04-05-2010 21:08:02 9.5 C 4.28 g/m*3 9.5 C 0 km/h
587 04-05-2010 21:20:01 9.6 C 4.31 g/m*3 9.6 C 0 km/h
588 04-05-2010 21:32:01 9.7 C 4.61 g/m*3 9.7 C 0 km/h
589 04-05-2010 21:44:01 9.5 C 4.64 g/m*3 9.5 C 0 km/h
590 04-05-2010 21:56:01 8.8 C 4.61 g/m*3 8.8 C 0 km/h
591 04-05-2010 22:09:04 8.2 C 4.35 g/m*3 8.2 C 0 km/h
592 04-05-2010 22:21:04 8.1 C 4.33 g/m*3 8.1 C 0 km/h
593 04-05-2010 22:33:05 7.8 C 4.24 g/m*3 7.8 C 0 km/h
594 04-05-2010 22:45:05 7.7 C 4.14 g/m*3 7.7 C 0 km/h
595 04-05-2010 22:57:05 7.5 C 4.16 g/m*3 7.5 C 0 km/h
596 04-05-2010 23:09:05 7.4 C 4.14 g/m*3 7.4 C 0 km/h
597 04-05-2010 23:21:05 7.4 C 4.14 g/m*3 7.4 C 0 km/h
598 04-05-2010 23:33:05 7.3 C 4.03 g/m*3 7.3 C 0 km/h
599 04-05-2010 23:45:05 7.3 C 4.03 g/m*3 7.3 C 0 km/h
600 04-05-2010 23:57:05 7 C 3.95 g/m*3 7 C 0 km/h
Sensor: Nr:Datum:Temp:Abs-Feuchte:Windchill:Wind:
Aussen-T/F 601 05-05-2010 00:09:05 6.8 C 4.05 g/m*3 6.8 C 0 km/h
602 05-05-2010 00:21:05 6.7 C 4.18 g/m*3 6.7 C 0 km/h
603 05-05-2010 00:33:05 6.3 C 4.22 g/m*3 6.3 C 0 km/h
604 05-05-2010 00:45:05 6 C 4.21 g/m*3 6 C 0 km/h
605 05-05-2010 00:57:05 5.8 C 4.37 g/m*3 5.8 C 0 km/h
606 05-05-2010 01:09:05 5.5 C 4.35 g/m*3 5.5 C 0 km/h
607 05-05-2010 01:21:05 5.3 C 4.44 g/m*3 5.3 C 0 km/h
608 05-05-2010 01:33:05 5.4 C 4.4 g/m*3 5.4 C 0 km/h
609 05-05-2010 01:45:05 5.6 C 4.31 g/m*3 5.6 C 0 km/h
610 05-05-2010 01:57:05 5.6 C 4.24 g/m*3 5.6 C 0 km/h
611 05-05-2010 02:09:05 5.7 C 4.13 g/m*3 5.7 C 0 km/h
612 05-05-2010 02:21:05 5.7 C 4.13 g/m*3 5.7 C 0 km/h
613 05-05-2010 02:33:05 5.6 C 4.17 g/m*3 5.6 C 0 km/h
614 05-05-2010 02:45:06 5.5 C 4.21 g/m*3 5.5 C 0 km/h
615 05-05-2010 02:57:06 5.2 C 4.2 g/m*3 5.2 C 0 km/h
616 05-05-2010 03:09:06 5.1 C 4.24 g/m*3 5.1 C 0 km/h
617 05-05-2010 03:21:06 4.8 C 4.22 g/m*3 4.8 C 0 km/h
618 05-05-2010 03:33:06 4.7 C 4.13 g/m*3 4.7 C 0 km/h
619 05-05-2010 03:45:06 4.6 C 4.1 g/m*3 4.6 C 0 km/h
620 05-05-2010 03:57:06 4.5 C 4.01 g/m*3 4.5 C 0 km/h
621 05-05-2010 04:09:06 4.3 C 3.96 g/m*3 4.3 C 0 km/h
622 05-05-2010 04:21:06 4 C 4.01 g/m*3 4 C 0 km/h
623 05-05-2010 04:33:06 3.8 C 4.08 g/m*3 3.8 C 0 km/h
624 05-05-2010 04:45:06 3.7 C 4.11 g/m*3 3.7 C 0 km/h
625 05-05-2010 04:57:06 3.7 C 4.05 g/m*3 3.7 C 0 km/h
Sensor: Nr:Datum:Temp:Abs-Feuchte:Windchill:Wind:
Aussen-T/F 626 05-05-2010 05:09:06 3.6 C 4.02 g/m*3 3.6 C 0 km/h
627 05-05-2010 05:21:06 3.6 C 3.96 g/m*3 3.6 C 0 km/h
628 05-05-2010 05:33:06 3.6 C 3.9 g/m*3 3.6 C 0 km/h
629 05-05-2010 05:45:06 3.4 C 3.79 g/m*3 3.4 C 0 km/h
630 05-05-2010 05:57:06 3.2 C 3.86 g/m*3 3.2 C 0 km/h
631 05-05-2010 06:09:06 3 C 3.86 g/m*3 3 C 0 km/h
632 05-05-2010 06:21:06 2.8 C 3.99 g/m*3 2.8 C 0 km/h
633 05-05-2010 06:33:03 2.6 C 3.99 g/m*3 2.6 C 0 km/h
634 05-05-2010 06:45:03 2.5 C 4.02 g/m*3 2.5 C 0 km/h
635 05-05-2010 06:57:03 2.5 C 4.08 g/m*3 2.5 C 0 km/h
636 05-05-2010 07:09:02 2.5 C 4.14 g/m*3 2.5 C 0 km/h
637 05-05-2010 07:21:03 2.7 C 4.25 g/m*3 2.7 C 0 km/h
638 05-05-2010 07:33:02 2.8 C 4.28 g/m*3 2.8 C 0 km/h
639 05-05-2010 07:45:02 3 C 4.28 g/m*3 3 C 0 km/h
640 05-05-2010 07:57:02 3.4 C 4.4 g/m*3 3.4 C 0 km/h
641 05-05-2010 08:09:02 3.8 C 4.45 g/m*3 3.8 C 0 km/h
642 05-05-2010 08:21:02 4.4 C 4.31 g/m*3 4.4 C 0 km/h
643 05-05-2010 08:33:02 4.6 C 4.17 g/m*3 4.6 C 0 km/h
644 05-05-2010 08:45:02 4.9 C 4.12 g/m*3 4.9 C 0 km/h
645 05-05-2010 08:57:02 5.3 C 4.02 g/m*3 5.3 C 0 km/h
646 05-05-2010 09:09:01 6 C 3.99 g/m*3 6 C 0 km/h
647 05-05-2010 09:21:02 6.6 C 3.85 g/m*3 6.6 C 0 km/h
648 05-05-2010 09:33:02 7.2 C 3.92 g/m*3 7.2 C 0 km/h
649 05-05-2010 09:45:02 7.5 C 3.76 g/m*3 7.5 C 0 km/h
650 05-05-2010 09:57:02 7.9 C 3.7 g/m*3 7.9 C 0 km/h
Sensor: Nr:Datum:Temp:Abs-Feuchte:Windchill:Wind:
Aussen-T/F 651 05-05-2010 10:09:02 8.1 C 3.58 g/m*3 8.1 C 0 km/h
652 05-05-2010 10:21:02 8.6 C 3.52 g/m*3 8.6 C 0 km/h
653 05-05-2010 10:33:02 9.5 C 3.37 g/m*3 9.5 C 0 km/h
654 05-05-2010 10:45:01 9.6 C 3.11 g/m*3 9.6 C 0 km/h
655 05-05-2010 10:57:01 10 C 2.91 g/m*3 10 C 0 km/h
656 05-05-2010 11:09:02 10.4 C 2.89 g/m*3 10.4 C 0 km/h
657 05-05-2010 11:21:01 10.7 C 2.75 g/m*3 10.7 C 0 km/h
658 05-05-2010 11:33:02 11.2 C 3.04 g/m*3 11.2 C 0 km/h
659 05-05-2010 11:45:02 11.9 C 2.65 g/m*3 11.9 C 0 km/h
660 05-05-2010 11:57:02 12.5 C 2.42 g/m*3 12.5 C 0 km/h
661 05-05-2010 12:09:02 12.7 C 2.23 g/m*3 12.7 C 0 km/h
662 05-05-2010 12:21:01 12.7 C 2.23 g/m*3 12.7 C 0 km/h
663 05-05-2010 12:33:02 13.4 C 2.32 g/m*3 13.4 C 0 km/h
664 05-05-2010 12:45:02 14.6 C 2.5 g/m*3 14.6 C 0 km/h
665 05-05-2010 12:57:02 15.2 C 2.6 g/m*3 15.2 C 0 km/h
666 05-05-2010 13:09:02 15.9 C 2.71 g/m*3 15.9 C 0 km/h
667 05-05-2010 13:21:01 16.6 C 2.83 g/m*3 16.6 C 0 km/h
668 05-05-2010 13:33:02 17.2 C 2.93 g/m*3 17.2 C 0 km/h
669 05-05-2010 13:45:01 16.6 C 2.83 g/m*3 16.6 C 0 km/h
670 05-05-2010 13:57:01 16.4 C 2.79 g/m*3 16.4 C 0 km/h
671 05-05-2010 14:09:02 16.7 C 2.84 g/m*3 16.7 C 0 km/h
672 05-05-2010 14:21:02 16.7 C 2.84 g/m*3 16.7 C 0 km/h
673 05-05-2010 14:33:01 17 C 2.89 g/m*3 17 C 0 km/h
674 05-05-2010 14:45:01 17.4 C 2.96 g/m*3 17.4 C 0 km/h
675 05-05-2010 14:57:01 17.5 C 2.98 g/m*3 17.5 C 0 km/h
Sensor: Nr:Datum:Temp:Abs-Feuchte:Windchill:Wind:
Aussen-T/F 676 05-05-2010 15:09:02 18.3 C 3.13 g/m*3 18.3 C 0 km/h
677 05-05-2010 15:21:02 18.2 C 3.11 g/m*3 18.2 C 0 km/h
678 05-05-2010 15:33:01 17.8 C 3.04 g/m*3 17.8 C 0 km/h
679 05-05-2010 15:45:02 18 C 3.07 g/m*3 18 C 0 km/h
680 05-05-2010 15:57:02 18.2 C 3.11 g/m*3 18.2 C 0 km/h
681 05-05-2010 16:09:01 18.3 C 3.13 g/m*3 18.3 C 0 km/h
682 05-05-2010 16:21:01 18.1 C 3.09 g/m*3 18.1 C 0 km/h
683 05-05-2010 16:33:01 17.7 C 3.02 g/m*3 17.7 C 0 km/h
684 05-05-2010 16:45:02 17.5 C 2.98 g/m*3 17.5 C 0 km/h
685 05-05-2010 16:57:02 17.2 C 2.93 g/m*3 17.2 C 0 km/h
686 05-05-2010 17:09:02 16.7 C 2.84 g/m*3 16.7 C 0 km/h
687 05-05-2010 17:21:02 16.2 C 2.76 g/m*3 16.2 C 0 km/h
688 05-05-2010 17:33:02 15.6 C 2.66 g/m*3 15.6 C 0 km/h
689 05-05-2010 17:45:02 15.1 C 2.58 g/m*3 15.1 C 0 km/h
690 05-05-2010 17:57:02 14.8 C 2.53 g/m*3 14.8 C 0 km/h
691 05-05-2010 18:09:01 14.5 C 2.49 g/m*3 14.5 C 0 km/h
692 05-05-2010 18:21:01 14.4 C 2.47 g/m*3 14.4 C 0 km/h
693 05-05-2010 18:33:02 14.2 C 2.44 g/m*3 14.2 C 0 km/h
694 05-05-2010 18:45:02 14.1 C 2.43 g/m*3 14.1 C 0 km/h
695 05-05-2010 18:57:02 13.8 C 2.38 g/m*3 13.8 C 0 km/h
696 05-05-2010 19:09:02 13.7 C 2.37 g/m*3 13.7 C 0 km/h
697 05-05-2010 19:21:01 13.6 C 2.35 g/m*3 13.6 C 0 km/h
698 05-05-2010 19:33:02 13.5 C 2.34 g/m*3 13.5 C 0 km/h
699 05-05-2010 19:45:02 13.3 C 2.43 g/m*3 13.3 C 0 km/h
700 05-05-2010 19:57:02 13.1 C 2.28 g/m*3 13.1 C 0 km/h
Sensor: Nr:Datum:Temp:Abs-Feuchte:Windchill:Wind:
Aussen-T/F 701 05-05-2010 20:09:02 13 C 2.49 g/m*3 13 C 0 km/h
702 05-05-2010 20:21:02 12.9 C 2.82 g/m*3 12.9 C 0 km/h
703 05-05-2010 20:33:02 12.8 C 2.91 g/m*3 12.8 C 0 km/h
704 05-05-2010 20:45:02 12.7 C 2.89 g/m*3 12.7 C 0 km/h
705 05-05-2010 20:57:02 12.6 C 2.88 g/m*3 12.6 C 0 km/h
706 05-05-2010 21:09:02 12.5 C 2.86 g/m*3 12.5 C 0 km/h
707 05-05-2010 21:21:02 12.4 C 2.84 g/m*3 12.4 C 0 km/h
708 05-05-2010 21:33:02 12.3 C 2.82 g/m*3 12.3 C 0 km/h
709 05-05-2010 21:45:02 12.3 C 2.93 g/m*3 12.3 C 0 km/h
710 05-05-2010 21:57:02 12.2 C 2.91 g/m*3 12.2 C 0 km/h
711 05-05-2010 22:09:03 12.1 C 3 g/m*3 12.1 C 0 km/h
712 05-05-2010 22:21:02 12 C 3.09 g/m*3 12 C 0 km/h
713 05-05-2010 22:34:02 11.9 C 3.39 g/m*3 11.9 C 0 km/h
714 05-05-2010 22:46:02 11.7 C 3.35 g/m*3 11.7 C 0 km/h
715 05-05-2010 22:58:02 11.7 C 3.35 g/m*3 11.7 C 0 km/h
716 05-05-2010 23:10:02 11.6 C 3.22 g/m*3 11.6 C 0 km/h
717 05-05-2010 23:22:02 11.5 C 3.2 g/m*3 11.5 C 0 km/h
718 05-05-2010 23:34:02 11.6 C 3.33 g/m*3 11.6 C 0 km/h
719 05-05-2010 23:46:02 11.4 C 3.39 g/m*3 11.4 C 0 km/h
720 05-05-2010 23:58:02 11.4 C 3.39 g/m*3 11.4 C 0 km/h
721 06-05-2010 00:10:02 11.3 C 3.47 g/m*3 11.3 C 0 km/h
722 06-05-2010 00:22:02 11.2 C 3.55 g/m*3 11.2 C 0 km/h
723 06-05-2010 00:34:02 11.2 C 3.55 g/m*3 11.2 C 0 km/h
724 06-05-2010 00:46:02 10.7 C 4.03 g/m*3 10.7 C 0 km/h
725 06-05-2010 00:58:02 9.8 C 4.45 g/m*3 9.8 C 0 km/h
Sensor: Nr:Datum:Temp:Abs-Feuchte:Windchill:Wind:
Aussen-T/F 726 06-05-2010 01:10:02 8.7 C 5.1 g/m*3 8.7 C 0 km/h
727 06-05-2010 01:22:02 7.9 C 5.5 g/m*3 7.9 C 0 km/h
728 06-05-2010 01:34:02 7.3 C 5.93 g/m*3 7.3 C 0 km/h
729 06-05-2010 01:46:02 7.1 C 6.01 g/m*3 7.1 C 0 km/h
730 06-05-2010 01:58:03 7 C 6.04 g/m*3 7 C 0 km/h
731 06-05-2010 02:10:03 6.9 C 6.31 g/m*3 6.9 C 0 km/h
732 06-05-2010 02:22:03 6.8 C 6.42 g/m*3 6.8 C 0 km/h
733 06-05-2010 02:34:03 6.7 C 6.53 g/m*3 6.7 C 0 km/h
734 06-05-2010 02:46:03 6.5 C 6.52 g/m*3 6.5 C 0 km/h
735 06-05-2010 02:58:03 6.8 C 6.73 g/m*3 6.8 C 0 km/h
736 06-05-2010 03:10:03 6.8 C 6.81 g/m*3 6.8 C 0 km/h
737 06-05-2010 03:22:03 6.7 C 6.84 g/m*3 6.7 C 0 km/h
738 06-05-2010 03:34:03 6.5 C 6.82 g/m*3 6.5 C 0 km/h
739 06-05-2010 03:46:03 6.9 C 7.01 g/m*3 6.9 C 0 km/h
740 06-05-2010 03:58:03 6.8 C 7.04 g/m*3 6.8 C 0 km/h
741 06-05-2010 04:10:03 6.9 C 7.08 g/m*3 6.9 C 0 km/h
742 06-05-2010 04:22:03 6.9 C 7.08 g/m*3 6.9 C 0 km/h
743 06-05-2010 04:34:03 6.9 C 7.08 g/m*3 6.9 C 0 km/h
744 06-05-2010 04:46:03 6.9 C 7.08 g/m*3 6.9 C 0 km/h
745 06-05-2010 04:58:03 6.8 C 7.04 g/m*3 6.8 C 0 km/h
746 06-05-2010 05:10:03 6.6 C 7.02 g/m*3 6.6 C 0 km/h
747 06-05-2010 05:22:03 6.5 C 6.97 g/m*3 6.5 C 0 km/h
748 06-05-2010 05:34:03 6.6 C 7.02 g/m*3 6.6 C 0 km/h
749 06-05-2010 05:46:03 6.8 C 7.11 g/m*3 6.8 C 0 km/h
750 06-05-2010 05:58:04 6.8 C 7.11 g/m*3 6.8 C 0 km/h
Sensor: Nr:Datum:Temp:Abs-Feuchte:Windchill:Wind:
Aussen-T/F 751 06-05-2010 06:10:04 6.5 C 6.97 g/m*3 6.5 C 0 km/h
752 06-05-2010 06:22:04 6.5 C 6.97 g/m*3 6.5 C 0 km/h
753 06-05-2010 06:34:04 6.5 C 6.97 g/m*3 6.5 C 0 km/h
754 06-05-2010 06:46:04 6.6 C 7.02 g/m*3 6.6 C 0 km/h
755 06-05-2010 06:58:04 6.5 C 7.05 g/m*3 6.5 C 0 km/h
756 06-05-2010 07:10:01 6.4 C 7 g/m*3 6.4 C 0 km/h
757 06-05-2010 07:22:02 6.4 C 7 g/m*3 6.4 C 0 km/h
758 06-05-2010 07:34:01 6.3 C 6.96 g/m*3 6.3 C 0 km/h
759 06-05-2010 07:46:03 6.5 C 7.05 g/m*3 6.5 C 0 km/h
760 06-05-2010 07:58:03 6.3 C 6.96 g/m*3 6.3 C 0 km/h
761 06-05-2010 08:10:02 6.1 C 6.87 g/m*3 6.1 C 0 km/h
762 06-05-2010 08:22:02 6.2 C 6.91 g/m*3 6.2 C 0 km/h
763 06-05-2010 08:34:03 6.2 C 6.91 g/m*3 6.2 C 0 km/h
764 06-05-2010 08:46:02 6.4 C 7 g/m*3 6.4 C 0 km/h
765 06-05-2010 08:58:02 6.2 C 6.91 g/m*3 6.2 C 0 km/h
766 06-05-2010 09:10:02 6.2 C 6.84 g/m*3 6.2 C 0 km/h
767 06-05-2010 09:22:01 6.4 C 7 g/m*3 6.4 C 0 km/h
768 06-05-2010 09:34:02 6.6 C 7.1 g/m*3 6.6 C 0 km/h
769 06-05-2010 09:46:02 6.8 C 7.19 g/m*3 6.8 C 0 km/h
770 06-05-2010 09:58:02 6.8 C 7.19 g/m*3 6.8 C 0 km/h
771 06-05-2010 10:10:02 6.8 C 7.19 g/m*3 6.8 C 0 km/h
772 06-05-2010 10:22:02 6.9 C 7.24 g/m*3 6.9 C 0 km/h
773 06-05-2010 10:34:02 6.8 C 7.11 g/m*3 6.8 C 0 km/h
774 06-05-2010 10:46:02 6.8 C 7.11 g/m*3 6.8 C 0 km/h
775 06-05-2010 10:58:02 6.9 C 7.16 g/m*3 6.9 C 0 km/h
Sensor: Nr:Datum:Temp:Abs-Feuchte:Windchill:Wind:
Aussen-T/F 776 06-05-2010 11:10:02 7 C 7.21 g/m*3 7 C 0 km/h
777 06-05-2010 11:22:02 7 C 7.13 g/m*3 7 C 0 km/h
778 06-05-2010 11:34:02 7 C 7.13 g/m*3 7 C 0 km/h
779 06-05-2010 11:46:01 7.1 C 7.18 g/m*3 7.1 C 0 km/h
780 06-05-2010 11:58:01 7.1 C 7.18 g/m*3 7.1 C 0 km/h
781 06-05-2010 12:10:01 7.2 C 7.22 g/m*3 7.2 C 0 km/h
782 06-05-2010 12:22:02 6.9 C 7.08 g/m*3 6.9 C 0 km/h
783 06-05-2010 12:34:02 6.9 C 7.01 g/m*3 6.9 C 0 km/h
784 06-05-2010 12:46:01 7.1 C 7.1 g/m*3 7.1 C 0 km/h
785 06-05-2010 12:58:01 7.2 C 7.06 g/m*3 7.2 C 0 km/h
786 06-05-2010 13:10:02 7.5 C 7.2 g/m*3 7.5 C 0 km/h
787 06-05-2010 13:22:01 7.7 C 7.3 g/m*3 7.7 C 0 km/h
788 06-05-2010 13:34:02 7.4 C 7.16 g/m*3 7.4 C 0 km/h
789 06-05-2010 13:46:02 7.3 C 7.19 g/m*3 7.3 C 0 km/h
790 06-05-2010 13:58:02 7.2 C 7.14 g/m*3 7.2 C 0 km/h
791 06-05-2010 14:10:03 7.3 C 7.27 g/m*3 7.3 C 0 km/h
792 06-05-2010 14:22:02 7.4 C 7.32 g/m*3 7.4 C 0 km/h
793 06-05-2010 14:34:03 7.3 C 7.27 g/m*3 7.3 C 0 km/h
794 06-05-2010 14:46:02 7.4 C 7.32 g/m*3 7.4 C 0 km/h
795 06-05-2010 14:58:02 7.6 C 7.49 g/m*3 7.6 C 0 km/h
796 06-05-2010 15:10:02 7.5 C 7.44 g/m*3 7.5 C 0 km/h
797 06-05-2010 15:22:02 7.1 C 7.18 g/m*3 7.1 C 0 km/h
798 06-05-2010 15:34:03 7.1 C 7.25 g/m*3 7.1 C 0 km/h
799 06-05-2010 15:46:01 6.9 C 7.16 g/m*3 6.9 C 0 km/h
800 06-05-2010 15:58:01 6.9 C 7.24 g/m*3 6.9 C 0 km/h
Sensor: Nr:Datum:Temp:Abs-Feuchte:Windchill:Wind:
Aussen-T/F 801 06-05-2010 16:10:02 6.7 C 7.14 g/m*3 6.7 C 0 km/h
802 06-05-2010 16:22:02 6.5 C 6.97 g/m*3 6.5 C 0 km/h
803 06-05-2010 16:34:02 6.5 C 6.97 g/m*3 6.5 C 0 km/h
804 06-05-2010 16:46:03 6.5 C 6.97 g/m*3 6.5 C 0 km/h
805 06-05-2010 16:58:03 6.5 C 6.97 g/m*3 6.5 C 0 km/h
806 06-05-2010 17:10:02 6.5 C 6.9 g/m*3 6.5 C 0 km/h
807 06-05-2010 17:22:03 6.6 C 6.95 g/m*3 6.6 C 0 km/h
808 06-05-2010 17:34:02 6.4 C 6.85 g/m*3 6.4 C 0 km/h
809 06-05-2010 17:46:03 6.5 C 6.9 g/m*3 6.5 C 0 km/h
810 06-05-2010 17:58:03 6.3 C 6.81 g/m*3 6.3 C 0 km/h
811 06-05-2010 18:10:02 6 C 6.6 g/m*3 6 C 0 km/h
812 06-05-2010 18:22:02 5.9 C 6.56 g/m*3 5.9 C 0 km/h
813 06-05-2010 18:34:02 5.8 C 6.52 g/m*3 5.8 C 0 km/h
814 06-05-2010 18:46:02 5.9 C 6.63 g/m*3 5.9 C 0 km/h
815 06-05-2010 18:58:02 5.9 C 6.63 g/m*3 5.9 C 0 km/h
816 06-05-2010 19:10:02 6 C 6.6 g/m*3 6 C 0 km/h
817 06-05-2010 19:22:02 5.9 C 6.63 g/m*3 5.9 C 0 km/h
818 06-05-2010 19:34:02 5.9 C 6.63 g/m*3 5.9 C 0 km/h
819 06-05-2010 19:46:02 5.7 C 6.55 g/m*3 5.7 C 0 km/h
820 06-05-2010 19:58:02 5.6 C 6.57 g/m*3 5.6 C 0 km/h
821 06-05-2010 20:10:01 5.6 C 6.57 g/m*3 5.6 C 0 km/h
822 06-05-2010 20:22:02 5.5 C 6.53 g/m*3 5.5 C 0 km/h
823 06-05-2010 20:34:02 5.6 C 6.65 g/m*3 5.6 C 0 km/h
824 06-05-2010 20:46:02 5.4 C 6.56 g/m*3 5.4 C 0 km/h
825 06-05-2010 20:58:02 5.4 C 6.56 g/m*3 5.4 C 0 km/h
Sensor: Nr:Datum:Temp:Abs-Feuchte:Windchill:Wind:
Aussen-T/F 826 06-05-2010 21:10:01 5.4 C 6.56 g/m*3 5.4 C 0 km/h
827 06-05-2010 21:22:02 5.4 C 6.56 g/m*3 5.4 C 0 km/h
828 06-05-2010 21:34:01 5.3 C 6.52 g/m*3 5.3 C 0 km/h
829 06-05-2010 21:46:03 5.4 C 6.56 g/m*3 5.4 C 0 km/h
830 06-05-2010 21:58:03 5.4 C 6.56 g/m*3 5.4 C 0 km/h
831 06-05-2010 22:10:02 5.4 C 6.63 g/m*3 5.4 C 0 km/h
832 06-05-2010 22:22:02 5.4 C 6.63 g/m*3 5.4 C 0 km/h
833 06-05-2010 22:34:02 5.4 C 6.63 g/m*3 5.4 C 0 km/h
834 06-05-2010 22:47:02 5.4 C 6.63 g/m*3 5.4 C 0 km/h
835 06-05-2010 22:59:02 5.4 C 6.63 g/m*3 5.4 C 0 km/h
836 06-05-2010 23:11:02 5.4 C 6.63 g/m*3 5.4 C 0 km/h
837 06-05-2010 23:23:02 5.4 C 6.63 g/m*3 5.4 C 0 km/h
838 06-05-2010 23:35:02 5.4 C 6.63 g/m*3 5.4 C 0 km/h
839 06-05-2010 23:47:02 5.3 C 6.58 g/m*3 5.3 C 0 km/h
840 06-05-2010 23:59:02 5.3 C 6.58 g/m*3 5.3 C 0 km/h
841 07-05-2010 00:11:02 5.4 C 6.63 g/m*3 5.4 C 0 km/h
842 07-05-2010 00:23:02 5.4 C 6.63 g/m*3 5.4 C 0 km/h
843 07-05-2010 00:35:02 5.4 C 6.63 g/m*3 5.4 C 0 km/h
844 07-05-2010 00:47:02 5.4 C 6.63 g/m*3 5.4 C 0 km/h
845 07-05-2010 00:59:02 5.4 C 6.63 g/m*3 5.4 C 0 km/h
846 07-05-2010 01:11:03 5.4 C 6.63 g/m*3 5.4 C 0 km/h
847 07-05-2010 01:23:03 5.4 C 6.63 g/m*3 5.4 C 0 km/h
848 07-05-2010 01:35:03 5.4 C 6.63 g/m*3 5.4 C 0 km/h
849 07-05-2010 01:47:03 5.4 C 6.63 g/m*3 5.4 C 0 km/h
850 07-05-2010 01:59:03 5.4 C 6.63 g/m*3 5.4 C 0 km/h
Sensor: Nr:Datum:Temp:Abs-Feuchte:Windchill:Wind:
Aussen-T/F 851 07-05-2010 02:11:03 5.4 C 6.63 g/m*3 5.4 C 0 km/h
852 07-05-2010 02:23:03 5.4 C 6.63 g/m*3 5.4 C 0 km/h
853 07-05-2010 02:35:03 5.4 C 6.63 g/m*3 5.4 C 0 km/h
854 07-05-2010 02:47:03 5.4 C 6.63 g/m*3 5.4 C 0 km/h
855 07-05-2010 02:59:03 5.4 C 6.63 g/m*3 5.4 C 0 km/h
856 07-05-2010 03:11:03 5.4 C 6.63 g/m*3 5.4 C 0 km/h
857 07-05-2010 03:23:03 5.4 C 6.63 g/m*3 5.4 C 0 km/h
858 07-05-2010 03:35:03 5.3 C 6.58 g/m*3 5.3 C 0 km/h
859 07-05-2010 03:47:03 5.3 C 6.58 g/m*3 5.3 C 0 km/h
860 07-05-2010 03:59:03 5.2 C 6.54 g/m*3 5.2 C 0 km/h
861 07-05-2010 04:11:03 5.2 C 6.54 g/m*3 5.2 C 0 km/h
862 07-05-2010 04:23:03 5.2 C 6.54 g/m*3 5.2 C 0 km/h
863 07-05-2010 04:35:03 5.2 C 6.54 g/m*3 5.2 C 0 km/h
864 07-05-2010 04:47:03 5.2 C 6.54 g/m*3 5.2 C 0 km/h
865 07-05-2010 04:59:03 5.1 C 6.5 g/m*3 5.1 C 0 km/h
866 07-05-2010 05:11:04 5 C 6.46 g/m*3 5 C 0 km/h
867 07-05-2010 05:23:04 5 C 6.46 g/m*3 5 C 0 km/h
868 07-05-2010 05:35:04 4.9 C 6.41 g/m*3 4.9 C 0 km/h
869 07-05-2010 05:47:04 4.8 C 6.37 g/m*3 4.8 C 0 km/h
870 07-05-2010 05:59:04 4.7 C 6.33 g/m*3 4.7 C 0 km/h
871 07-05-2010 06:11:04 4.7 C 6.33 g/m*3 4.7 C 0 km/h
872 07-05-2010 06:23:04 4.6 C 6.29 g/m*3 4.6 C 0 km/h
873 07-05-2010 06:35:04 4.5 C 6.24 g/m*3 4.5 C 0 km/h
874 07-05-2010 06:47:04 4.6 C 6.29 g/m*3 4.6 C 0 km/h
875 07-05-2010 06:59:04 4.6 C 6.29 g/m*3 4.6 C 0 km/h
Sensor: Nr:Datum:Temp:Abs-Feuchte:Windchill:Wind:
Aussen-T/F 876 07-05-2010 07:11:04 4.6 C 6.29 g/m*3 4.6 C 0 km/h
877 07-05-2010 07:23:04 4.7 C 6.33 g/m*3 4.7 C 0 km/h
878 07-05-2010 07:35:04 4.6 C 6.29 g/m*3 4.6 C 0 km/h
879 07-05-2010 07:47:04 4.7 C 6.33 g/m*3 4.7 C 0 km/h
880 07-05-2010 07:59:04 4.8 C 6.37 g/m*3 4.8 C 0 km/h
881 07-05-2010 08:11:04 4.9 C 6.41 g/m*3 4.9 C 0 km/h
882 07-05-2010 08:23:04 4.8 C 6.37 g/m*3 4.8 C 0 km/h
883 07-05-2010 08:35:02 5 C 6.46 g/m*3 5 C 0 km/h
884 07-05-2010 08:47:02 4.8 C 6.3 g/m*3 4.8 C 0 km/h
885 07-05-2010 08:59:02 4.6 C 6.22 g/m*3 4.6 C 0 km/h
886 07-05-2010 09:11:02 4.9 C 6.28 g/m*3 4.9 C 0 km/h
887 07-05-2010 09:23:03 4.8 C 6.24 g/m*3 4.8 C 0 km/h
888 07-05-2010 09:35:02 4.7 C 6.13 g/m*3 4.7 C 0 km/h
889 07-05-2010 09:47:02 5 C 6.12 g/m*3 5 C 0 km/h
890 07-05-2010 09:59:02 4.9 C 6.08 g/m*3 4.9 C 0 km/h
891 07-05-2010 10:11:02 5 C 6.05 g/m*3 5 C 0 km/h
892 07-05-2010 10:23:02 5.3 C 6.17 g/m*3 5.3 C 0 km/h
893 07-05-2010 10:35:02 6 C 6.39 g/m*3 6 C 0 km/h
894 07-05-2010 10:47:02 5.6 C 6.15 g/m*3 5.6 C 0 km/h
895 07-05-2010 10:59:02 5.7 C 6.12 g/m*3 5.7 C 0 km/h
896 07-05-2010 11:11:01 6.8 C 6.58 g/m*3 6.8 C 0 km/h
897 07-05-2010 11:23:02 7 C 6.66 g/m*3 7 C 0 km/h
898 07-05-2010 11:35:02 7.1 C 6.71 g/m*3 7.1 C 0 km/h
899 07-05-2010 11:47:02 7.1 C 6.71 g/m*3 7.1 C 0 km/h
900 07-05-2010 11:59:02 7.1 C 6.63 g/m*3 7.1 C 0 km/h
Sensor: Nr:Datum:Temp:Abs-Feuchte:Windchill:Wind:
Aussen-T/F 901 07-05-2010 12:11:03 7.1 C 6.4 g/m*3 7.1 C 0 km/h
902 07-05-2010 12:23:02 7 C 6.28 g/m*3 7 C 0 km/h
903 07-05-2010 12:35:02 7.1 C 6.4 g/m*3 7.1 C 0 km/h
904 07-05-2010 12:47:01 7.3 C 6.48 g/m*3 7.3 C 0 km/h
905 07-05-2010 12:59:01 7.2 C 6.2 g/m*3 7.2 C 0 km/h
906 07-05-2010 13:11:02 7.3 C 6.4 g/m*3 7.3 C 0 km/h
907 07-05-2010 13:23:01 7.8 C 6.61 g/m*3 7.8 C 0 km/h
908 07-05-2010 13:35:02 8.3 C 6.66 g/m*3 8.3 C 0 km/h
909 07-05-2010 13:47:01 7.9 C 6.49 g/m*3 7.9 C 0 km/h
910 07-05-2010 13:59:01 7.7 C 6.41 g/m*3 7.7 C 0 km/h
911 07-05-2010 14:11:02 8.6 C 6.87 g/m*3 8.6 C 0 km/h
912 07-05-2010 14:23:01 8.4 C 6.79 g/m*3 8.4 C 0 km/h
913 07-05-2010 14:35:02 8.5 C 6.92 g/m*3 8.5 C 0 km/h
914 07-05-2010 14:47:01 8.3 C 6.83 g/m*3 8.3 C 0 km/h
915 07-05-2010 14:59:01 8.3 C 6.66 g/m*3 8.3 C 0 km/h
916 07-05-2010 15:11:02 8.4 C 6.87 g/m*3 8.4 C 0 km/h
917 07-05-2010 15:23:02 7.8 C 6.61 g/m*3 7.8 C 0 km/h
918 07-05-2010 15:35:02 7.7 C 6.57 g/m*3 7.7 C 0 km/h
919 07-05-2010 15:47:02 8.5 C 7 g/m*3 8.5 C 0 km/h
920 07-05-2010 15:59:02 8.6 C 7.05 g/m*3 8.6 C 0 km/h
921 07-05-2010 16:11:01 9.3 C 7.19 g/m*3 9.3 C 0 km/h
922 07-05-2010 16:23:01 9.2 C 6.97 g/m*3 9.2 C 0 km/h
923 07-05-2010 16:35:01 9 C 6.61 g/m*3 9 C 0 km/h
924 07-05-2010 16:47:01 9.2 C 6.97 g/m*3 9.2 C 0 km/h
925 07-05-2010 16:59:01 9.1 C 6.92 g/m*3 9.1 C 0 km/h
Sensor: Nr:Datum:Temp:Abs-Feuchte:Windchill:Wind:
Aussen-T/F 926 07-05-2010 17:11:02 8.9 C 6.92 g/m*3 8.9 C 0 km/h
927 07-05-2010 17:23:01 9.2 C 6.97 g/m*3 9.2 C 0 km/h
928 07-05-2010 17:35:02 9.4 C 7.05 g/m*3 9.4 C 0 km/h
929 07-05-2010 17:47:01 9.8 C 7.24 g/m*3 9.8 C 0 km/h
930 07-05-2010 17:59:01 9.8 C 7.24 g/m*3 9.8 C 0 km/h
931 07-05-2010 18:11:02 9.8 C 7.24 g/m*3 9.8 C 0 km/h
932 07-05-2010 18:23:02 9.4 C 6.96 g/m*3 9.4 C 0 km/h
933 07-05-2010 18:35:02 9 C 6.88 g/m*3 9 C 0 km/h
934 07-05-2010 18:47:02 9 C 7.05 g/m*3 9 C 0 km/h
935 07-05-2010 18:59:02 8.5 C 7 g/m*3 8.5 C 0 km/h
936 07-05-2010 19:11:02 8.2 C 7.03 g/m*3 8.2 C 0 km/h
937 07-05-2010 19:23:02 8.1 C 6.99 g/m*3 8.1 C 0 km/h
938 07-05-2010 19:35:02 7.9 C 7.06 g/m*3 7.9 C 0 km/h
939 07-05-2010 19:47:02 7.6 C 7.09 g/m*3 7.6 C 0 km/h
940 07-05-2010 19:59:02 7.7 C 7.14 g/m*3 7.7 C 0 km/h
941 07-05-2010 20:11:02 7.3 C 7.03 g/m*3 7.3 C 0 km/h
942 07-05-2010 20:23:01 7.3 C 7.03 g/m*3 7.3 C 0 km/h
943 07-05-2010 20:35:02 7.2 C 7.06 g/m*3 7.2 C 0 km/h
944 07-05-2010 20:47:02 7.1 C 7.1 g/m*3 7.1 C 0 km/h
945 07-05-2010 20:59:02 6.9 C 7.08 g/m*3 6.9 C 0 km/h
946 07-05-2010 21:11:02 6.7 C 6.99 g/m*3 6.7 C 0 km/h
947 07-05-2010 21:23:02 6.8 C 7.04 g/m*3 6.8 C 0 km/h
948 07-05-2010 21:35:02 6.8 C 7.11 g/m*3 6.8 C 0 km/h
949 07-05-2010 21:47:02 6.7 C 7.07 g/m*3 6.7 C 0 km/h
950 07-05-2010 21:59:02 6.4 C 6.93 g/m*3 6.4 C 0 km/h
Sensor: Nr:Datum:Temp:Abs-Feuchte:Windchill:Wind:
Aussen-T/F 951 07-05-2010 22:11:02 6.1 C 6.79 g/m*3 6.1 C 0 km/h
952 07-05-2010 22:23:02 5.9 C 6.71 g/m*3 5.9 C 0 km/h
953 07-05-2010 22:35:02 5.7 C 6.62 g/m*3 5.7 C 0 km/h
954 07-05-2010 22:47:02 5.6 C 6.57 g/m*3 5.6 C 0 km/h
955 07-05-2010 22:59:02 5.7 C 6.69 g/m*3 5.7 C 0 km/h
956 07-05-2010 23:11:01 5.9 C 6.78 g/m*3 5.9 C 0 km/h
957 07-05-2010 23:23:02 5.9 C 6.78 g/m*3 5.9 C 0 km/h
958 07-05-2010 23:35:02 5.9 C 6.85 g/m*3 5.9 C 0 km/h
959 07-05-2010 23:47:02 6 C 6.82 g/m*3 6 C 0 km/h
960 07-05-2010 23:59:03 6.1 C 6.87 g/m*3 6.1 C 0 km/h
961 08-05-2010 00:11:01 6.2 C 6.91 g/m*3 6.2 C 0 km/h
962 08-05-2010 00:23:02 6.2 C 6.91 g/m*3 6.2 C 0 km/h
963 08-05-2010 00:35:01 6 C 6.82 g/m*3 6 C 0 km/h
964 08-05-2010 00:47:02 5.6 C 6.65 g/m*3 5.6 C 0 km/h
965 08-05-2010 00:59:02 5.5 C 6.6 g/m*3 5.5 C 0 km/h
966 08-05-2010 01:11:02 5.4 C 6.56 g/m*3 5.4 C 0 km/h
967 08-05-2010 01:23:02 5.1 C 6.43 g/m*3 5.1 C 0 km/h
968 08-05-2010 01:35:02 4.9 C 6.35 g/m*3 4.9 C 0 km/h
969 08-05-2010 01:47:02 4.7 C 6.26 g/m*3 4.7 C 0 km/h
970 08-05-2010 01:59:02 4.7 C 6.33 g/m*3 4.7 C 0 km/h
971 08-05-2010 02:11:01 4.5 C 6.18 g/m*3 4.5 C 0 km/h
972 08-05-2010 02:23:02 4.5 C 6.24 g/m*3 4.5 C 0 km/h
973 08-05-2010 02:35:02 4.6 C 6.29 g/m*3 4.6 C 0 km/h
974 08-05-2010 02:48:03 4.4 C 6.2 g/m*3 4.4 C 0 km/h
975 08-05-2010 03:00:03 4.5 C 6.24 g/m*3 4.5 C 0 km/h
Sensor: Nr:Datum:Temp:Abs-Feuchte:Windchill:Wind:
Aussen-T/F 976 08-05-2010 03:12:03 4.6 C 6.29 g/m*3 4.6 C 0 km/h
977 08-05-2010 03:24:03 4.7 C 6.33 g/m*3 4.7 C 0 km/h
978 08-05-2010 03:36:02 4.6 C 6.29 g/m*3 4.6 C 0 km/h
979 08-05-2010 03:48:02 4.6 C 6.29 g/m*3 4.6 C 0 km/h
980 08-05-2010 04:00:02 4.7 C 6.33 g/m*3 4.7 C 0 km/h
981 08-05-2010 04:12:02 4.6 C 6.29 g/m*3 4.6 C 0 km/h
982 08-05-2010 04:24:02 4.4 C 6.2 g/m*3 4.4 C 0 km/h
983 08-05-2010 04:36:02 4 C 6.04 g/m*3 4 C 0 km/h
984 08-05-2010 04:48:02 4 C 6.04 g/m*3 4 C 0 km/h
985 08-05-2010 05:00:02 4.1 C 6.08 g/m*3 4.1 C 0 km/h
986 08-05-2010 05:12:01 4.2 C 6.12 g/m*3 4.2 C 0 km/h
987 08-05-2010 05:24:02 4.4 C 6.2 g/m*3 4.4 C 0 km/h
988 08-05-2010 05:36:02 4.5 C 6.24 g/m*3 4.5 C 0 km/h
989 08-05-2010 05:48:02 4.5 C 6.24 g/m*3 4.5 C 0 km/h
990 08-05-2010 06:00:02 4.5 C 6.24 g/m*3 4.5 C 0 km/h
991 08-05-2010 06:12:03 4.6 C 6.29 g/m*3 4.6 C 0 km/h
992 08-05-2010 06:24:02 4.6 C 6.29 g/m*3 4.6 C 0 km/h
993 08-05-2010 06:36:02 4.8 C 6.37 g/m*3 4.8 C 0 km/h
994 08-05-2010 06:48:01 4.8 C 6.37 g/m*3 4.8 C 0 km/h
995 08-05-2010 07:00:01 4.8 C 6.37 g/m*3 4.8 C 0 km/h
996 08-05-2010 07:12:02 5 C 6.46 g/m*3 5 C 0 km/h
997 08-05-2010 07:24:01 5.2 C 6.54 g/m*3 5.2 C 0 km/h
998 08-05-2010 07:36:01 5.5 C 6.67 g/m*3 5.5 C 0 km/h
999 08-05-2010 07:48:01 5.6 C 6.72 g/m*3 5.6 C 0 km/h
1000 08-05-2010 08:00:01 5.9 C 6.78 g/m*3 5.9 C 0 km/h
Sensor: Nr:Datum:Temp:Abs-Feuchte:Windchill:Wind:
Aussen-T/F 1001 08-05-2010 08:12:02 6 C 6.68 g/m*3 6 C 0 km/h
1002 08-05-2010 08:24:01 5.8 C 6.52 g/m*3 5.8 C 0 km/h
1003 08-05-2010 08:36:01 6.2 C 6.55 g/m*3 6.2 C 0 km/h
1004 08-05-2010 08:48:01 6.5 C 6.6 g/m*3 6.5 C 0 km/h
1005 08-05-2010 09:00:01 7.3 C 6.87 g/m*3 7.3 C 0 km/h
1006 08-05-2010 09:12:02 8 C 7.03 g/m*3 8 C 0 km/h
1007 08-05-2010 09:24:01 8.1 C 6.82 g/m*3 8.1 C 0 km/h
1008 08-05-2010 09:36:01 8.7 C 7.01 g/m*3 8.7 C 0 km/h
1009 08-05-2010 09:48:01 9.2 C 7.05 g/m*3 9.2 C 0 km/h
1010 08-05-2010 10:00:01 9.1 C 6.74 g/m*3 9.1 C 0 km/h
1011 08-05-2010 10:12:02 9.1 C 6.57 g/m*3 9.1 C 0 km/h
1012 08-05-2010 10:24:01 9.6 C 6.87 g/m*3 9.6 C 0 km/h
1013 08-05-2010 10:36:01 10.1 C 6.9 g/m*3 10.1 C 0 km/h
1014 08-05-2010 10:48:01 10.4 C 7.04 g/m*3 10.4 C 0 km/h
1015 08-05-2010 11:00:01 11.2 C 7.3 g/m*3 11.2 C 0 km/h
1016 08-05-2010 11:12:02 12.1 C 7.18 g/m*3 12.1 C 0 km/h
1017 08-05-2010 11:24:01 12.8 C 7.06 g/m*3 12.8 C 0 km/h
1018 08-05-2010 11:36:01 14.1 C 6.31 g/m*3 14.1 C 0 km/h
1019 08-05-2010 11:48:01 15.1 C 5.55 g/m*3 15.1 C 0 km/h
1020 08-05-2010 12:00:01 14.8 C 5.32 g/m*3 14.8 C 0 km/h
1021 08-05-2010 12:12:01 14.5 C 4.97 g/m*3 14.5 C 0 km/h
1022 08-05-2010 12:24:02 15.6 C 5.19 g/m*3 15.6 C 0 km/h
1023 08-05-2010 12:36:01 15 C 4.74 g/m*3 15 C 0 km/h
1024 08-05-2010 12:48:03 16.3 C 5.13 g/m*3 16.3 C 0 km/h
1025 08-05-2010 13:00:03 16.5 C 5.2 g/m*3 16.5 C 0 km/h
Sensor: Nr:Datum:Temp:Abs-Feuchte:Windchill:Wind:
Aussen-T/F 1026 08-05-2010 13:12:02 16 C 5.31 g/m*3 16 C 0 km/h
1027 08-05-2010 13:24:02 15.8 C 5.25 g/m*3 15.8 C 0 km/h
1028 08-05-2010 13:36:02 17.5 C 5.37 g/m*3 17.5 C 0 km/h
1029 08-05-2010 13:48:02 18.4 C 4.88 g/m*3 18.4 C 0 km/h
1030 08-05-2010 14:00:02 16.4 C 4.19 g/m*3 16.4 C 0 km/h
1031 08-05-2010 14:12:02 15.5 C 4.1 g/m*3 15.5 C 0 km/h
1032 08-05-2010 14:24:02 15 C 4.36 g/m*3 15 C 0 km/h
1033 08-05-2010 14:36:01 15.6 C 4.39 g/m*3 15.6 C 0 km/h
1034 08-05-2010 14:48:02 15.6 C 4.12 g/m*3 15.6 C 0 km/h
1035 08-05-2010 15:00:02 16 C 4.22 g/m*3 16 C 0 km/h
1036 08-05-2010 15:12:01 16.1 C 4.25 g/m*3 16.1 C 0 km/h
1037 08-05-2010 15:24:02 16 C 4.36 g/m*3 16 C 0 km/h
1038 08-05-2010 15:36:02 16 C 4.36 g/m*3 16 C 0 km/h
1039 08-05-2010 15:48:02 15.5 C 4.63 g/m*3 15.5 C 0 km/h
1040 08-05-2010 16:00:02 16.4 C 4.61 g/m*3 16.4 C 0 km/h
1041 08-05-2010 16:12:03 16.6 C 4.38 g/m*3 16.6 C 0 km/h
1042 08-05-2010 16:24:02 16.4 C 4.47 g/m*3 16.4 C 0 km/h
1043 08-05-2010 16:36:02 17.5 C 4.32 g/m*3 17.5 C 0 km/h
1044 08-05-2010 16:48:01 17.6 C 4.2 g/m*3 17.6 C 0 km/h
1045 08-05-2010 17:00:01 17.4 C 4.15 g/m*3 17.4 C 0 km/h
1046 08-05-2010 17:12:02 17.5 C 4.17 g/m*3 17.5 C 0 km/h
1047 08-05-2010 17:24:01 18.5 C 4.27 g/m*3 18.5 C 0 km/h
1048 08-05-2010 17:36:02 17.9 C 4.12 g/m*3 17.9 C 0 km/h
1049 08-05-2010 17:48:01 18.7 C 4.16 g/m*3 18.7 C 0 km/h
1050 08-05-2010 18:00:01 19.2 C 4.12 g/m*3 19.2 C 0 km/h
Sensor: Nr:Datum:Temp:Abs-Feuchte:Windchill:Wind:
Aussen-T/F 1051 08-05-2010 18:12:02 19.9 C 3.95 g/m*3 19.9 C 0 km/h
1052 08-05-2010 18:24:01 19.4 C 4 g/m*3 19.4 C 0 km/h
1053 08-05-2010 18:36:02 19.5 C 4.2 g/m*3 19.5 C 0 km/h
1054 08-05-2010 18:48:01 19.8 C 4.27 g/m*3 19.8 C 0 km/h
1055 08-05-2010 19:00:01 19.1 C 4.1 g/m*3 19.1 C 0 km/h
1056 08-05-2010 19:12:02 18.8 C 4.03 g/m*3 18.8 C 0 km/h
1057 08-05-2010 19:24:02 18.4 C 4.25 g/m*3 18.4 C 0 km/h
1058 08-05-2010 19:36:02 17.5 C 4.47 g/m*3 17.5 C 0 km/h
1059 08-05-2010 19:48:01 17.6 C 4.65 g/m*3 17.6 C 0 km/h
1060 08-05-2010 20:00:01 17.3 C 5.16 g/m*3 17.3 C 0 km/h
1061 08-05-2010 20:12:02 16.5 C 6.04 g/m*3 16.5 C 0 km/h
1062 08-05-2010 20:24:02 15.7 C 6.42 g/m*3 15.7 C 0 km/h
1063 08-05-2010 20:36:02 15.1 C 6.06 g/m*3 15.1 C 0 km/h
1064 08-05-2010 20:48:01 14.3 C 6.02 g/m*3 14.3 C 0 km/h
1065 08-05-2010 21:00:01 13.8 C 5.96 g/m*3 13.8 C 0 km/h
1066 08-05-2010 21:12:02 13.5 C 6.08 g/m*3 13.5 C 0 km/h
1067 08-05-2010 21:24:02 13.5 C 6.43 g/m*3 13.5 C 0 km/h
1068 08-05-2010 21:36:02 13.5 C 6.08 g/m*3 13.5 C 0 km/h
1069 08-05-2010 21:48:02 12.9 C 5.97 g/m*3 12.9 C 0 km/h
1070 08-05-2010 22:00:02 12.4 C 5.9 g/m*3 12.4 C 0 km/h
1071 08-05-2010 22:12:02 11.9 C 6.04 g/m*3 11.9 C 0 km/h
1072 08-05-2010 22:24:02 11.7 C 5.86 g/m*3 11.7 C 0 km/h
1073 08-05-2010 22:36:01 11.8 C 6.21 g/m*3 11.8 C 0 km/h
1074 08-05-2010 22:48:02 12 C 6.39 g/m*3 12 C 0 km/h
1075 08-05-2010 23:00:02 11.8 C 6.21 g/m*3 11.8 C 0 km/h
Sensor: Nr:Datum:Temp:Abs-Feuchte:Windchill:Wind:
Aussen-T/F 1076 08-05-2010 23:12:01 11.6 C 6.34 g/m*3 11.6 C 0 km/h
1077 08-05-2010 23:24:02 11 C 6.21 g/m*3 11 C 0 km/h
1078 08-05-2010 23:36:01 10.6 C 6.25 g/m*3 10.6 C 0 km/h
1079 08-05-2010 23:48:02 10.3 C 6.22 g/m*3 10.3 C 0 km/h
1080 09-05-2010 00:00:02 10.2 C 6.38 g/m*3 10.2 C 0 km/h
1081 09-05-2010 00:12:02 10 C 6.39 g/m*3 10 C 0 km/h
1082 09-05-2010 00:24:03 9.8 C 6.49 g/m*3 9.8 C 0 km/h
1083 09-05-2010 00:36:02 9.6 C 6.41 g/m*3 9.6 C 0 km/h
1084 09-05-2010 00:48:02 9.4 C 6.42 g/m*3 9.4 C 0 km/h
1085 09-05-2010 01:00:02 9.1 C 6.39 g/m*3 9.1 C 0 km/h
1086 09-05-2010 01:12:02 9 C 6.52 g/m*3 9 C 0 km/h
1087 09-05-2010 01:24:03 8.7 C 6.49 g/m*3 8.7 C 0 km/h
1088 09-05-2010 01:36:02 8.6 C 6.44 g/m*3 8.6 C 0 km/h
1089 09-05-2010 01:48:03 8.7 C 6.57 g/m*3 8.7 C 0 km/h
1090 09-05-2010 02:00:03 8.8 C 6.7 g/m*3 8.8 C 0 km/h
1091 09-05-2010 02:12:02 8.7 C 6.66 g/m*3 8.7 C 0 km/h
1092 09-05-2010 02:24:02 8.7 C 6.66 g/m*3 8.7 C 0 km/h
1093 09-05-2010 02:36:02 8.4 C 6.53 g/m*3 8.4 C 0 km/h
1094 09-05-2010 02:49:04 8.5 C 6.57 g/m*3 8.5 C 0 km/h
1095 09-05-2010 03:01:04 8.5 C 6.66 g/m*3 8.5 C 0 km/h
1096 09-05-2010 03:13:03 8.3 C 6.57 g/m*3 8.3 C 0 km/h
1097 09-05-2010 03:25:03 8.5 C 6.66 g/m*3 8.5 C 0 km/h
1098 09-05-2010 03:37:01 8.5 C 6.66 g/m*3 8.5 C 0 km/h
1099 09-05-2010 03:49:01 8.5 C 6.66 g/m*3 8.5 C 0 km/h
1100 09-05-2010 04:01:01 8.6 C 6.7 g/m*3 8.6 C 0 km/h
Sensor: Nr:Datum:Temp:Abs-Feuchte:Windchill:Wind:
Aussen-T/F 1101 09-05-2010 04:13:01 8.6 C 6.7 g/m*3 8.6 C 0 km/h
1102 09-05-2010 04:25:02 8.5 C 6.66 g/m*3 8.5 C 0 km/h
1103 09-05-2010 04:37:01 8.5 C 6.66 g/m*3 8.5 C 0 km/h
1104 09-05-2010 04:49:03 8.3 C 6.57 g/m*3 8.3 C 0 km/h
1105 09-05-2010 05:01:02 8 C 6.45 g/m*3 8 C 0 km/h
1106 09-05-2010 05:13:02 7.8 C 6.53 g/m*3 7.8 C 0 km/h
1107 09-05-2010 05:25:02 7.6 C 6.53 g/m*3 7.6 C 0 km/h
1108 09-05-2010 05:37:02 7.4 C 6.52 g/m*3 7.4 C 0 km/h
1109 09-05-2010 05:49:02 7.4 C 6.52 g/m*3 7.4 C 0 km/h
1110 09-05-2010 06:01:02 7.6 C 6.69 g/m*3 7.6 C 0 km/h
1111 09-05-2010 06:13:02 7.9 C 6.82 g/m*3 7.9 C 0 km/h
1112 09-05-2010 06:25:02 8 C 6.7 g/m*3 8 C 0 km/h
1113 09-05-2010 06:37:02 8.1 C 6.74 g/m*3 8.1 C 0 km/h
1114 09-05-2010 06:49:02 8.3 C 6.83 g/m*3 8.3 C 0 km/h
1115 09-05-2010 07:01:02 8.5 C 6.92 g/m*3 8.5 C 0 km/h
1116 09-05-2010 07:13:02 8.6 C 6.87 g/m*3 8.6 C 0 km/h
1117 09-05-2010 07:25:01 8.7 C 6.83 g/m*3 8.7 C 0 km/h
1118 09-05-2010 07:37:02 9.1 C 6.92 g/m*3 9.1 C 0 km/h
1119 09-05-2010 07:49:02 9.1 C 6.83 g/m*3 9.1 C 0 km/h
1120 09-05-2010 08:01:02 9.6 C 6.96 g/m*3 9.6 C 0 km/h
1121 09-05-2010 08:13:02 9.6 C 6.96 g/m*3 9.6 C 0 km/h
1122 09-05-2010 08:25:02 9.6 C 6.87 g/m*3 9.6 C 0 km/h
1123 09-05-2010 08:37:02 10 C 7.05 g/m*3 10 C 0 km/h
1124 09-05-2010 08:49:02 10.4 C 7.04 g/m*3 10.4 C 0 km/h
1125 09-05-2010 09:01:02 10.8 C 7.02 g/m*3 10.8 C 0 km/h
Sensor: Nr:Datum:Temp:Abs-Feuchte:Windchill:Wind:
Aussen-T/F 1126 09-05-2010 09:13:02 10.9 C 7.16 g/m*3 10.9 C 0 km/h
1127 09-05-2010 09:25:02 11.1 C 6.95 g/m*3 11.1 C 0 km/h
1128 09-05-2010 09:37:03 11.7 C 7.11 g/m*3 11.7 C 0 km/h
1129 09-05-2010 09:49:02 12 C 6.93 g/m*3 12 C 0 km/h
1130 09-05-2010 10:01:01 12.4 C 6.99 g/m*3 12.4 C 0 km/h
1131 09-05-2010 10:13:01 12.7 C 7.12 g/m*3 12.7 C 0 km/h
1132 09-05-2010 10:25:01 12.2 C 7.23 g/m*3 12.2 C 0 km/h
1133 09-05-2010 10:37:02 12.2 C 7.55 g/m*3 12.2 C 0 km/h
1134 09-05-2010 10:49:02 12 C 7.35 g/m*3 12 C 0 km/h
1135 09-05-2010 11:01:01 12.2 C 7.55 g/m*3 12.2 C 0 km/h
1136 09-05-2010 11:13:01 12.4 C 7.54 g/m*3 12.4 C 0 km/h
1137 09-05-2010 11:25:02 12.3 C 7.38 g/m*3 12.3 C 0 km/h
1138 09-05-2010 11:37:01 12.3 C 7.28 g/m*3 12.3 C 0 km/h
1139 09-05-2010 11:49:02 12.2 C 7.23 g/m*3 12.2 C 0 km/h
1140 09-05-2010 12:01:02 12.3 C 7.28 g/m*3 12.3 C 0 km/h
1141 09-05-2010 12:13:02 13 C 7.37 g/m*3 13 C 0 km/h
1142 09-05-2010 12:25:02 13.4 C 7.21 g/m*3 13.4 C 0 km/h
1143 09-05-2010 12:37:02 14 C 7.24 g/m*3 14 C 0 km/h
1144 09-05-2010 12:49:02 14.4 C 7.17 g/m*3 14.4 C 0 km/h
1145 09-05-2010 13:01:01 15 C 6.92 g/m*3 15 C 0 km/h
1146 09-05-2010 13:13:01 16.2 C 7.03 g/m*3 16.2 C 0 km/h
1147 09-05-2010 13:25:01 17.2 C 6.59 g/m*3 17.2 C 0 km/h
1148 09-05-2010 13:37:02 18.5 C 6.33 g/m*3 18.5 C 0 km/h
1149 09-05-2010 13:49:02 18.2 C 6.22 g/m*3 18.2 C 0 km/h
1150 09-05-2010 14:01:02 17.9 C 6.11 g/m*3 17.9 C 0 km/h
Sensor: Nr:Datum:Temp:Abs-Feuchte:Windchill:Wind:
Aussen-T/F 1151 09-05-2010 14:13:02 17.5 C 6.11 g/m*3 17.5 C 0 km/h
1152 09-05-2010 14:25:02 16.7 C 6.11 g/m*3 16.7 C 0 km/h
1153 09-05-2010 14:37:01 16.7 C 6.11 g/m*3 16.7 C 0 km/h
1154 09-05-2010 14:49:02 17 C 6.22 g/m*3 17 C 0 km/h
1155 09-05-2010 15:01:01 17 C 6.22 g/m*3 17 C 0 km/h
1156 09-05-2010 15:13:01 17.3 C 6.33 g/m*3 17.3 C 0 km/h
1157 09-05-2010 15:25:02 17.6 C 6.3 g/m*3 17.6 C 0 km/h
1158 09-05-2010 15:37:01 17.8 C 6.37 g/m*3 17.8 C 0 km/h
1159 09-05-2010 15:49:03 17.9 C 6.26 g/m*3 17.9 C 0 km/h
1160 09-05-2010 16:01:02 18 C 6.3 g/m*3 18 C 0 km/h
1161 09-05-2010 16:13:02 18.7 C 6.4 g/m*3 18.7 C 0 km/h
1162 09-05-2010 16:25:02 19.1 C 6.23 g/m*3 19.1 C 0 km/h
1163 09-05-2010 16:37:02 18.7 C 6.08 g/m*3 18.7 C 0 km/h
1164 09-05-2010 16:49:02 18 C 5.68 g/m*3 18 C 0 km/h
1165 09-05-2010 17:01:02 17.8 C 5.77 g/m*3 17.8 C 0 km/h
1166 09-05-2010 17:13:02 19.6 C 5.74 g/m*3 19.6 C 0 km/h
1167 09-05-2010 17:25:02 19.5 C 5.03 g/m*3 19.5 C 0 km/h
1168 09-05-2010 17:37:02 19.1 C 5.41 g/m*3 19.1 C 0 km/h
1169 09-05-2010 17:49:02 19.4 C 5.17 g/m*3 19.4 C 0 km/h
1170 09-05-2010 18:01:02 19.5 C 5.71 g/m*3 19.5 C 0 km/h
1171 09-05-2010 18:13:02 18.9 C 5.67 g/m*3 18.9 C 0 km/h
1172 09-05-2010 18:25:03 18.7 C 5.76 g/m*3 18.7 C 0 km/h
1173 09-05-2010 18:37:02 18.3 C 5.79 g/m*3 18.3 C 0 km/h
1174 09-05-2010 18:49:03 18.1 C 6.03 g/m*3 18.1 C 0 km/h
1175 09-05-2010 19:01:02 17.6 C 6.6 g/m*3 17.6 C 0 km/h
Sensor: Nr:Datum:Temp:Abs-Feuchte:Windchill:Wind:
Aussen-T/F 1176 09-05-2010 19:13:03 17 C 6.8 g/m*3 17 C 0 km/h
1177 09-05-2010 19:25:02 17 C 6.95 g/m*3 17 C 0 km/h
1178 09-05-2010 19:37:02 16.6 C 6.92 g/m*3 16.6 C 0 km/h
1179 09-05-2010 19:49:01 16.2 C 6.9 g/m*3 16.2 C 0 km/h
1180 09-05-2010 20:01:02 15.8 C 7 g/m*3 15.8 C 0 km/h
1181 09-05-2010 20:13:02 15.2 C 6.88 g/m*3 15.2 C 0 km/h
1182 09-05-2010 20:25:01 14.8 C 6.84 g/m*3 14.8 C 0 km/h
1183 09-05-2010 20:37:01 14.3 C 6.88 g/m*3 14.3 C 0 km/h
1184 09-05-2010 20:49:01 14 C 6.75 g/m*3 14 C 0 km/h
1185 09-05-2010 21:01:02 13.4 C 6.97 g/m*3 13.4 C 0 km/h
1186 09-05-2010 21:13:02 12.8 C 7.06 g/m*3 12.8 C 0 km/h
1187 09-05-2010 21:25:02 12.5 C 7.15 g/m*3 12.5 C 0 km/h
1188 09-05-2010 21:37:02 12.1 C 7.08 g/m*3 12.1 C 0 km/h
1189 09-05-2010 21:49:02 11.7 C 7.11 g/m*3 11.7 C 0 km/h
1190 09-05-2010 22:01:03 11.5 C 7.13 g/m*3 11.5 C 0 km/h
1191 09-05-2010 22:13:03 11.3 C 7.14 g/m*3 11.3 C 0 km/h
1192 09-05-2010 22:25:02 11.1 C 7.05 g/m*3 11.1 C 0 km/h
1193 09-05-2010 22:38:04 10.9 C 6.96 g/m*3 10.9 C 0 km/h
1194 09-05-2010 22:50:04 10.8 C 7.02 g/m*3 10.8 C 0 km/h
1195 09-05-2010 23:02:04 10.8 C 7.12 g/m*3 10.8 C 0 km/h
1196 09-05-2010 23:14:04 10.9 C 7.06 g/m*3 10.9 C 0 km/h
1197 09-05-2010 23:26:05 10.7 C 7.07 g/m*3 10.7 C 0 km/h
1198 09-05-2010 23:38:05 10.8 C 7.22 g/m*3 10.8 C 0 km/h
1199 09-05-2010 23:50:05 10.5 C 7.08 g/m*3 10.5 C 0 km/h
1200 10-05-2010 00:02:05 10.4 C 7.13 g/m*3 10.4 C 0 km/h
Sensor: Nr:Datum:Temp:Abs-Feuchte:Windchill:Wind:
Aussen-T/F 1201 10-05-2010 00:14:05 10.5 C 7.18 g/m*3 10.5 C 0 km/h
1202 10-05-2010 00:26:05 10.3 C 7.09 g/m*3 10.3 C 0 km/h
1203 10-05-2010 00:38:05 10.1 C 7.09 g/m*3 10.1 C 0 km/h
1204 10-05-2010 00:50:05 9.8 C 7.24 g/m*3 9.8 C 0 km/h
1205 10-05-2010 01:02:05 9.8 C 7.24 g/m*3 9.8 C 0 km/h
1206 10-05-2010 01:14:05 9.8 C 7.33 g/m*3 9.8 C 0 km/h
1207 10-05-2010 01:26:05 9.9 C 7.38 g/m*3 9.9 C 0 km/h
1208 10-05-2010 01:38:05 10 C 7.24 g/m*3 10 C 0 km/h
1209 10-05-2010 01:50:05 9.8 C 7.24 g/m*3 9.8 C 0 km/h
1210 10-05-2010 02:02:05 9.7 C 7.19 g/m*3 9.7 C 0 km/h
1211 10-05-2010 02:14:05 9.5 C 7.19 g/m*3 9.5 C 0 km/h
1212 10-05-2010 02:26:05 9.4 C 7.24 g/m*3 9.4 C 0 km/h
1213 10-05-2010 02:38:05 9.4 C 7.24 g/m*3 9.4 C 0 km/h
1214 10-05-2010 02:50:05 9.4 C 7.33 g/m*3 9.4 C 0 km/h
1215 10-05-2010 03:02:05 9.2 C 7.23 g/m*3 9.2 C 0 km/h
1216 10-05-2010 03:14:05 9 C 7.14 g/m*3 9 C 0 km/h
1217 10-05-2010 03:26:05 8.8 C 7.14 g/m*3 8.8 C 0 km/h
1218 10-05-2010 03:38:05 8.7 C 7.18 g/m*3 8.7 C 0 km/h
1219 10-05-2010 03:50:06 8.7 C 7.26 g/m*3 8.7 C 0 km/h
1220 10-05-2010 04:02:06 8.6 C 7.22 g/m*3 8.6 C 0 km/h
1221 10-05-2010 04:14:06 8.6 C 7.22 g/m*3 8.6 C 0 km/h
1222 10-05-2010 04:26:06 8.6 C 7.3 g/m*3 8.6 C 0 km/h
1223 10-05-2010 04:38:06 8.6 C 7.3 g/m*3 8.6 C 0 km/h
1224 10-05-2010 04:50:06 8.7 C 7.26 g/m*3 8.7 C 0 km/h
1225 10-05-2010 05:02:06 8.6 C 7.22 g/m*3 8.6 C 0 km/h
Sensor: Nr:Datum:Temp:Abs-Feuchte:Windchill:Wind:
Aussen-T/F 1226 10-05-2010 05:14:06 8.6 C 7.22 g/m*3 8.6 C 0 km/h
1227 10-05-2010 05:26:06 8.6 C 7.3 g/m*3 8.6 C 0 km/h
1228 10-05-2010 05:38:06 8.7 C 7.35 g/m*3 8.7 C 0 km/h
1229 10-05-2010 05:50:06 8.8 C 7.31 g/m*3 8.8 C 0 km/h
1230 10-05-2010 06:02:06 8.7 C 7.26 g/m*3 8.7 C 0 km/h
1231 10-05-2010 06:14:06 8.7 C 7.26 g/m*3 8.7 C 0 km/h
1232 10-05-2010 06:26:06 8.8 C 7.31 g/m*3 8.8 C 0 km/h
1233 10-05-2010 06:38:04 8.9 C 7.36 g/m*3 8.9 C 0 km/h
1234 10-05-2010 06:50:02 9 C 7.32 g/m*3 9 C 0 km/h
1235 10-05-2010 07:02:02 9.1 C 7.36 g/m*3 9.1 C 0 km/h
1236 10-05-2010 07:14:02 9.4 C 7.51 g/m*3 9.4 C 0 km/h
1237 10-05-2010 07:26:01 9.6 C 7.6 g/m*3 9.6 C 0 km/h
1238 10-05-2010 07:38:02 9.8 C 7.7 g/m*3 9.8 C 0 km/h
1239 10-05-2010 07:50:02 10.2 C 7.71 g/m*3 10.2 C 0 km/h
1240 10-05-2010 08:02:02 10.5 C 7.76 g/m*3 10.5 C 0 km/h
1241 10-05-2010 08:14:02 10.6 C 7.71 g/m*3 10.6 C 0 km/h
1242 10-05-2010 08:26:02 10.7 C 7.66 g/m*3 10.7 C 0 km/h
1243 10-05-2010 08:38:02 10.7 C 7.46 g/m*3 10.7 C 0 km/h
1244 10-05-2010 08:50:02 10.7 C 7.37 g/m*3 10.7 C 0 km/h
1245 10-05-2010 09:02:02 10.8 C 7.41 g/m*3 10.8 C 0 km/h
1246 10-05-2010 09:14:03 10.8 C 7.22 g/m*3 10.8 C 0 km/h
1247 10-05-2010 09:26:02 10.7 C 7.27 g/m*3 10.7 C 0 km/h
1248 10-05-2010 09:38:02 11 C 7.21 g/m*3 11 C 0 km/h
1249 10-05-2010 09:50:02 11.1 C 7.25 g/m*3 11.1 C 0 km/h
1250 10-05-2010 10:02:02 11.1 C 7.15 g/m*3 11.1 C 0 km/h
Sensor: Nr:Datum:Temp:Abs-Feuchte:Windchill:Wind:
Aussen-T/F 1251 10-05-2010 10:14:02 11.4 C 7.08 g/m*3 11.4 C 0 km/h
1252 10-05-2010 10:26:03 11.2 C 7.1 g/m*3 11.2 C 0 km/h
1253 10-05-2010 10:38:02 11.6 C 7.17 g/m*3 11.6 C 0 km/h
1254 10-05-2010 10:50:02 11.4 C 6.98 g/m*3 11.4 C 0 km/h
1255 10-05-2010 11:02:02 11.5 C 7.13 g/m*3 11.5 C 0 km/h
1256 10-05-2010 11:14:02 11.5 C 7.02 g/m*3 11.5 C 0 km/h
1257 10-05-2010 11:26:02 11.5 C 7.02 g/m*3 11.5 C 0 km/h
1258 10-05-2010 11:38:02 11.3 C 7.04 g/m*3 11.3 C 0 km/h
1259 10-05-2010 11:50:02 11.7 C 7.22 g/m*3 11.7 C 0 km/h
1260 10-05-2010 12:02:03 11.7 C 7.11 g/m*3 11.7 C 0 km/h
1261 10-05-2010 12:14:03 11.6 C 6.96 g/m*3 11.6 C 0 km/h
1262 10-05-2010 12:26:02 12.7 C 7.01 g/m*3 12.7 C 0 km/h
1263 10-05-2010 12:38:03 12.9 C 6.76 g/m*3 12.9 C 0 km/h
1264 10-05-2010 12:50:02 14.1 C 6.8 g/m*3 14.1 C 0 km/h
1265 10-05-2010 13:02:02 13.5 C 6.43 g/m*3 13.5 C 0 km/h
1266 10-05-2010 13:14:02 13.5 C 6.43 g/m*3 13.5 C 0 km/h
1267 10-05-2010 13:26:01 14.7 C 6.17 g/m*3 14.7 C 0 km/h
1268 10-05-2010 13:38:02 15.3 C 6.4 g/m*3 15.3 C 0 km/h
1269 10-05-2010 13:50:02 15.4 C 6.18 g/m*3 15.4 C 0 km/h
1270 10-05-2010 14:02:02 15.3 C 6.01 g/m*3 15.3 C 0 km/h
1271 10-05-2010 14:14:02 15.5 C 6.08 g/m*3 15.5 C 0 km/h
1272 10-05-2010 14:26:02 14.8 C 5.95 g/m*3 14.8 C 0 km/h
1273 10-05-2010 14:38:02 14.7 C 5.92 g/m*3 14.7 C 0 km/h
1274 10-05-2010 14:50:02 14.7 C 5.92 g/m*3 14.7 C 0 km/h
1275 10-05-2010 15:02:02 15 C 5.77 g/m*3 15 C 0 km/h
Sensor: Nr:Datum:Temp:Abs-Feuchte:Windchill:Wind:
Aussen-T/F 1276 10-05-2010 15:14:02 15.4 C 5.78 g/m*3 15.4 C 0 km/h
1277 10-05-2010 15:26:02 15.1 C 5.93 g/m*3 15.1 C 0 km/h
1278 10-05-2010 15:38:02 15.3 C 5.62 g/m*3 15.3 C 0 km/h
1279 10-05-2010 15:50:02 14.7 C 5.79 g/m*3 14.7 C 0 km/h
1280 10-05-2010 16:02:02 15.2 C 5.84 g/m*3 15.2 C 0 km/h
1281 10-05-2010 16:14:02 15.8 C 5.79 g/m*3 15.8 C 0 km/h
1282 10-05-2010 16:26:02 15.7 C 5.49 g/m*3 15.7 C 0 km/h
1283 10-05-2010 16:38:02 16.2 C 5.52 g/m*3 16.2 C 0 km/h
1284 10-05-2010 16:50:02 16.3 C 5.13 g/m*3 16.3 C 0 km/h
1285 10-05-2010 17:02:02 15.5 C 5.42 g/m*3 15.5 C 0 km/h
1286 10-05-2010 17:14:02 15.6 C 5.45 g/m*3 15.6 C 0 km/h
1287 10-05-2010 17:26:02 16 C 5.31 g/m*3 16 C 0 km/h
1288 10-05-2010 17:38:02 16 C 5.31 g/m*3 16 C 0 km/h
1289 10-05-2010 17:50:01 15.8 C 5.38 g/m*3 15.8 C 0 km/h
1290 10-05-2010 18:02:02 16.4 C 5.02 g/m*3 16.4 C 0 km/h
1291 10-05-2010 18:14:02 17.3 C 5.01 g/m*3 17.3 C 0 km/h
1292 10-05-2010 18:26:02 17.6 C 5.1 g/m*3 17.6 C 0 km/h
1293 10-05-2010 18:38:01 17.1 C 4.66 g/m*3 17.1 C 0 km/h
1294 10-05-2010 18:50:02 15.8 C 4.71 g/m*3 15.8 C 0 km/h
1295 10-05-2010 19:02:01 15.4 C 4.73 g/m*3 15.4 C 0 km/h
1296 10-05-2010 19:14:01 15.6 C 4.92 g/m*3 15.6 C 0 km/h
1297 10-05-2010 19:26:02 14.9 C 4.97 g/m*3 14.9 C 0 km/h
1298 10-05-2010 19:38:01 14.7 C 5.04 g/m*3 14.7 C 0 km/h
1299 10-05-2010 19:50:02 14.5 C 5.1 g/m*3 14.5 C 0 km/h
1300 10-05-2010 20:02:01 14.5 C 4.97 g/m*3 14.5 C 0 km/h
Sensor: Nr:Datum:Temp:Abs-Feuchte:Windchill:Wind:
Aussen-T/F 1301 10-05-2010 20:14:01 14.5 C 4.97 g/m*3 14.5 C 0 km/h
1302 10-05-2010 20:26:02 14.3 C 5.04 g/m*3 14.3 C 0 km/h
1303 10-05-2010 20:38:01 13.7 C 5.09 g/m*3 13.7 C 0 km/h
1304 10-05-2010 20:50:02 13.1 C 5.14 g/m*3 13.1 C 0 km/h
1305 10-05-2010 21:02:02 12.8 C 5.38 g/m*3 12.8 C 0 km/h
1306 10-05-2010 21:14:02 12.3 C 5.43 g/m*3 12.3 C 0 km/h
1307 10-05-2010 21:26:02 11.9 C 5.51 g/m*3 11.9 C 0 km/h
1308 10-05-2010 21:38:02 11.6 C 5.4 g/m*3 11.6 C 0 km/h
1309 10-05-2010 21:50:02 11.5 C 5.58 g/m*3 11.5 C 0 km/h
1310 10-05-2010 22:02:02 11.5 C 5.68 g/m*3 11.5 C 0 km/h
1311 10-05-2010 22:14:02 11.5 C 5.58 g/m*3 11.5 C 0 km/h
1312 10-05-2010 22:27:04 11.2 C 5.57 g/m*3 11.2 C 0 km/h
1313 10-05-2010 22:39:04 11.1 C 5.54 g/m*3 11.1 C 0 km/h
1314 10-05-2010 22:51:04 11.8 C 5.79 g/m*3 11.8 C 0 km/h
1315 10-05-2010 23:03:04 11.6 C 5.92 g/m*3 11.6 C 0 km/h
1316 10-05-2010 23:15:05 11.2 C 5.68 g/m*3 11.2 C 0 km/h
1317 10-05-2010 23:27:05 11.3 C 5.81 g/m*3 11.3 C 0 km/h
1318 10-05-2010 23:39:05 11.4 C 5.85 g/m*3 11.4 C 0 km/h
1319 10-05-2010 23:51:05 11.2 C 5.78 g/m*3 11.2 C 0 km/h
1320 11-05-2010 00:03:05 11 C 5.71 g/m*3 11 C 0 km/h
1321 11-05-2010 00:15:05 11.1 C 5.74 g/m*3 11.1 C 0 km/h
1322 11-05-2010 00:27:05 10.7 C 5.7 g/m*3 10.7 C 0 km/h
1323 11-05-2010 00:39:05 10.8 C 5.83 g/m*3 10.8 C 0 km/h
1324 11-05-2010 00:51:05 10.8 C 5.83 g/m*3 10.8 C 0 km/h
1325 11-05-2010 01:03:05 10.4 C 5.88 g/m*3 10.4 C 0 km/h
Sensor: Nr:Datum:Temp:Abs-Feuchte:Windchill:Wind:
Aussen-T/F 1326 11-05-2010 01:15:05 10.5 C 5.82 g/m*3 10.5 C 0 km/h
1327 11-05-2010 01:27:05 10.5 C 5.92 g/m*3 10.5 C 0 km/h
1328 11-05-2010 01:39:05 10.4 C 5.98 g/m*3 10.4 C 0 km/h
1329 11-05-2010 01:51:05 10.3 C 6.03 g/m*3 10.3 C 0 km/h
1330 11-05-2010 02:03:05 10.1 C 5.96 g/m*3 10.1 C 0 km/h
1331 11-05-2010 02:15:05 10 C 6.01 g/m*3 10 C 0 km/h
1332 11-05-2010 02:27:05 10.1 C 6.05 g/m*3 10.1 C 0 km/h
1333 11-05-2010 02:39:05 10.1 C 6.05 g/m*3 10.1 C 0 km/h
1334 11-05-2010 02:51:05 10.2 C 6.09 g/m*3 10.2 C 0 km/h
1335 11-05-2010 03:03:05 10 C 6.11 g/m*3 10 C 0 km/h
1336 11-05-2010 03:15:05 9.7 C 5.99 g/m*3 9.7 C 0 km/h
1337 11-05-2010 03:27:05 9.9 C 6.07 g/m*3 9.9 C 0 km/h
1338 11-05-2010 03:39:06 9.7 C 6.27 g/m*3 9.7 C 0 km/h
1339 11-05-2010 03:51:06 9.6 C 6.32 g/m*3 9.6 C 0 km/h
1340 11-05-2010 04:03:06 9.7 C 6.45 g/m*3 9.7 C 0 km/h
1341 11-05-2010 04:15:06 9.5 C 6.1 g/m*3 9.5 C 0 km/h
1342 11-05-2010 04:27:06 9.4 C 6.06 g/m*3 9.4 C 0 km/h
1343 11-05-2010 04:39:06 9.3 C 6.02 g/m*3 9.3 C 0 km/h
1344 11-05-2010 04:51:06 9.4 C 6.15 g/m*3 9.4 C 0 km/h
1345 11-05-2010 05:03:06 9.4 C 6.15 g/m*3 9.4 C 0 km/h
1346 11-05-2010 05:15:06 9.3 C 6.11 g/m*3 9.3 C 0 km/h
1347 11-05-2010 05:27:06 9.5 C 6.19 g/m*3 9.5 C 0 km/h
1348 11-05-2010 05:39:06 9.4 C 6.15 g/m*3 9.4 C 0 km/h
1349 11-05-2010 05:51:06 9.3 C 6.2 g/m*3 9.3 C 0 km/h
1350 11-05-2010 06:03:06 9.4 C 6.24 g/m*3 9.4 C 0 km/h
Sensor: Nr:Datum:Temp:Abs-Feuchte:Windchill:Wind:
Aussen-T/F 1351 11-05-2010 06:15:06 9.3 C 6.11 g/m*3 9.3 C 0 km/h
1352 11-05-2010 06:27:06 9.3 C 6.2 g/m*3 9.3 C 0 km/h
1353 11-05-2010 06:39:06 9.1 C 6.12 g/m*3 9.1 C 0 km/h
1354 11-05-2010 06:51:02 9.1 C 6.12 g/m*3 9.1 C 0 km/h
1355 11-05-2010 07:03:01 9.3 C 6.29 g/m*3 9.3 C 0 km/h
1356 11-05-2010 07:15:02 9.5 C 6.37 g/m*3 9.5 C 0 km/h
1357 11-05-2010 07:27:02 9.6 C 6.32 g/m*3 9.6 C 0 km/h
1358 11-05-2010 07:39:02 9.7 C 6.27 g/m*3 9.7 C 0 km/h
1359 11-05-2010 07:51:01 9.9 C 6.35 g/m*3 9.9 C 0 km/h
1360 11-05-2010 08:03:02 10.1 C 6.24 g/m*3 10.1 C 0 km/h
1361 11-05-2010 08:15:01 10.5 C 6.3 g/m*3 10.5 C 0 km/h
1362 11-05-2010 08:27:01 10.7 C 6.19 g/m*3 10.7 C 0 km/h
1363 11-05-2010 08:39:01 11.2 C 6.28 g/m*3 11.2 C 0 km/h
1364 11-05-2010 08:51:01 12 C 6.29 g/m*3 12 C 0 km/h
1365 11-05-2010 09:03:02 11.7 C 6.07 g/m*3 11.7 C 0 km/h
1366 11-05-2010 09:15:01 11.7 C 6.07 g/m*3 11.7 C 0 km/h
1367 11-05-2010 09:27:01 11.9 C 6.14 g/m*3 11.9 C 0 km/h
1368 11-05-2010 09:39:02 12.8 C 6.05 g/m*3 12.8 C 0 km/h
1369 11-05-2010 09:51:01 12.7 C 5.79 g/m*3 12.7 C 0 km/h
1370 11-05-2010 10:03:02 12.8 C 6.16 g/m*3 12.8 C 0 km/h
1371 11-05-2010 10:15:02 13 C 6.01 g/m*3 13 C 0 km/h
1372 11-05-2010 10:27:02 13 C 5.9 g/m*3 13 C 0 km/h
1373 11-05-2010 10:39:01 12.3 C 5.97 g/m*3 12.3 C 0 km/h
1374 11-05-2010 10:51:01 11.8 C 6.21 g/m*3 11.8 C 0 km/h
1375 11-05-2010 11:03:01 12 C 6.07 g/m*3 12 C 0 km/h
Sensor: Nr:Datum:Temp:Abs-Feuchte:Windchill:Wind:
Aussen-T/F 1376 11-05-2010 11:15:02 12 C 6.07 g/m*3 12 C 0 km/h
1377 11-05-2010 11:27:02 12 C 6.18 g/m*3 12 C 0 km/h
1378 11-05-2010 11:39:02 12.5 C 6.38 g/m*3 12.5 C 0 km/h
1379 11-05-2010 11:51:02 14.1 C 6.19 g/m*3 14.1 C 0 km/h
1380 11-05-2010 12:03:02 14.1 C 5.95 g/m*3 14.1 C 0 km/h
1381 11-05-2010 12:15:02 13.7 C 6.28 g/m*3 13.7 C 0 km/h
1382 11-05-2010 12:27:02 14.8 C 6.33 g/m*3 14.8 C 0 km/h
1383 11-05-2010 12:39:01 14.1 C 5.95 g/m*3 14.1 C 0 km/h
1384 11-05-2010 12:51:02 14.3 C 6.27 g/m*3 14.3 C 0 km/h
1385 11-05-2010 13:03:01 13.4 C 6.16 g/m*3 13.4 C 0 km/h
1386 11-05-2010 13:15:01 13.7 C 6.39 g/m*3 13.7 C 0 km/h
1387 11-05-2010 13:27:01 14.2 C 6.23 g/m*3 14.2 C 0 km/h
1388 11-05-2010 13:39:01 14.1 C 6.19 g/m*3 14.1 C 0 km/h
1389 11-05-2010 13:51:02 13.3 C 6.35 g/m*3 13.3 C 0 km/h
1390 11-05-2010 14:03:01 14.1 C 6.43 g/m*3 14.1 C 0 km/h
1391 11-05-2010 14:15:01 14 C 6.27 g/m*3 14 C 0 km/h
1392 11-05-2010 14:27:01 14.1 C 6.43 g/m*3 14.1 C 0 km/h
1393 11-05-2010 14:39:02 14 C 6.39 g/m*3 14 C 0 km/h
1394 11-05-2010 14:51:02 14 C 6.51 g/m*3 14 C 0 km/h
1395 11-05-2010 15:03:02 14.4 C 6.55 g/m*3 14.4 C 0 km/h
1396 11-05-2010 15:15:02 14.1 C 6.31 g/m*3 14.1 C 0 km/h
1397 11-05-2010 15:27:02 14.7 C 6.55 g/m*3 14.7 C 0 km/h
1398 11-05-2010 15:39:02 14.5 C 6.34 g/m*3 14.5 C 0 km/h
1399 11-05-2010 15:51:02 14.3 C 6.39 g/m*3 14.3 C 0 km/h
1400 11-05-2010 16:03:03 14.3 C 6.51 g/m*3 14.3 C 0 km/h
Sensor: Nr:Datum:Temp:Abs-Feuchte:Windchill:Wind:
Aussen-T/F 1401 11-05-2010 16:15:02 14.8 C 6.71 g/m*3 14.8 C 0 km/h
1402 11-05-2010 16:27:02 15.6 C 6.65 g/m*3 15.6 C 0 km/h
1403 11-05-2010 16:39:03 15.9 C 6.5 g/m*3 15.9 C 0 km/h
1404 11-05-2010 16:51:01 15.6 C 6.52 g/m*3 15.6 C 0 km/h
1405 11-05-2010 17:03:02 14.9 C 6.75 g/m*3 14.9 C 0 km/h
1406 11-05-2010 17:15:01 15.1 C 6.58 g/m*3 15.1 C 0 km/h
1407 11-05-2010 17:27:01 14.7 C 6.8 g/m*3 14.7 C 0 km/h
1408 11-05-2010 17:39:02 14.8 C 6.71 g/m*3 14.8 C 0 km/h
1409 11-05-2010 17:51:01 14.7 C 6.8 g/m*3 14.7 C 0 km/h
1410 11-05-2010 18:03:02 14.5 C 6.96 g/m*3 14.5 C 0 km/h
1411 11-05-2010 18:15:02 13.9 C 7.07 g/m*3 13.9 C 0 km/h
1412 11-05-2010 18:27:02 12.5 C 7.48 g/m*3 12.5 C 0 km/h
1413 11-05-2010 18:39:02 11.9 C 8.05 g/m*3 11.9 C 0 km/h
1414 11-05-2010 18:51:01 11.6 C 8.21 g/m*3 11.6 C 0 km/h
1415 11-05-2010 19:03:02 11.3 C 8.16 g/m*3 11.3 C 0 km/h
1416 11-05-2010 19:15:02 11.1 C 8.36 g/m*3 11.1 C 0 km/h
1417 11-05-2010 19:27:02 10.9 C 8.36 g/m*3 10.9 C 0 km/h
1418 11-05-2010 19:39:02 10.8 C 8.3 g/m*3 10.8 C 0 km/h
1419 11-05-2010 19:51:01 10.6 C 8.39 g/m*3 10.6 C 0 km/h
1420 11-05-2010 20:03:02 10.5 C 8.44 g/m*3 10.5 C 0 km/h
1421 11-05-2010 20:15:02 10.2 C 8.37 g/m*3 10.2 C 0 km/h
1422 11-05-2010 20:27:02 10.1 C 8.42 g/m*3 10.1 C 0 km/h
1423 11-05-2010 20:39:02 10 C 8.46 g/m*3 10 C 0 km/h
1424 11-05-2010 20:51:02 9.8 C 8.54 g/m*3 9.8 C 0 km/h
1425 11-05-2010 21:03:01 9.8 C 8.54 g/m*3 9.8 C 0 km/h
Sensor: Nr:Datum:Temp:Abs-Feuchte:Windchill:Wind:
Aussen-T/F 1426 11-05-2010 21:15:02 9.9 C 8.59 g/m*3 9.9 C 0 km/h
1427 11-05-2010 21:27:03 10 C 8.64 g/m*3 10 C 0 km/h
1428 11-05-2010 21:39:01 9.8 C 8.63 g/m*3 9.8 C 0 km/h
1429 11-05-2010 21:51:02 9.8 C 8.63 g/m*3 9.8 C 0 km/h
1430 11-05-2010 22:03:02 9.7 C 8.57 g/m*3 9.7 C 0 km/h
1431 11-05-2010 22:15:01 9.6 C 8.52 g/m*3 9.6 C 0 km/h
1432 11-05-2010 22:27:01 9.8 C 8.72 g/m*3 9.8 C 0 km/h
1433 11-05-2010 22:40:03 9.6 C 8.61 g/m*3 9.6 C 0 km/h
1434 11-05-2010 22:52:03 9.7 C 8.67 g/m*3 9.7 C 0 km/h
1435 11-05-2010 23:04:03 9.8 C 8.72 g/m*3 9.8 C 0 km/h
1436 11-05-2010 23:16:03 9.8 C 8.72 g/m*3 9.8 C 0 km/h
1437 11-05-2010 23:28:03 9.8 C 8.72 g/m*3 9.8 C 0 km/h
1438 11-05-2010 23:40:03 9.9 C 8.78 g/m*3 9.9 C 0 km/h
1439 11-05-2010 23:52:03 9.7 C 8.67 g/m*3 9.7 C 0 km/h
1440 12-05-2010 00:04:03 9.7 C 8.67 g/m*3 9.7 C 0 km/h
1441 12-05-2010 00:16:03 9.6 C 8.61 g/m*3 9.6 C 0 km/h
1442 12-05-2010 00:28:03 9.1 C 8.34 g/m*3 9.1 C 0 km/h
1443 12-05-2010 00:40:03 9.1 C 8.34 g/m*3 9.1 C 0 km/h
1444 12-05-2010 00:52:03 9.1 C 8.34 g/m*3 9.1 C 0 km/h
1445 12-05-2010 01:04:03 9.1 C 8.34 g/m*3 9.1 C 0 km/h
1446 12-05-2010 01:16:03 8.8 C 8.27 g/m*3 8.8 C 0 km/h
1447 12-05-2010 01:28:04 8.5 C 8.03 g/m*3 8.5 C 0 km/h
1448 12-05-2010 01:40:04 8.4 C 7.97 g/m*3 8.4 C 0 km/h
1449 12-05-2010 01:52:04 7.8 C 7.75 g/m*3 7.8 C 0 km/h
1450 12-05-2010 02:04:04 7.5 C 7.52 g/m*3 7.5 C 0 km/h
Sensor: Nr:Datum:Temp:Abs-Feuchte:Windchill:Wind:
Aussen-T/F 1451 12-05-2010 02:16:04 7.8 C 7.75 g/m*3 7.8 C 0 km/h
1452 12-05-2010 02:28:04 7.9 C 7.8 g/m*3 7.9 C 0 km/h
1453 12-05-2010 02:40:04 7.9 C 7.8 g/m*3 7.9 C 0 km/h
1454 12-05-2010 02:52:04 7.5 C 7.6 g/m*3 7.5 C 0 km/h
1455 12-05-2010 03:04:04 7.3 C 7.43 g/m*3 7.3 C 0 km/h
1456 12-05-2010 03:16:04 7.2 C 7.38 g/m*3 7.2 C 0 km/h
1457 12-05-2010 03:28:04 7.1 C 7.33 g/m*3 7.1 C 0 km/h
1458 12-05-2010 03:40:04 7 C 7.28 g/m*3 7 C 0 km/h
1459 12-05-2010 03:52:04 7 C 7.21 g/m*3 7 C 0 km/h
1460 12-05-2010 04:04:04 6.9 C 7.16 g/m*3 6.9 C 0 km/h
1461 12-05-2010 04:16:04 6.9 C 7.08 g/m*3 6.9 C 0 km/h
1462 12-05-2010 04:28:04 6.9 C 7.01 g/m*3 6.9 C 0 km/h
1463 12-05-2010 04:40:04 6.9 C 6.93 g/m*3 6.9 C 0 km/h
1464 12-05-2010 04:52:04 6.8 C 6.81 g/m*3 6.8 C 0 km/h
1465 12-05-2010 05:04:04 6.8 C 6.73 g/m*3 6.8 C 0 km/h
1466 12-05-2010 05:16:04 6.8 C 6.65 g/m*3 6.8 C 0 km/h
1467 12-05-2010 05:28:04 6.8 C 6.65 g/m*3 6.8 C 0 km/h
1468 12-05-2010 05:40:05 6.8 C 6.65 g/m*3 6.8 C 0 km/h
1469 12-05-2010 05:52:05 6.8 C 6.65 g/m*3 6.8 C 0 km/h
1470 12-05-2010 06:04:05 6.7 C 6.61 g/m*3 6.7 C 0 km/h
1471 12-05-2010 06:16:05 6.8 C 6.58 g/m*3 6.8 C 0 km/h
1472 12-05-2010 06:28:05 6.8 C 6.5 g/m*3 6.8 C 0 km/h
1473 12-05-2010 06:40:05 6.8 C 6.58 g/m*3 6.8 C 0 km/h
1474 12-05-2010 06:52:05 6.8 C 6.58 g/m*3 6.8 C 0 km/h
1475 12-05-2010 07:04:03 6.9 C 6.54 g/m*3 6.9 C 0 km/h
Sensor: Nr:Datum:Temp:Abs-Feuchte:Windchill:Wind:
Aussen-T/F 1476 12-05-2010 07:16:03 7 C 6.59 g/m*3 7 C 0 km/h
1477 12-05-2010 07:28:03 7.1 C 6.71 g/m*3 7.1 C 0 km/h
1478 12-05-2010 07:40:03 7.2 C 6.67 g/m*3 7.2 C 0 km/h
1479 12-05-2010 07:52:02 7.2 C 6.59 g/m*3 7.2 C 0 km/h
1480 12-05-2010 08:04:02 7.3 C 6.56 g/m*3 7.3 C 0 km/h
1481 12-05-2010 08:16:02 7.6 C 6.69 g/m*3 7.6 C 0 km/h
1482 12-05-2010 08:28:02 7.7 C 6.57 g/m*3 7.7 C 0 km/h
1483 12-05-2010 08:40:02 7.8 C 6.45 g/m*3 7.8 C 0 km/h
1484 12-05-2010 08:52:01 7.8 C 6.45 g/m*3 7.8 C 0 km/h
1485 12-05-2010 09:04:02 8 C 6.37 g/m*3 8 C 0 km/h
1486 12-05-2010 09:16:01 8.3 C 6.41 g/m*3 8.3 C 0 km/h
1487 12-05-2010 09:28:01 8.4 C 6.19 g/m*3 8.4 C 0 km/h
1488 12-05-2010 09:40:01 8.3 C 6.07 g/m*3 8.3 C 0 km/h
1489 12-05-2010 09:52:01 8.4 C 6.11 g/m*3 8.4 C 0 km/h
1490 12-05-2010 10:04:02 8.4 C 6.02 g/m*3 8.4 C 0 km/h
1491 12-05-2010 10:16:01 8.6 C 6.1 g/m*3 8.6 C 0 km/h
1492 12-05-2010 10:28:01 8.6 C 6.02 g/m*3 8.6 C 0 km/h
1493 12-05-2010 10:40:01 8.7 C 5.97 g/m*3 8.7 C 0 km/h
1494 12-05-2010 10:52:01 8.7 C 5.79 g/m*3 8.7 C 0 km/h
1495 12-05-2010 11:04:01 8.7 C 5.79 g/m*3 8.7 C 0 km/h
1496 12-05-2010 11:16:02 8.9 C 5.87 g/m*3 8.9 C 0 km/h
1497 12-05-2010 11:28:02 8.9 C 5.61 g/m*3 8.9 C 0 km/h
1498 12-05-2010 11:40:01 9.3 C 5.57 g/m*3 9.3 C 0 km/h
1499 12-05-2010 11:52:01 10.1 C 5.67 g/m*3 10.1 C 0 km/h
1500 12-05-2010 12:04:01 10 C 5.54 g/m*3 10 C 0 km/h
Sensor: Nr:Datum:Temp:Abs-Feuchte:Windchill:Wind:
Aussen-T/F 1501 12-05-2010 12:16:02 9.7 C 5.35 g/m*3 9.7 C 0 km/h
1502 12-05-2010 12:28:02 9.9 C 5.51 g/m*3 9.9 C 0 km/h
1503 12-05-2010 12:40:01 10.5 C 5.33 g/m*3 10.5 C 0 km/h
1504 12-05-2010 12:52:03 10.2 C 5.42 g/m*3 10.2 C 0 km/h
1505 12-05-2010 13:04:02 10.5 C 5.43 g/m*3 10.5 C 0 km/h
1506 12-05-2010 13:16:02 11.1 C 5.34 g/m*3 11.1 C 0 km/h
1507 12-05-2010 13:28:02 10.7 C 5.3 g/m*3 10.7 C 0 km/h
1508 12-05-2010 13:40:02 10.4 C 5.2 g/m*3 10.4 C 0 km/h
1509 12-05-2010 13:52:02 10.7 C 5.21 g/m*3 10.7 C 0 km/h
1510 12-05-2010 14:04:02 10.2 C 5.23 g/m*3 10.2 C 0 km/h
1511 12-05-2010 14:16:02 10.2 C 5.23 g/m*3 10.2 C 0 km/h
1512 12-05-2010 14:28:02 10.6 C 5.17 g/m*3 10.6 C 0 km/h
1513 12-05-2010 14:40:01 10.9 C 5.17 g/m*3 10.9 C 0 km/h
1514 12-05-2010 14:52:02 10.7 C 4.81 g/m*3 10.7 C 0 km/h
1515 12-05-2010 15:04:01 11.1 C 5.14 g/m*3 11.1 C 0 km/h
1516 12-05-2010 15:16:02 10.8 C 4.94 g/m*3 10.8 C 0 km/h
1517 12-05-2010 15:28:02 10.8 C 4.84 g/m*3 10.8 C 0 km/h
1518 12-05-2010 15:40:02 10.8 C 5.04 g/m*3 10.8 C 0 km/h
1519 12-05-2010 15:52:02 10.7 C 5.11 g/m*3 10.7 C 0 km/h
1520 12-05-2010 16:04:02 10.8 C 5.24 g/m*3 10.8 C 0 km/h
1521 12-05-2010 16:16:02 10.9 C 5.17 g/m*3 10.9 C 0 km/h
1522 12-05-2010 16:28:02 10.7 C 5.3 g/m*3 10.7 C 0 km/h
1523 12-05-2010 16:40:02 10.3 C 5.17 g/m*3 10.3 C 0 km/h
1524 12-05-2010 16:52:01 9.9 C 5.32 g/m*3 9.9 C 0 km/h
1525 12-05-2010 17:04:02 9.6 C 5.22 g/m*3 9.6 C 0 km/h
Sensor: Nr:Datum:Temp:Abs-Feuchte:Windchill:Wind:
Aussen-T/F 1526 12-05-2010 17:16:01 9.7 C 5.35 g/m*3 9.7 C 0 km/h
1527 12-05-2010 17:28:01 9.9 C 5.32 g/m*3 9.9 C 0 km/h
1528 12-05-2010 17:40:02 9.9 C 5.32 g/m*3 9.9 C 0 km/h
1529 12-05-2010 17:52:02 9.6 C 5.22 g/m*3 9.6 C 0 km/h
1530 12-05-2010 18:04:02 9.6 C 5.4 g/m*3 9.6 C 0 km/h
1531 12-05-2010 18:16:01 9.3 C 5.39 g/m*3 9.3 C 0 km/h
1532 12-05-2010 18:28:01 9.1 C 5.41 g/m*3 9.1 C 0 km/h
1533 12-05-2010 18:40:02 9.1 C 5.5 g/m*3 9.1 C 0 km/h
1534 12-05-2010 18:52:02 9 C 5.55 g/m*3 9 C 0 km/h
1535 12-05-2010 19:04:02 9 C 5.64 g/m*3 9 C 0 km/h
1536 12-05-2010 19:16:01 8.8 C 5.66 g/m*3 8.8 C 0 km/h
1537 12-05-2010 19:28:01 9 C 5.73 g/m*3 9 C 0 km/h
1538 12-05-2010 19:40:02 9 C 5.73 g/m*3 9 C 0 km/h
1539 12-05-2010 19:52:02 8.7 C 5.71 g/m*3 8.7 C 0 km/h
1540 12-05-2010 20:04:02 8.6 C 5.76 g/m*3 8.6 C 0 km/h
1541 12-05-2010 20:16:02 8.6 C 5.84 g/m*3 8.6 C 0 km/h
1542 12-05-2010 20:28:02 8.6 C 5.84 g/m*3 8.6 C 0 km/h
1543 12-05-2010 20:40:02 8.5 C 5.81 g/m*3 8.5 C 0 km/h
1544 12-05-2010 20:52:02 8.5 C 5.98 g/m*3 8.5 C 0 km/h
1545 12-05-2010 21:04:02 8.5 C 5.89 g/m*3 8.5 C 0 km/h
1546 12-05-2010 21:16:02 8.4 C 5.94 g/m*3 8.4 C 0 km/h
1547 12-05-2010 21:28:02 8.5 C 6.06 g/m*3 8.5 C 0 km/h
1548 12-05-2010 21:40:01 8.5 C 6.06 g/m*3 8.5 C 0 km/h
1549 12-05-2010 21:52:02 8.3 C 6.07 g/m*3 8.3 C 0 km/h
1550 12-05-2010 22:04:01 8 C 6.2 g/m*3 8 C 0 km/h
Sensor: Nr:Datum:Temp:Abs-Feuchte:Windchill:Wind:
Aussen-T/F 1551 12-05-2010 22:17:03 8 C 6.37 g/m*3 8 C 0 km/h
1552 12-05-2010 22:29:03 7.6 C 6.36 g/m*3 7.6 C 0 km/h
1553 12-05-2010 22:41:03 7.5 C 6.48 g/m*3 7.5 C 0 km/h
1554 12-05-2010 22:53:03 7.7 C 6.65 g/m*3 7.7 C 0 km/h
1555 12-05-2010 23:05:03 7.8 C 6.69 g/m*3 7.8 C 0 km/h
1556 12-05-2010 23:17:03 7.8 C 6.69 g/m*3 7.8 C 0 km/h
1557 12-05-2010 23:29:03 7.8 C 6.69 g/m*3 7.8 C 0 km/h
1558 12-05-2010 23:41:04 7.9 C 6.74 g/m*3 7.9 C 0 km/h
1559 12-05-2010 23:53:04 7.7 C 6.57 g/m*3 7.7 C 0 km/h
1560 13-05-2010 00:05:04 7.7 C 6.57 g/m*3 7.7 C 0 km/h
1561 13-05-2010 00:17:04 7.6 C 6.53 g/m*3 7.6 C 0 km/h
1562 13-05-2010 00:29:04 7.5 C 6.4 g/m*3 7.5 C 0 km/h
1563 13-05-2010 00:41:04 7.6 C 6.44 g/m*3 7.6 C 0 km/h
1564 13-05-2010 00:53:04 7.5 C 6.4 g/m*3 7.5 C 0 km/h
1565 13-05-2010 01:05:04 7.4 C 6.36 g/m*3 7.4 C 0 km/h
1566 13-05-2010 01:17:04 7.3 C 6.48 g/m*3 7.3 C 0 km/h
1567 13-05-2010 01:29:04 7.3 C 6.48 g/m*3 7.3 C 0 km/h
1568 13-05-2010 01:41:04 7.3 C 6.56 g/m*3 7.3 C 0 km/h
1569 13-05-2010 01:53:04 7.4 C 6.68 g/m*3 7.4 C 0 km/h
1570 13-05-2010 02:05:04 7.5 C 6.72 g/m*3 7.5 C 0 km/h
1571 13-05-2010 02:17:04 7.4 C 6.6 g/m*3 7.4 C 0 km/h
1572 13-05-2010 02:29:04 7.4 C 6.52 g/m*3 7.4 C 0 km/h
1573 13-05-2010 02:41:04 7.4 C 6.52 g/m*3 7.4 C 0 km/h
1574 13-05-2010 02:53:04 7.4 C 6.52 g/m*3 7.4 C 0 km/h
1575 13-05-2010 03:05:04 7.4 C 6.52 g/m*3 7.4 C 0 km/h
Sensor: Nr:Datum:Temp:Abs-Feuchte:Windchill:Wind:
Aussen-T/F 1576 13-05-2010 03:17:04 7.4 C 6.52 g/m*3 7.4 C 0 km/h
1577 13-05-2010 03:29:04 7.3 C 6.48 g/m*3 7.3 C 0 km/h
1578 13-05-2010 03:41:05 7.3 C 6.56 g/m*3 7.3 C 0 km/h
1579 13-05-2010 03:53:05 7.1 C 6.47 g/m*3 7.1 C 0 km/h
1580 13-05-2010 04:05:05 6.9 C 6.54 g/m*3 6.9 C 0 km/h
1581 13-05-2010 04:17:05 7 C 6.51 g/m*3 7 C 0 km/h
1582 13-05-2010 04:29:05 7.1 C 6.63 g/m*3 7.1 C 0 km/h
1583 13-05-2010 04:41:05 7.1 C 6.63 g/m*3 7.1 C 0 km/h
1584 13-05-2010 04:53:05 6.9 C 6.62 g/m*3 6.9 C 0 km/h
1585 13-05-2010 05:05:05 6.9 C 6.7 g/m*3 6.9 C 0 km/h
1586 13-05-2010 05:17:05 6.8 C 6.65 g/m*3 6.8 C 0 km/h
1587 13-05-2010 05:29:05 6.8 C 6.65 g/m*3 6.8 C 0 km/h
1588 13-05-2010 05:41:05 6.7 C 6.61 g/m*3 6.7 C 0 km/h
1589 13-05-2010 05:53:05 6.6 C 6.64 g/m*3 6.6 C 0 km/h
1590 13-05-2010 06:05:05 6.6 C 6.64 g/m*3 6.6 C 0 km/h
1591 13-05-2010 06:17:05 6.7 C 6.69 g/m*3 6.7 C 0 km/h
1592 13-05-2010 06:29:05 6.7 C 6.69 g/m*3 6.7 C 0 km/h
1593 13-05-2010 06:41:05 6.6 C 6.64 g/m*3 6.6 C 0 km/h
1594 13-05-2010 06:53:05 6.6 C 6.64 g/m*3 6.6 C 0 km/h
1595 13-05-2010 07:05:05 6.7 C 6.76 g/m*3 6.7 C 0 km/h
1596 13-05-2010 07:17:05 6.7 C 6.76 g/m*3 6.7 C 0 km/h
1597 13-05-2010 07:29:05 6.9 C 6.77 g/m*3 6.9 C 0 km/h
1598 13-05-2010 07:41:05 6.9 C 6.7 g/m*3 6.9 C 0 km/h
1599 13-05-2010 07:53:01 6.8 C 6.5 g/m*3 6.8 C 0 km/h
1600 13-05-2010 08:05:01 6.8 C 6.42 g/m*3 6.8 C 0 km/h
Sensor: Nr:Datum:Temp:Abs-Feuchte:Windchill:Wind:
Aussen-T/F 1601 13-05-2010 08:17:02 6.8 C 6.35 g/m*3 6.8 C 0 km/h
1602 13-05-2010 08:29:02 6.9 C 6.31 g/m*3 6.9 C 0 km/h
1603 13-05-2010 08:41:01 7 C 6.12 g/m*3 7 C 0 km/h
1604 13-05-2010 08:53:02 7.2 C 6.12 g/m*3 7.2 C 0 km/h
1605 13-05-2010 09:05:01 7.5 C 6.24 g/m*3 7.5 C 0 km/h
1606 13-05-2010 09:17:01 7.8 C 6.2 g/m*3 7.8 C 0 km/h
1607 13-05-2010 09:29:01 7.9 C 6 g/m*3 7.9 C 0 km/h
1608 13-05-2010 09:41:01 8.2 C 5.86 g/m*3 8.2 C 0 km/h
1609 13-05-2010 09:53:02 8.3 C 5.65 g/m*3 8.3 C 0 km/h
1610 13-05-2010 10:05:01 8.9 C 5.69 g/m*3 8.9 C 0 km/h
1611 13-05-2010 10:17:02 9.1 C 5.41 g/m*3 9.1 C 0 km/h
1612 13-05-2010 10:29:02 9.7 C 5.62 g/m*3 9.7 C 0 km/h
1613 13-05-2010 10:41:02 9.7 C 5.16 g/m*3 9.7 C 0 km/h
1614 13-05-2010 10:53:01 9.9 C 5.23 g/m*3 9.9 C 0 km/h
1615 13-05-2010 11:05:02 10.2 C 5.23 g/m*3 10.2 C 0 km/h
1616 13-05-2010 11:17:01 10 C 4.98 g/m*3 10 C 0 km/h
1617 13-05-2010 11:29:01 10.1 C 4.92 g/m*3 10.1 C 0 km/h
1618 13-05-2010 11:41:02 9.5 C 5.01 g/m*3 9.5 C 0 km/h
1619 13-05-2010 11:53:02 9.7 C 5.16 g/m*3 9.7 C 0 km/h
1620 13-05-2010 12:05:02 9.7 C 4.89 g/m*3 9.7 C 0 km/h
1621 13-05-2010 12:17:01 9.5 C 4.92 g/m*3 9.5 C 0 km/h
1622 13-05-2010 12:29:01 10.2 C 4.95 g/m*3 10.2 C 0 km/h
1623 13-05-2010 12:41:02 10.1 C 4.63 g/m*3 10.1 C 0 km/h
1624 13-05-2010 12:53:02 10.8 C 4.84 g/m*3 10.8 C 0 km/h
1625 13-05-2010 13:05:02 11 C 4.8 g/m*3 11 C 0 km/h
Sensor: Nr:Datum:Temp:Abs-Feuchte:Windchill:Wind:
Aussen-T/F 1626 13-05-2010 13:17:01 10.1 C 4.92 g/m*3 10.1 C 0 km/h
1627 13-05-2010 13:29:01 9.3 C 4.94 g/m*3 9.3 C 0 km/h
1628 13-05-2010 13:41:02 8.9 C 5.08 g/m*3 8.9 C 0 km/h
1629 13-05-2010 13:53:02 9.4 C 5.16 g/m*3 9.4 C 0 km/h
1630 13-05-2010 14:05:02 10 C 5.17 g/m*3 10 C 0 km/h
1631 13-05-2010 14:17:02 10.5 C 5.14 g/m*3 10.5 C 0 km/h
1632 13-05-2010 14:29:02 10.9 C 5.07 g/m*3 10.9 C 0 km/h
1633 13-05-2010 14:41:02 10.6 C 4.78 g/m*3 10.6 C 0 km/h
1634 13-05-2010 14:53:01 11 C 4.9 g/m*3 11 C 0 km/h
1635 13-05-2010 15:05:02 11 C 4.8 g/m*3 11 C 0 km/h
1636 13-05-2010 15:17:02 10.5 C 4.85 g/m*3 10.5 C 0 km/h
1637 13-05-2010 15:29:02 10 C 4.79 g/m*3 10 C 0 km/h
1638 13-05-2010 15:41:02 9.8 C 5.1 g/m*3 9.8 C 0 km/h
1639 13-05-2010 15:53:02 9.2 C 5.36 g/m*3 9.2 C 0 km/h
1640 13-05-2010 16:05:01 8.7 C 5.53 g/m*3 8.7 C 0 km/h
1641 13-05-2010 16:17:02 8.5 C 5.81 g/m*3 8.5 C 0 km/h
1642 13-05-2010 16:29:02 8.6 C 6.02 g/m*3 8.6 C 0 km/h
1643 13-05-2010 16:41:01 8.6 C 6.19 g/m*3 8.6 C 0 km/h
1644 13-05-2010 16:53:02 8.9 C 6.57 g/m*3 8.9 C 0 km/h
1645 13-05-2010 17:05:01 8.4 C 6.19 g/m*3 8.4 C 0 km/h
1646 13-05-2010 17:17:02 8.2 C 6.28 g/m*3 8.2 C 0 km/h
1647 13-05-2010 17:29:03 8.2 C 6.36 g/m*3 8.2 C 0 km/h
1648 13-05-2010 17:41:01 8.2 C 6.53 g/m*3 8.2 C 0 km/h
1649 13-05-2010 17:53:02 8.1 C 6.49 g/m*3 8.1 C 0 km/h
1650 13-05-2010 18:05:02 8.3 C 6.66 g/m*3 8.3 C 0 km/h
Sensor: Nr:Datum:Temp:Abs-Feuchte:Windchill:Wind:
Aussen-T/F 1651 13-05-2010 18:17:02 9 C 7.05 g/m*3 9 C 0 km/h
1652 13-05-2010 18:29:02 8.9 C 7.1 g/m*3 8.9 C 0 km/h
1653 13-05-2010 18:41:02 8.7 C 7.01 g/m*3 8.7 C 0 km/h
1654 13-05-2010 18:53:02 7.9 C 6.74 g/m*3 7.9 C 0 km/h
1655 13-05-2010 19:05:02 7.7 C 6.81 g/m*3 7.7 C 0 km/h
1656 13-05-2010 19:17:01 7.5 C 6.8 g/m*3 7.5 C 0 km/h
1657 13-05-2010 19:29:01 7.3 C 6.72 g/m*3 7.3 C 0 km/h
1658 13-05-2010 19:41:02 7.3 C 6.79 g/m*3 7.3 C 0 km/h
1659 13-05-2010 19:53:02 7.2 C 6.75 g/m*3 7.2 C 0 km/h
1660 13-05-2010 20:05:02 7.3 C 6.87 g/m*3 7.3 C 0 km/h
1661 13-05-2010 20:17:02 7.4 C 6.92 g/m*3 7.4 C 0 km/h
1662 13-05-2010 20:29:02 7.4 C 7 g/m*3 7.4 C 0 km/h
1663 13-05-2010 20:41:02 7.5 C 7.04 g/m*3 7.5 C 0 km/h
1664 13-05-2010 20:53:01 7.6 C 7.09 g/m*3 7.6 C 0 km/h
1665 13-05-2010 21:05:02 7.5 C 7.12 g/m*3 7.5 C 0 km/h
1666 13-05-2010 21:17:01 7.5 C 7.12 g/m*3 7.5 C 0 km/h
1667 13-05-2010 21:29:01 7.4 C 7.08 g/m*3 7.4 C 0 km/h
1668 13-05-2010 21:41:01 7.4 C 7.08 g/m*3 7.4 C 0 km/h
1669 13-05-2010 21:53:01 7.4 C 7.16 g/m*3 7.4 C 0 km/h
1670 13-05-2010 22:05:02 7.4 C 7.16 g/m*3 7.4 C 0 km/h
1671 13-05-2010 22:17:01 7.4 C 7.16 g/m*3 7.4 C 0 km/h
1672 13-05-2010 22:29:01 7.3 C 7.11 g/m*3 7.3 C 0 km/h
1673 13-05-2010 22:41:02 7.2 C 7.06 g/m*3 7.2 C 0 km/h
1674 13-05-2010 22:54:02 7.2 C 7.06 g/m*3 7.2 C 0 km/h
1675 13-05-2010 23:06:02 7.2 C 7.06 g/m*3 7.2 C 0 km/h
Sensor: Nr:Datum:Temp:Abs-Feuchte:Windchill:Wind:
Aussen-T/F 1676 13-05-2010 23:18:03 7.3 C 7.11 g/m*3 7.3 C 0 km/h
1677 13-05-2010 23:30:03 7.3 C 7.19 g/m*3 7.3 C 0 km/h
1678 13-05-2010 23:42:03 7.2 C 7.14 g/m*3 7.2 C 0 km/h
1679 13-05-2010 23:54:03 7.2 C 7.14 g/m*3 7.2 C 0 km/h
1680 14-05-2010 00:06:03 7 C 7.05 g/m*3 7 C 0 km/h
1681 14-05-2010 00:18:03 6.9 C 7.16 g/m*3 6.9 C 0 km/h
1682 14-05-2010 00:30:03 6.9 C 7.16 g/m*3 6.9 C 0 km/h
1683 14-05-2010 00:42:03 7 C 7.21 g/m*3 7 C 0 km/h
1684 14-05-2010 00:54:03 7 C 7.21 g/m*3 7 C 0 km/h
1685 14-05-2010 01:06:03 6.9 C 7.24 g/m*3 6.9 C 0 km/h
1686 14-05-2010 01:18:03 7 C 7.21 g/m*3 7 C 0 km/h
1687 14-05-2010 01:30:03 7.1 C 7.25 g/m*3 7.1 C 0 km/h
1688 14-05-2010 01:42:03 7.1 C 7.25 g/m*3 7.1 C 0 km/h
1689 14-05-2010 01:54:03 7.1 C 7.25 g/m*3 7.1 C 0 km/h
1690 14-05-2010 02:06:03 7.1 C 7.25 g/m*3 7.1 C 0 km/h
1691 14-05-2010 02:18:03 7 C 7.21 g/m*3 7 C 0 km/h
1692 14-05-2010 02:30:03 6.9 C 7.24 g/m*3 6.9 C 0 km/h
1693 14-05-2010 02:42:03 7 C 7.21 g/m*3 7 C 0 km/h
1694 14-05-2010 02:54:03 7 C 7.28 g/m*3 7 C 0 km/h
1695 14-05-2010 03:06:03 7 C 7.28 g/m*3 7 C 0 km/h
1696 14-05-2010 03:18:03 6.9 C 7.24 g/m*3 6.9 C 0 km/h
1697 14-05-2010 03:30:04 7 C 7.28 g/m*3 7 C 0 km/h
1698 14-05-2010 03:42:04 7 C 7.28 g/m*3 7 C 0 km/h
1699 14-05-2010 03:54:04 7 C 7.28 g/m*3 7 C 0 km/h
1700 14-05-2010 04:06:04 7 C 7.28 g/m*3 7 C 0 km/h
Sensor: Nr:Datum:Temp:Abs-Feuchte:Windchill:Wind:
Aussen-T/F 1701 14-05-2010 04:18:04 7 C 7.28 g/m*3 7 C 0 km/h
1702 14-05-2010 04:30:04 6.9 C 7.24 g/m*3 6.9 C 0 km/h
1703 14-05-2010 04:42:04 6.9 C 7.24 g/m*3 6.9 C 0 km/h
1704 14-05-2010 04:54:04 6.9 C 7.24 g/m*3 6.9 C 0 km/h
1705 14-05-2010 05:06:04 6.8 C 7.19 g/m*3 6.8 C 0 km/h
1706 14-05-2010 05:18:04 6.9 C 7.24 g/m*3 6.9 C 0 km/h
1707 14-05-2010 05:30:04 6.8 C 7.27 g/m*3 6.8 C 0 km/h
1708 14-05-2010 05:42:04 6.9 C 7.31 g/m*3 6.9 C 0 km/h
1709 14-05-2010 05:54:04 7 C 7.28 g/m*3 7 C 0 km/h
1710 14-05-2010 06:06:04 7.1 C 7.33 g/m*3 7.1 C 0 km/h
1711 14-05-2010 06:18:04 7.1 C 7.33 g/m*3 7.1 C 0 km/h
1712 14-05-2010 06:30:04 7 C 7.28 g/m*3 7 C 0 km/h
1713 14-05-2010 06:42:04 7.1 C 7.33 g/m*3 7.1 C 0 km/h
1714 14-05-2010 06:54:04 7.2 C 7.38 g/m*3 7.2 C 0 km/h
1715 14-05-2010 07:06:02 7.2 C 7.3 g/m*3 7.2 C 0 km/h
1716 14-05-2010 07:18:02 7.3 C 7.35 g/m*3 7.3 C 0 km/h
1717 14-05-2010 07:30:02 7.5 C 7.44 g/m*3 7.5 C 0 km/h
1718 14-05-2010 07:42:02 7.5 C 7.44 g/m*3 7.5 C 0 km/h
1719 14-05-2010 07:54:01 7.5 C 7.36 g/m*3 7.5 C 0 km/h
1720 14-05-2010 08:06:02 7.7 C 7.38 g/m*3 7.7 C 0 km/h
1721 14-05-2010 08:18:01 7.9 C 7.47 g/m*3 7.9 C 0 km/h
1722 14-05-2010 08:30:01 8.1 C 7.41 g/m*3 8.1 C 0 km/h
1723 14-05-2010 08:42:02 7.9 C 7.31 g/m*3 7.9 C 0 km/h
1724 14-05-2010 08:54:02 8 C 7.19 g/m*3 8 C 0 km/h
1725 14-05-2010 09:06:02 8 C 7.19 g/m*3 8 C 0 km/h
Sensor: Nr:Datum:Temp:Abs-Feuchte:Windchill:Wind:
Aussen-T/F 1726 14-05-2010 09:18:01 7.9 C 7.15 g/m*3 7.9 C 0 km/h
1727 14-05-2010 09:30:01 8 C 7.03 g/m*3 8 C 0 km/h
1728 14-05-2010 09:42:02 8.6 C 7.39 g/m*3 8.6 C 0 km/h
1729 14-05-2010 09:54:02 8.4 C 7.13 g/m*3 8.4 C 0 km/h
1730 14-05-2010 10:06:02 8.7 C 7.18 g/m*3 8.7 C 0 km/h
1731 14-05-2010 10:18:02 9.4 C 7.33 g/m*3 9.4 C 0 km/h
1732 14-05-2010 10:30:02 9.5 C 7.01 g/m*3 9.5 C 0 km/h
1733 14-05-2010 10:42:02 10 C 7.24 g/m*3 10 C 0 km/h
1734 14-05-2010 10:54:01 10.3 C 7.18 g/m*3 10.3 C 0 km/h
1735 14-05-2010 11:06:02 11 C 7.31 g/m*3 11 C 0 km/h
1736 14-05-2010 11:18:02 10.5 C 6.6 g/m*3 10.5 C 0 km/h
1737 14-05-2010 11:30:02 10.1 C 6.34 g/m*3 10.1 C 0 km/h
1738 14-05-2010 11:42:02 10.4 C 6.75 g/m*3 10.4 C 0 km/h
1739 14-05-2010 11:54:02 9.9 C 6.82 g/m*3 9.9 C 0 km/h
1740 14-05-2010 12:06:01 9.1 C 6.39 g/m*3 9.1 C 0 km/h
1741 14-05-2010 12:18:02 9 C 6.44 g/m*3 9 C 0 km/h
1742 14-05-2010 12:30:02 9.3 C 7.1 g/m*3 9.3 C 0 km/h
1743 14-05-2010 12:42:01 9.3 C 7.28 g/m*3 9.3 C 0 km/h
1744 14-05-2010 12:54:02 9.1 C 7.28 g/m*3 9.1 C 0 km/h
1745 14-05-2010 13:06:01 9.3 C 7.46 g/m*3 9.3 C 0 km/h
1746 14-05-2010 13:18:01 9.5 C 7.65 g/m*3 9.5 C 0 km/h
1747 14-05-2010 13:30:01 9.6 C 7.69 g/m*3 9.6 C 0 km/h
1748 14-05-2010 13:42:02 9.7 C 7.74 g/m*3 9.7 C 0 km/h
1749 14-05-2010 13:54:02 9.2 C 7.41 g/m*3 9.2 C 0 km/h
1750 14-05-2010 14:06:01 9 C 7.41 g/m*3 9 C 0 km/h
Sensor: Nr:Datum:Temp:Abs-Feuchte:Windchill:Wind:
Aussen-T/F 1751 14-05-2010 14:18:02 9.2 C 7.59 g/m*3 9.2 C 0 km/h
1752 14-05-2010 14:30:02 9.5 C 7.74 g/m*3 9.5 C 0 km/h
1753 14-05-2010 14:42:02 9.7 C 7.84 g/m*3 9.7 C 0 km/h
1754 14-05-2010 14:54:02 10.5 C 8.15 g/m*3 10.5 C 0 km/h
1755 14-05-2010 15:06:02 11.2 C 8.21 g/m*3 11.2 C 0 km/h
1756 14-05-2010 15:18:01 11.7 C 7.95 g/m*3 11.7 C 0 km/h
1757 14-05-2010 15:30:01 12 C 7.67 g/m*3 12 C 0 km/h
1758 14-05-2010 15:42:02 12.2 C 7.23 g/m*3 12.2 C 0 km/h
1759 14-05-2010 15:54:02 12.2 C 6.91 g/m*3 12.2 C 0 km/h
1760 14-05-2010 16:06:02 12.6 C 6.97 g/m*3 12.6 C 0 km/h
1761 14-05-2010 16:18:01 12.8 C 7.06 g/m*3 12.8 C 0 km/h
1762 14-05-2010 16:30:01 13.3 C 6.93 g/m*3 13.3 C 0 km/h
1763 14-05-2010 16:42:02 13.4 C 6.63 g/m*3 13.4 C 0 km/h
1764 14-05-2010 16:54:02 12.8 C 6.27 g/m*3 12.8 C 0 km/h
1765 14-05-2010 17:06:02 12.2 C 6.37 g/m*3 12.2 C 0 km/h
1766 14-05-2010 17:18:02 11.9 C 6.25 g/m*3 11.9 C 0 km/h
1767 14-05-2010 17:30:02 11.4 C 6.77 g/m*3 11.4 C 0 km/h
1768 14-05-2010 17:42:02 11 C 6.81 g/m*3 11 C 0 km/h
1769 14-05-2010 17:54:02 11.2 C 6.79 g/m*3 11.2 C 0 km/h
1770 14-05-2010 18:06:02 11.5 C 6.71 g/m*3 11.5 C 0 km/h
1771 14-05-2010 18:18:03 11.8 C 6.74 g/m*3 11.8 C 0 km/h
1772 14-05-2010 18:30:03 12 C 6.82 g/m*3 12 C 0 km/h
1773 14-05-2010 18:42:02 11.5 C 6.71 g/m*3 11.5 C 0 km/h
1774 14-05-2010 18:54:02 11 C 6.81 g/m*3 11 C 0 km/h
1775 14-05-2010 19:06:02 10.5 C 6.89 g/m*3 10.5 C 0 km/h
Sensor: Nr:Datum:Temp:Abs-Feuchte:Windchill:Wind:
Aussen-T/F 1776 14-05-2010 19:18:03 10.3 C 6.99 g/m*3 10.3 C 0 km/h
1777 14-05-2010 19:30:03 10.4 C 7.13 g/m*3 10.4 C 0 km/h
1778 14-05-2010 19:42:02 10.5 C 6.98 g/m*3 10.5 C 0 km/h
1779 14-05-2010 19:54:02 10.6 C 7.03 g/m*3 10.6 C 0 km/h
1780 14-05-2010 20:06:02 10.5 C 7.08 g/m*3 10.5 C 0 km/h
1781 14-05-2010 20:18:02 10.2 C 6.95 g/m*3 10.2 C 0 km/h
1782 14-05-2010 20:30:02 9.9 C 6.91 g/m*3 9.9 C 0 km/h
1783 14-05-2010 20:42:02 9.6 C 6.78 g/m*3 9.6 C 0 km/h
1784 14-05-2010 20:54:02 9.5 C 6.92 g/m*3 9.5 C 0 km/h
1785 14-05-2010 21:06:02 9.3 C 6.83 g/m*3 9.3 C 0 km/h
1786 14-05-2010 21:18:02 9.2 C 6.88 g/m*3 9.2 C 0 km/h
1787 14-05-2010 21:30:02 9.1 C 6.83 g/m*3 9.1 C 0 km/h
1788 14-05-2010 21:42:02 9.1 C 6.92 g/m*3 9.1 C 0 km/h
1789 14-05-2010 21:54:02 9 C 6.88 g/m*3 9 C 0 km/h
1790 14-05-2010 22:06:02 9.1 C 7.01 g/m*3 9.1 C 0 km/h
1791 14-05-2010 22:18:02 9.1 C 7.01 g/m*3 9.1 C 0 km/h
1792 14-05-2010 22:30:02 9.1 C 7.1 g/m*3 9.1 C 0 km/h
1793 14-05-2010 22:42:02 9.1 C 7.1 g/m*3 9.1 C 0 km/h
1794 14-05-2010 22:55:03 9 C 7.14 g/m*3 9 C 0 km/h
1795 14-05-2010 23:07:03 8.6 C 7.13 g/m*3 8.6 C 0 km/h
1796 14-05-2010 23:19:03 8.2 C 7.12 g/m*3 8.2 C 0 km/h
1797 14-05-2010 23:31:03 8.2 C 7.2 g/m*3 8.2 C 0 km/h
1798 14-05-2010 23:43:03 8.1 C 7.16 g/m*3 8.1 C 0 km/h
1799 14-05-2010 23:55:03 8.1 C 7.24 g/m*3 8.1 C 0 km/h
1800 15-05-2010 00:07:03 8 C 7.19 g/m*3 8 C 0 km/h
Sensor: Nr:Datum:Temp:Abs-Feuchte:Windchill:Wind:
Aussen-T/F 1801 15-05-2010 00:19:03 8 C 7.19 g/m*3 8 C 0 km/h
1802 15-05-2010 00:31:04 7.9 C 7.23 g/m*3 7.9 C 0 km/h
1803 15-05-2010 00:43:04 7.8 C 7.18 g/m*3 7.8 C 0 km/h
1804 15-05-2010 00:55:04 7.8 C 7.18 g/m*3 7.8 C 0 km/h
1805 15-05-2010 01:07:04 7.9 C 7.23 g/m*3 7.9 C 0 km/h
1806 15-05-2010 01:19:04 7.8 C 7.18 g/m*3 7.8 C 0 km/h
1807 15-05-2010 01:31:04 7.6 C 7.09 g/m*3 7.6 C 0 km/h
1808 15-05-2010 01:43:04 7.6 C 7.09 g/m*3 7.6 C 0 km/h
1809 15-05-2010 01:55:04 7.6 C 7.09 g/m*3 7.6 C 0 km/h
1810 15-05-2010 02:07:04 7.5 C 7.04 g/m*3 7.5 C 0 km/h
1811 15-05-2010 02:19:04 7.5 C 7.12 g/m*3 7.5 C 0 km/h
1812 15-05-2010 02:31:04 7.6 C 7.17 g/m*3 7.6 C 0 km/h
1813 15-05-2010 02:43:04 7.8 C 7.26 g/m*3 7.8 C 0 km/h
1814 15-05-2010 02:55:04 7.8 C 7.26 g/m*3 7.8 C 0 km/h
1815 15-05-2010 03:07:04 7.6 C 7.17 g/m*3 7.6 C 0 km/h
1816 15-05-2010 03:19:04 7.6 C 7.17 g/m*3 7.6 C 0 km/h
1817 15-05-2010 03:31:04 7.6 C 7.25 g/m*3 7.6 C 0 km/h
1818 15-05-2010 03:43:04 7.6 C 7.25 g/m*3 7.6 C 0 km/h
1819 15-05-2010 03:55:04 7.6 C 7.25 g/m*3 7.6 C 0 km/h
1820 15-05-2010 04:07:04 7.6 C 7.25 g/m*3 7.6 C 0 km/h
1821 15-05-2010 04:19:04 7.7 C 7.3 g/m*3 7.7 C 0 km/h
1822 15-05-2010 04:31:04 7.6 C 7.25 g/m*3 7.6 C 0 km/h
1823 15-05-2010 04:43:05 7.6 C 7.25 g/m*3 7.6 C 0 km/h
1824 15-05-2010 04:55:05 7.5 C 7.2 g/m*3 7.5 C 0 km/h
1825 15-05-2010 05:07:05 7.4 C 7.24 g/m*3 7.4 C 0 km/h
Sensor: Nr:Datum:Temp:Abs-Feuchte:Windchill:Wind:
Aussen-T/F 1826 15-05-2010 05:19:05 7.3 C 7.19 g/m*3 7.3 C 0 km/h
1827 15-05-2010 05:31:05 7.3 C 7.19 g/m*3 7.3 C 0 km/h
1828 15-05-2010 05:43:05 7.2 C 7.14 g/m*3 7.2 C 0 km/h
1829 15-05-2010 05:55:05 7.1 C 7.1 g/m*3 7.1 C 0 km/h
1830 15-05-2010 06:07:05 7.1 C 7.1 g/m*3 7.1 C 0 km/h
1831 15-05-2010 06:19:05 7.1 C 7.1 g/m*3 7.1 C 0 km/h
1832 15-05-2010 06:31:05 7.1 C 7.18 g/m*3 7.1 C 0 km/h
1833 15-05-2010 06:43:05 7.1 C 7.18 g/m*3 7.1 C 0 km/h
1834 15-05-2010 06:55:05 7.1 C 7.18 g/m*3 7.1 C 0 km/h
1835 15-05-2010 07:07:05 7.1 C 7.18 g/m*3 7.1 C 0 km/h
1836 15-05-2010 07:19:05 7.4 C 7.32 g/m*3 7.4 C 0 km/h
1837 15-05-2010 07:31:05 7.5 C 7.36 g/m*3 7.5 C 0 km/h
1838 15-05-2010 07:43:05 7.8 C 7.51 g/m*3 7.8 C 0 km/h
1839 15-05-2010 07:55:02 8.2 C 7.62 g/m*3 8.2 C 0 km/h
1840 15-05-2010 08:07:02 8.3 C 7.59 g/m*3 8.3 C 0 km/h
1841 15-05-2010 08:19:02 8.2 C 7.29 g/m*3 8.2 C 0 km/h
1842 15-05-2010 08:31:03 8.6 C 7.39 g/m*3 8.6 C 0 km/h
1843 15-05-2010 08:43:03 8.5 C 7 g/m*3 8.5 C 0 km/h
1844 15-05-2010 08:55:02 8.8 C 7.05 g/m*3 8.8 C 0 km/h
1845 15-05-2010 09:07:02 9 C 6.88 g/m*3 9 C 0 km/h
1846 15-05-2010 09:19:02 9.3 C 6.92 g/m*3 9.3 C 0 km/h
1847 15-05-2010 09:31:02 9.5 C 6.83 g/m*3 9.5 C 0 km/h
1848 15-05-2010 09:43:02 9.6 C 6.78 g/m*3 9.6 C 0 km/h
1849 15-05-2010 09:55:01 10 C 6.67 g/m*3 10 C 0 km/h
1850 15-05-2010 10:07:02 10.5 C 6.6 g/m*3 10.5 C 0 km/h
Sensor: Nr:Datum:Temp:Abs-Feuchte:Windchill:Wind:
Aussen-T/F 1851 15-05-2010 10:19:01 10.7 C 6.48 g/m*3 10.7 C 0 km/h
1852 15-05-2010 10:31:02 10.6 C 6.34 g/m*3 10.6 C 0 km/h
1853 15-05-2010 10:43:02 11.1 C 6.35 g/m*3 11.1 C 0 km/h
1854 15-05-2010 10:55:02 11.1 C 6.35 g/m*3 11.1 C 0 km/h
1855 15-05-2010 11:07:02 10.9 C 6.27 g/m*3 10.9 C 0 km/h
1856 15-05-2010 11:19:01 10.8 C 6.23 g/m*3 10.8 C 0 km/h
1857 15-05-2010 11:31:02 10.9 C 6.17 g/m*3 10.9 C 0 km/h
1858 15-05-2010 11:43:02 11.5 C 5.89 g/m*3 11.5 C 0 km/h
1859 15-05-2010 11:55:02 11.9 C 6.04 g/m*3 11.9 C 0 km/h
1860 15-05-2010 12:07:02 11.2 C 5.68 g/m*3 11.2 C 0 km/h
1861 15-05-2010 12:19:02 11.1 C 5.64 g/m*3 11.1 C 0 km/h
1862 15-05-2010 12:31:02 11.2 C 5.57 g/m*3 11.2 C 0 km/h
1863 15-05-2010 12:43:02 12.4 C 5.46 g/m*3 12.4 C 0 km/h
1864 15-05-2010 12:55:02 12.3 C 4.78 g/m*3 12.3 C 0 km/h
1865 15-05-2010 13:07:02 13.9 C 5.04 g/m*3 13.9 C 0 km/h
1866 15-05-2010 13:19:03 12 C 4.58 g/m*3 12 C 0 km/h
1867 15-05-2010 13:31:02 11.1 C 5.14 g/m*3 11.1 C 0 km/h
1868 15-05-2010 13:43:02 11.2 C 4.87 g/m*3 11.2 C 0 km/h
1869 15-05-2010 13:55:02 12.1 C 4.5 g/m*3 12.1 C 0 km/h
1870 15-05-2010 14:07:02 13.7 C 4.5 g/m*3 13.7 C 0 km/h
1871 15-05-2010 14:19:02 15 C 4.62 g/m*3 15 C 0 km/h
1872 15-05-2010 14:31:02 14.7 C 4.15 g/m*3 14.7 C 0 km/h
1873 15-05-2010 14:43:02 14 C 3.98 g/m*3 14 C 0 km/h
1874 15-05-2010 14:55:01 13.9 C 3.72 g/m*3 13.9 C 0 km/h
1875 15-05-2010 15:07:01 14.3 C 3.56 g/m*3 14.3 C 0 km/h
Sensor: Nr:Datum:Temp:Abs-Feuchte:Windchill:Wind:
Aussen-T/F 1876 15-05-2010 15:19:01 15.2 C 3.24 g/m*3 15.2 C 0 km/h
1877 15-05-2010 15:31:01 15.8 C 2.69 g/m*3 15.8 C 0 km/h
1878 15-05-2010 15:43:01 16 C 2.72 g/m*3 16 C 0 km/h
1879 15-05-2010 15:55:01 16.2 C 2.76 g/m*3 16.2 C 0 km/h
1880 15-05-2010 16:07:02 16.2 C 2.76 g/m*3 16.2 C 0 km/h
1881 15-05-2010 16:19:01 15.1 C 2.58 g/m*3 15.1 C 0 km/h
1882 15-05-2010 16:31:01 14.4 C 2.47 g/m*3 14.4 C 0 km/h
1883 15-05-2010 16:43:01 14.4 C 2.97 g/m*3 14.4 C 0 km/h
1884 15-05-2010 16:55:01 13.8 C 2.98 g/m*3 13.8 C 0 km/h
1885 15-05-2010 17:07:02 13.9 C 3.12 g/m*3 13.9 C 0 km/h
1886 15-05-2010 17:19:01 14 C 3.02 g/m*3 14 C 0 km/h
1887 15-05-2010 17:31:02 14.1 C 3.16 g/m*3 14.1 C 0 km/h
1888 15-05-2010 17:43:02 14 C 3.26 g/m*3 14 C 0 km/h
1889 15-05-2010 17:55:02 14 C 3.26 g/m*3 14 C 0 km/h
1890 15-05-2010 18:07:02 13.7 C 3.43 g/m*3 13.7 C 0 km/h
1891 15-05-2010 18:19:01 14 C 3.62 g/m*3 14 C 0 km/h
1892 15-05-2010 18:31:02 13.8 C 3.46 g/m*3 13.8 C 0 km/h
1893 15-05-2010 18:43:02 13.7 C 3.43 g/m*3 13.7 C 0 km/h
1894 15-05-2010 18:55:02 13.9 C 3.36 g/m*3 13.9 C 0 km/h
1895 15-05-2010 19:07:02 13.9 C 3.24 g/m*3 13.9 C 0 km/h
1896 15-05-2010 19:19:02 14.6 C 3.5 g/m*3 14.6 C 0 km/h
1897 15-05-2010 19:31:02 15.1 C 3.23 g/m*3 15.1 C 0 km/h
1898 15-05-2010 19:43:02 14.9 C 3.44 g/m*3 14.9 C 0 km/h
1899 15-05-2010 19:55:02 14.4 C 3.58 g/m*3 14.4 C 0 km/h
1900 15-05-2010 20:07:02 13.9 C 4.2 g/m*3 13.9 C 0 km/h
Sensor: Nr:Datum:Temp:Abs-Feuchte:Windchill:Wind:
Aussen-T/F 1901 15-05-2010 20:19:02 13.3 C 4.62 g/m*3 13.3 C 0 km/h
1902 15-05-2010 20:31:02 12.4 C 4.48 g/m*3 12.4 C 0 km/h
1903 15-05-2010 20:43:02 11.6 C 4.47 g/m*3 11.6 C 0 km/h
1904 15-05-2010 20:55:02 11.3 C 4.59 g/m*3 11.3 C 0 km/h
1905 15-05-2010 21:07:02 11.4 C 4.62 g/m*3 11.4 C 0 km/h
1906 15-05-2010 21:19:02 11.1 C 4.53 g/m*3 11.1 C 0 km/h
1907 15-05-2010 21:31:02 10.8 C 4.55 g/m*3 10.8 C 0 km/h
1908 15-05-2010 21:43:02 10.8 C 4.84 g/m*3 10.8 C 0 km/h
1909 15-05-2010 21:55:01 10.8 C 4.84 g/m*3 10.8 C 0 km/h
1910 15-05-2010 22:07:02 10.8 C 4.94 g/m*3 10.8 C 0 km/h
1911 15-05-2010 22:19:02 11 C 5 g/m*3 11 C 0 km/h
1912 15-05-2010 22:32:02 11.1 C 4.83 g/m*3 11.1 C 0 km/h
1913 15-05-2010 22:44:03 11.2 C 4.66 g/m*3 11.2 C 0 km/h
1914 15-05-2010 22:56:03 11.2 C 4.66 g/m*3 11.2 C 0 km/h
1915 15-05-2010 23:08:03 11.1 C 4.73 g/m*3 11.1 C 0 km/h
1916 15-05-2010 23:20:03 10.9 C 4.97 g/m*3 10.9 C 0 km/h
1917 15-05-2010 23:32:03 10.9 C 5.07 g/m*3 10.9 C 0 km/h
1918 15-05-2010 23:44:03 10.8 C 5.04 g/m*3 10.8 C 0 km/h
1919 15-05-2010 23:56:03 10.5 C 5.04 g/m*3 10.5 C 0 km/h
1920 16-05-2010 00:08:03 10.2 C 5.04 g/m*3 10.2 C 0 km/h
1921 16-05-2010 00:20:03 10.1 C 5.3 g/m*3 10.1 C 0 km/h
1922 16-05-2010 00:32:03 10.1 C 5.39 g/m*3 10.1 C 0 km/h
1923 16-05-2010 00:44:03 10 C 5.45 g/m*3 10 C 0 km/h
1924 16-05-2010 00:56:03 10.1 C 5.48 g/m*3 10.1 C 0 km/h
1925 16-05-2010 01:08:03 10 C 5.54 g/m*3 10 C 0 km/h
Sensor: Nr:Datum:Temp:Abs-Feuchte:Windchill:Wind:
Aussen-T/F 1926 16-05-2010 01:20:03 9.7 C 5.62 g/m*3 9.7 C 0 km/h
1927 16-05-2010 01:32:03 9.3 C 5.66 g/m*3 9.3 C 0 km/h
1928 16-05-2010 01:44:03 9 C 5.64 g/m*3 9 C 0 km/h
1929 16-05-2010 01:56:03 8.7 C 5.88 g/m*3 8.7 C 0 km/h
1930 16-05-2010 02:08:03 8.4 C 5.85 g/m*3 8.4 C 0 km/h
1931 16-05-2010 02:20:03 8.2 C 5.86 g/m*3 8.2 C 0 km/h
1932 16-05-2010 02:32:03 8 C 5.87 g/m*3 8 C 0 km/h
1933 16-05-2010 02:44:04 7.8 C 5.96 g/m*3 7.8 C 0 km/h
1934 16-05-2010 02:56:04 7.8 C 5.88 g/m*3 7.8 C 0 km/h
1935 16-05-2010 03:08:04 7.6 C 5.88 g/m*3 7.6 C 0 km/h
1936 16-05-2010 03:20:04 7.4 C 5.88 g/m*3 7.4 C 0 km/h
1937 16-05-2010 03:32:04 7.4 C 5.88 g/m*3 7.4 C 0 km/h
1938 16-05-2010 03:44:04 7.5 C 5.92 g/m*3 7.5 C 0 km/h
1939 16-05-2010 03:56:04 7.5 C 5.92 g/m*3 7.5 C 0 km/h
1940 16-05-2010 04:08:04 7.6 C 5.96 g/m*3 7.6 C 0 km/h
1941 16-05-2010 04:20:04 7.6 C 5.88 g/m*3 7.6 C 0 km/h
1942 16-05-2010 04:32:04 7.6 C 5.96 g/m*3 7.6 C 0 km/h
1943 16-05-2010 04:44:04 7.6 C 5.96 g/m*3 7.6 C 0 km/h
1944 16-05-2010 04:56:04 7.6 C 5.96 g/m*3 7.6 C 0 km/h
1945 16-05-2010 05:08:04 7.6 C 5.96 g/m*3 7.6 C 0 km/h
1946 16-05-2010 05:20:04 7.5 C 5.92 g/m*3 7.5 C 0 km/h
1947 16-05-2010 05:32:04 7.2 C 5.89 g/m*3 7.2 C 0 km/h
1948 16-05-2010 05:44:04 7 C 5.89 g/m*3 7 C 0 km/h
1949 16-05-2010 05:56:04 7.2 C 5.97 g/m*3 7.2 C 0 km/h
1950 16-05-2010 06:08:04 7.4 C 6.04 g/m*3 7.4 C 0 km/h
Sensor: Nr:Datum:Temp:Abs-Feuchte:Windchill:Wind:
Aussen-T/F 1951 16-05-2010 06:20:04 7.4 C 5.96 g/m*3 7.4 C 0 km/h
1952 16-05-2010 06:32:04 7.4 C 5.96 g/m*3 7.4 C 0 km/h
1953 16-05-2010 06:44:04 7.4 C 5.96 g/m*3 7.4 C 0 km/h
1954 16-05-2010 06:56:05 7.5 C 6 g/m*3 7.5 C 0 km/h
1955 16-05-2010 07:08:05 7.7 C 6.08 g/m*3 7.7 C 0 km/h
1956 16-05-2010 07:20:05 7.8 C 6.04 g/m*3 7.8 C 0 km/h
1957 16-05-2010 07:32:05 7.9 C 6.08 g/m*3 7.9 C 0 km/h
1958 16-05-2010 07:44:05 7.9 C 6.08 g/m*3 7.9 C 0 km/h
1959 16-05-2010 07:56:05 7.9 C 6.08 g/m*3 7.9 C 0 km/h
1960 16-05-2010 08:08:05 8 C 6.04 g/m*3 8 C 0 km/h
1961 16-05-2010 08:20:05 8.2 C 6.2 g/m*3 8.2 C 0 km/h
1962 16-05-2010 08:32:05 8.7 C 6.14 g/m*3 8.7 C 0 km/h
1963 16-05-2010 08:44:05 9.1 C 6.03 g/m*3 9.1 C 0 km/h
1964 16-05-2010 08:56:05 9.6 C 6.05 g/m*3 9.6 C 0 km/h
1965 16-05-2010 09:08:02 10.2 C 5.8 g/m*3 10.2 C 0 km/h
1966 16-05-2010 09:20:01 10.6 C 4.98 g/m*3 10.6 C 0 km/h
1967 16-05-2010 09:32:02 11 C 4.7 g/m*3 11 C 0 km/h
1968 16-05-2010 09:44:02 11.3 C 4.39 g/m*3 11.3 C 0 km/h
1969 16-05-2010 09:56:02 11.7 C 4.39 g/m*3 11.7 C 0 km/h
1970 16-05-2010 10:08:02 11.9 C 4.24 g/m*3 11.9 C 0 km/h
1971 16-05-2010 10:20:01 12.2 C 4.1 g/m*3 12.2 C 0 km/h
1972 16-05-2010 10:32:02 12.4 C 4.15 g/m*3 12.4 C 0 km/h
1973 16-05-2010 10:44:02 13 C 4.31 g/m*3 13 C 0 km/h
1974 16-05-2010 10:56:01 13.3 C 4.16 g/m*3 13.3 C 0 km/h
1975 16-05-2010 11:08:02 13.7 C 4.03 g/m*3 13.7 C 0 km/h
Sensor: Nr:Datum:Temp:Abs-Feuchte:Windchill:Wind:
Aussen-T/F 1976 16-05-2010 11:20:02 14.3 C 4.05 g/m*3 14.3 C 0 km/h
1977 16-05-2010 11:32:02 15.4 C 4.07 g/m*3 15.4 C 0 km/h
1978 16-05-2010 11:44:02 15.4 C 3.94 g/m*3 15.4 C 0 km/h
1979 16-05-2010 11:56:01 15.4 C 3.81 g/m*3 15.4 C 0 km/h
1980 16-05-2010 12:08:02 15.9 C 3.52 g/m*3 15.9 C 0 km/h
1981 16-05-2010 12:20:02 16.1 C 3.84 g/m*3 16.1 C 0 km/h
1982 16-05-2010 12:32:02 17.9 C 3.82 g/m*3 17.9 C 0 km/h
1983 16-05-2010 12:44:02 17.2 C 3.37 g/m*3 17.2 C 0 km/h
1984 16-05-2010 12:56:01 16.1 C 3.43 g/m*3 16.1 C 0 km/h
1985 16-05-2010 13:08:02 18.3 C 3.6 g/m*3 18.3 C 0 km/h
1986 16-05-2010 13:20:02 17.3 C 3.39 g/m*3 17.3 C 0 km/h
1987 16-05-2010 13:32:01 17.4 C 3.41 g/m*3 17.4 C 0 km/h
1988 16-05-2010 13:44:01 18 C 3.69 g/m*3 18 C 0 km/h
1989 16-05-2010 13:56:02 17.3 C 3.54 g/m*3 17.3 C 0 km/h
1990 16-05-2010 14:08:01 16.7 C 3.55 g/m*3 16.7 C 0 km/h
1991 16-05-2010 14:20:02 18.4 C 3.93 g/m*3 18.4 C 0 km/h
1992 16-05-2010 14:32:02 18.4 C 3.3 g/m*3 18.4 C 0 km/h
1993 16-05-2010 14:44:02 17.9 C 3.51 g/m*3 17.9 C 0 km/h
1994 16-05-2010 14:56:02 18.2 C 3.42 g/m*3 18.2 C 0 km/h
1995 16-05-2010 15:08:02 19 C 3.26 g/m*3 19 C 0 km/h
1996 16-05-2010 15:20:02 19.3 C 3.32 g/m*3 19.3 C 0 km/h
1997 16-05-2010 15:32:02 19.8 C 3.42 g/m*3 19.8 C 0 km/h
1998 16-05-2010 15:44:02 19.1 C 3.28 g/m*3 19.1 C 0 km/h
1999 16-05-2010 15:56:02 20.3 C 3.52 g/m*3 20.3 C 0 km/h
2000 16-05-2010 16:08:02 21 C 3.66 g/m*3 21 C 0 km/h
Sensor: Nr:Datum:Temp:Abs-Feuchte:Windchill:Wind:
Aussen-T/F 2001 16-05-2010 16:20:01 20.1 C 3.48 g/m*3 20.1 C 0 km/h
2002 16-05-2010 16:32:02 20.4 C 3.54 g/m*3 20.4 C 0 km/h
2003 16-05-2010 16:44:02 20 C 3.46 g/m*3 20 C 0 km/h
2004 16-05-2010 16:56:02 21.2 C 3.71 g/m*3 21.2 C 0 km/h
2005 16-05-2010 17:08:02 21.7 C 3.82 g/m*3 21.7 C 0 km/h
2006 16-05-2010 17:20:02 21.1 C 3.69 g/m*3 21.1 C 0 km/h
2007 16-05-2010 17:32:02 21.5 C 3.77 g/m*3 21.5 C 0 km/h
2008 16-05-2010 17:44:02 21.4 C 3.75 g/m*3 21.4 C 0 km/h
2009 16-05-2010 17:56:02 20.8 C 3.62 g/m*3 20.8 C 0 km/h
2010 16-05-2010 18:08:02 20.8 C 3.62 g/m*3 20.8 C 0 km/h
2011 16-05-2010 18:20:02 20 C 3.46 g/m*3 20 C 0 km/h
2012 16-05-2010 18:32:02 19.5 C 3.52 g/m*3 19.5 C 0 km/h
2013 16-05-2010 18:44:02 18.9 C 3.56 g/m*3 18.9 C 0 km/h
2014 16-05-2010 18:56:02 19.9 C 3.44 g/m*3 19.9 C 0 km/h
2015 16-05-2010 19:08:02 19.7 C 3.57 g/m*3 19.7 C 0 km/h
2016 16-05-2010 19:20:03 19.5 C 3.52 g/m*3 19.5 C 0 km/h
2017 16-05-2010 19:32:02 18.6 C 3.5 g/m*3 18.6 C 0 km/h
2018 16-05-2010 19:44:02 18.2 C 3.89 g/m*3 18.2 C 0 km/h
2019 16-05-2010 19:56:02 18.3 C 3.91 g/m*3 18.3 C 0 km/h
2020 16-05-2010 20:08:02 19.3 C 4.15 g/m*3 19.3 C 0 km/h
2021 16-05-2010 20:20:02 19.3 C 4.48 g/m*3 19.3 C 0 km/h
2022 16-05-2010 20:32:02 18.2 C 4.51 g/m*3 18.2 C 0 km/h
2023 16-05-2010 20:44:02 17 C 4.63 g/m*3 17 C 0 km/h
2024 16-05-2010 20:56:02 16 C 4.5 g/m*3 16 C 0 km/h
2025 16-05-2010 21:08:02 15.1 C 4.52 g/m*3 15.1 C 0 km/h
Sensor: Nr:Datum:Temp:Abs-Feuchte:Windchill:Wind:
Aussen-T/F 2026 16-05-2010 21:20:02 14.6 C 4.63 g/m*3 14.6 C 0 km/h
2027 16-05-2010 21:32:02 14.2 C 4.76 g/m*3 14.2 C 0 km/h
2028 16-05-2010 21:44:02 13.9 C 4.92 g/m*3 13.9 C 0 km/h
2029 16-05-2010 21:56:02 13.6 C 5.18 g/m*3 13.6 C 0 km/h
2030 16-05-2010 22:08:02 13.2 C 5.05 g/m*3 13.2 C 0 km/h
2031 16-05-2010 22:20:03 12.6 C 5.31 g/m*3 12.6 C 0 km/h
2032 16-05-2010 22:33:03 12.3 C 5.32 g/m*3 12.3 C 0 km/h
2033 16-05-2010 22:45:03 11.9 C 5.4 g/m*3 11.9 C 0 km/h
2034 16-05-2010 22:57:03 11.8 C 5.58 g/m*3 11.8 C 0 km/h
2035 16-05-2010 23:09:03 11.4 C 5.65 g/m*3 11.4 C 0 km/h
2036 16-05-2010 23:21:03 11 C 5.71 g/m*3 11 C 0 km/h
2037 16-05-2010 23:33:03 10.7 C 5.8 g/m*3 10.7 C 0 km/h
2038 16-05-2010 23:45:03 10.7 C 5.89 g/m*3 10.7 C 0 km/h
2039 16-05-2010 23:57:03 10.5 C 6.01 g/m*3 10.5 C 0 km/h
2040 17-05-2010 00:09:03 10.3 C 6.03 g/m*3 10.3 C 0 km/h
2041 17-05-2010 00:21:03 10.4 C 5.98 g/m*3 10.4 C 0 km/h
2042 17-05-2010 00:33:03 10 C 5.92 g/m*3 10 C 0 km/h
2043 17-05-2010 00:45:03 10 C 5.92 g/m*3 10 C 0 km/h
2044 17-05-2010 00:57:03 9.9 C 5.98 g/m*3 9.9 C 0 km/h
2045 17-05-2010 01:09:03 9.8 C 5.85 g/m*3 9.8 C 0 km/h
2046 17-05-2010 01:21:04 9.7 C 5.99 g/m*3 9.7 C 0 km/h
2047 17-05-2010 01:33:04 9.3 C 6.02 g/m*3 9.3 C 0 km/h
2048 17-05-2010 01:45:04 9 C 5.99 g/m*3 9 C 0 km/h
2049 17-05-2010 01:57:04 9 C 6.08 g/m*3 9 C 0 km/h
2050 17-05-2010 02:09:04 8.7 C 6.14 g/m*3 8.7 C 0 km/h
Sensor: Nr:Datum:Temp:Abs-Feuchte:Windchill:Wind:
Aussen-T/F 2051 17-05-2010 02:21:04 8.6 C 6.1 g/m*3 8.6 C 0 km/h
2052 17-05-2010 02:33:04 8.6 C 6.19 g/m*3 8.6 C 0 km/h
2053 17-05-2010 02:45:04 8.5 C 6.15 g/m*3 8.5 C 0 km/h
2054 17-05-2010 02:57:04 8.4 C 6.11 g/m*3 8.4 C 0 km/h
2055 17-05-2010 03:09:04 8.1 C 6.07 g/m*3 8.1 C 0 km/h
2056 17-05-2010 03:21:04 7.8 C 6.12 g/m*3 7.8 C 0 km/h
2057 17-05-2010 03:33:04 7.6 C 6.12 g/m*3 7.6 C 0 km/h
2058 17-05-2010 03:45:04 7.4 C 6.12 g/m*3 7.4 C 0 km/h
2059 17-05-2010 03:57:04 7.3 C 6.16 g/m*3 7.3 C 0 km/h
2060 17-05-2010 04:09:04 7.2 C 6.12 g/m*3 7.2 C 0 km/h
2061 17-05-2010 04:21:04 7.1 C 6.08 g/m*3 7.1 C 0 km/h
2062 17-05-2010 04:33:04 7 C 6.04 g/m*3 7 C 0 km/h
2063 17-05-2010 04:45:04 6.8 C 6.12 g/m*3 6.8 C 0 km/h
2064 17-05-2010 04:57:04 6.7 C 6.15 g/m*3 6.7 C 0 km/h
2065 17-05-2010 05:09:04 6.5 C 6.15 g/m*3 6.5 C 0 km/h
2066 17-05-2010 05:21:04 6.3 C 6.07 g/m*3 6.3 C 0 km/h
2067 17-05-2010 05:33:04 6.2 C 6.1 g/m*3 6.2 C 0 km/h
2068 17-05-2010 05:45:05 6.1 C 6.06 g/m*3 6.1 C 0 km/h
2069 17-05-2010 05:57:05 6 C 6.02 g/m*3 6 C 0 km/h
2070 17-05-2010 06:09:05 6 C 6.1 g/m*3 6 C 0 km/h
2071 17-05-2010 06:21:05 6 C 6.02 g/m*3 6 C 0 km/h
2072 17-05-2010 06:33:03 6 C 6.02 g/m*3 6 C 0 km/h
2073 17-05-2010 06:45:02 5.9 C 6.06 g/m*3 5.9 C 0 km/h
2074 17-05-2010 06:57:02 6.1 C 6.06 g/m*3 6.1 C 0 km/h
2075 17-05-2010 07:09:01 6.3 C 6.14 g/m*3 6.3 C 0 km/h
Sensor: Nr:Datum:Temp:Abs-Feuchte:Windchill:Wind:
Aussen-T/F 2076 17-05-2010 07:21:02 6.5 C 6.15 g/m*3 6.5 C 0 km/h
2077 17-05-2010 07:33:01 7.2 C 6.2 g/m*3 7.2 C 0 km/h
2078 17-05-2010 07:45:02 7.4 C 6.2 g/m*3 7.4 C 0 km/h
2079 17-05-2010 07:57:02 8 C 6.2 g/m*3 8 C 0 km/h
2080 17-05-2010 08:09:01 8.3 C 6.24 g/m*3 8.3 C 0 km/h
2081 17-05-2010 08:21:02 8.8 C 6.35 g/m*3 8.8 C 0 km/h
2082 17-05-2010 08:33:02 9.2 C 6.25 g/m*3 9.2 C 0 km/h
2083 17-05-2010 08:45:02 10.1 C 6.24 g/m*3 10.1 C 0 km/h
2084 17-05-2010 08:57:02 10.7 C 6.29 g/m*3 10.7 C 0 km/h
2085 17-05-2010 09:09:02 11.2 C 6.28 g/m*3 11.2 C 0 km/h
2086 17-05-2010 09:21:02 11.6 C 6.44 g/m*3 11.6 C 0 km/h
2087 17-05-2010 09:33:02 12.2 C 6.47 g/m*3 12.2 C 0 km/h
2088 17-05-2010 09:45:02 12.2 C 6.47 g/m*3 12.2 C 0 km/h
2089 17-05-2010 09:57:02 12.2 C 6.47 g/m*3 12.2 C 0 km/h
2090 17-05-2010 10:09:02 13 C 6.35 g/m*3 13 C 0 km/h
2091 17-05-2010 10:21:02 13.2 C 6.2 g/m*3 13.2 C 0 km/h
2092 17-05-2010 10:33:03 13.7 C 6.39 g/m*3 13.7 C 0 km/h
2093 17-05-2010 10:45:02 14.1 C 6.55 g/m*3 14.1 C 0 km/h
2094 17-05-2010 10:57:03 14.5 C 6.47 g/m*3 14.5 C 0 km/h
2095 17-05-2010 11:09:01 14.1 C 6.55 g/m*3 14.1 C 0 km/h
2096 17-05-2010 11:21:02 13.9 C 6.83 g/m*3 13.9 C 0 km/h
2097 17-05-2010 11:33:02 13.5 C 6.67 g/m*3 13.5 C 0 km/h
2098 17-05-2010 11:45:02 13.5 C 7.13 g/m*3 13.5 C 0 km/h
2099 17-05-2010 11:57:02 13 C 7.14 g/m*3 13 C 0 km/h
2100 17-05-2010 12:09:02 13.2 C 7.23 g/m*3 13.2 C 0 km/h
Sensor: Nr:Datum:Temp:Abs-Feuchte:Windchill:Wind:
Aussen-T/F 2101 17-05-2010 12:21:02 13 C 7.48 g/m*3 13 C 0 km/h
2102 17-05-2010 12:33:02 13.2 C 7.69 g/m*3 13.2 C 0 km/h
2103 17-05-2010 12:45:01 14.2 C 7.45 g/m*3 14.2 C 0 km/h
2104 17-05-2010 12:57:01 15.8 C 7.27 g/m*3 15.8 C 0 km/h
2105 17-05-2010 13:09:02 15.4 C 6.7 g/m*3 15.4 C 0 km/h
2106 17-05-2010 13:21:01 16.9 C 6.9 g/m*3 16.9 C 0 km/h
2107 17-05-2010 13:33:01 18.1 C 6.49 g/m*3 18.1 C 0 km/h
2108 17-05-2010 13:45:01 17.7 C 6.04 g/m*3 17.7 C 0 km/h
2109 17-05-2010 13:57:01 15 C 7.05 g/m*3 15 C 0 km/h
2110 17-05-2010 14:09:02 15.6 C 7.05 g/m*3 15.6 C 0 km/h
2111 17-05-2010 14:21:01 15.5 C 7.4 g/m*3 15.5 C 0 km/h
2112 17-05-2010 14:33:01 17.1 C 6.7 g/m*3 17.1 C 0 km/h
2113 17-05-2010 14:45:01 16.5 C 6.46 g/m*3 16.5 C 0 km/h
2114 17-05-2010 14:57:01 14.7 C 7.18 g/m*3 14.7 C 0 km/h
2115 17-05-2010 15:09:02 12.6 C 8.3 g/m*3 12.6 C 0 km/h
2116 17-05-2010 15:21:02 12.6 C 9.07 g/m*3 12.6 C 0 km/h
2117 17-05-2010 15:33:01 12.9 C 9.58 g/m*3 12.9 C 0 km/h
2118 17-05-2010 15:45:02 12.7 C 9.57 g/m*3 12.7 C 0 km/h
2119 17-05-2010 15:57:02 12.5 C 9.57 g/m*3 12.5 C 0 km/h
2120 17-05-2010 16:09:01 13.3 C 10.05 g/m*3 13.3 C 0 km/h
2121 17-05-2010 16:21:02 13.8 C 9.89 g/m*3 13.8 C 0 km/h
2122 17-05-2010 16:33:01 13.7 C 9.24 g/m*3 13.7 C 0 km/h
2123 17-05-2010 16:45:02 13.1 C 8.9 g/m*3 13.1 C 0 km/h
2124 17-05-2010 16:57:02 13.3 C 9.24 g/m*3 13.3 C 0 km/h
2125 17-05-2010 17:09:01 13.8 C 9.29 g/m*3 13.8 C 0 km/h
Sensor: Nr:Datum:Temp:Abs-Feuchte:Windchill:Wind:
Aussen-T/F 2126 17-05-2010 17:21:01 14.1 C 8.98 g/m*3 14.1 C 0 km/h
2127 17-05-2010 17:33:01 13.9 C 8.99 g/m*3 13.9 C 0 km/h
2128 17-05-2010 17:45:02 13.7 C 8.64 g/m*3 13.7 C 0 km/h
2129 17-05-2010 17:57:02 13.8 C 8.7 g/m*3 13.8 C 0 km/h
2130 17-05-2010 18:09:02 13.6 C 8.47 g/m*3 13.6 C 0 km/h
2131 17-05-2010 18:21:02 14.4 C 8.9 g/m*3 14.4 C 0 km/h
2132 17-05-2010 18:33:02 11.8 C 6.63 g/m*3 11.8 C 0 km/h
2133 17-05-2010 18:45:01 10.7 C 6.88 g/m*3 10.7 C 0 km/h
2134 17-05-2010 18:57:01 10 C 7.24 g/m*3 10 C 0 km/h
2135 17-05-2010 19:09:02 9.8 C 7.7 g/m*3 9.8 C 0 km/h
2136 17-05-2010 19:21:01 10.3 C 7.85 g/m*3 10.3 C 0 km/h
2137 17-05-2010 19:33:02 10.3 C 7.95 g/m*3 10.3 C 0 km/h
2138 17-05-2010 19:45:02 9.8 C 7.7 g/m*3 9.8 C 0 km/h
2139 17-05-2010 19:57:02 10 C 7.8 g/m*3 10 C 0 km/h
2140 17-05-2010 20:09:02 9.8 C 7.89 g/m*3 9.8 C 0 km/h
2141 17-05-2010 20:21:01 9.5 C 7.83 g/m*3 9.5 C 0 km/h
2142 17-05-2010 20:33:02 9.5 C 7.92 g/m*3 9.5 C 0 km/h
2143 17-05-2010 20:45:02 9.4 C 7.87 g/m*3 9.4 C 0 km/h
2144 17-05-2010 20:57:02 9.1 C 7.81 g/m*3 9.1 C 0 km/h
2145 17-05-2010 21:09:02 9 C 7.76 g/m*3 9 C 0 km/h
2146 17-05-2010 21:21:02 9 C 7.85 g/m*3 9 C 0 km/h
2147 17-05-2010 21:33:02 9 C 7.85 g/m*3 9 C 0 km/h
2148 17-05-2010 21:45:02 8.7 C 7.78 g/m*3 8.7 C 0 km/h
2149 17-05-2010 21:57:02 8.7 C 7.87 g/m*3 8.7 C 0 km/h
2150 17-05-2010 22:09:02 8.3 C 7.67 g/m*3 8.3 C 0 km/h
Sensor: Nr:Datum:Temp:Abs-Feuchte:Windchill:Wind:
Aussen-T/F 2151 17-05-2010 22:21:02 8.6 C 7.82 g/m*3 8.6 C 0 km/h
2152 17-05-2010 22:34:03 8.7 C 7.96 g/m*3 8.7 C 0 km/h
2153 17-05-2010 22:46:03 8.5 C 7.85 g/m*3 8.5 C 0 km/h
2154 17-05-2010 22:58:03 8.4 C 7.8 g/m*3 8.4 C 0 km/h
2155 17-05-2010 23:10:04 8.1 C 7.57 g/m*3 8.1 C 0 km/h
2156 17-05-2010 23:22:04 7.8 C 7.51 g/m*3 7.8 C 0 km/h
2157 17-05-2010 23:34:04 7.8 C 7.51 g/m*3 7.8 C 0 km/h
2158 17-05-2010 23:46:04 7.7 C 7.54 g/m*3 7.7 C 0 km/h
2159 17-05-2010 23:58:04 7.6 C 7.49 g/m*3 7.6 C 0 km/h
2160 18-05-2010 00:10:04 7.4 C 7.32 g/m*3 7.4 C 0 km/h
2161 18-05-2010 00:22:04 7.1 C 7.18 g/m*3 7.1 C 0 km/h
2162 18-05-2010 00:34:04 7 C 7.13 g/m*3 7 C 0 km/h
2163 18-05-2010 00:46:04 7 C 7.13 g/m*3 7 C 0 km/h
2164 18-05-2010 00:58:04 6.9 C 7.16 g/m*3 6.9 C 0 km/h
2165 18-05-2010 01:10:04 6.8 C 7.11 g/m*3 6.8 C 0 km/h
2166 18-05-2010 01:22:04 6.6 C 7.02 g/m*3 6.6 C 0 km/h
2167 18-05-2010 01:34:04 6.4 C 6.85 g/m*3 6.4 C 0 km/h
2168 18-05-2010 01:46:04 6.3 C 6.88 g/m*3 6.3 C 0 km/h
2169 18-05-2010 01:58:04 6.2 C 6.84 g/m*3 6.2 C 0 km/h
2170 18-05-2010 02:10:04 6.3 C 6.88 g/m*3 6.3 C 0 km/h
2171 18-05-2010 02:22:04 6.2 C 6.84 g/m*3 6.2 C 0 km/h
2172 18-05-2010 02:34:04 6.1 C 6.79 g/m*3 6.1 C 0 km/h
2173 18-05-2010 02:46:04 6 C 6.75 g/m*3 6 C 0 km/h
2174 18-05-2010 02:58:04 5.9 C 6.71 g/m*3 5.9 C 0 km/h
2175 18-05-2010 03:10:04 5.8 C 6.66 g/m*3 5.8 C 0 km/h
Sensor: Nr:Datum:Temp:Abs-Feuchte:Windchill:Wind:
Aussen-T/F 2176 18-05-2010 03:22:04 5.7 C 6.62 g/m*3 5.7 C 0 km/h
2177 18-05-2010 03:34:05 5.7 C 6.69 g/m*3 5.7 C 0 km/h
2178 18-05-2010 03:46:05 5.8 C 6.73 g/m*3 5.8 C 0 km/h
2179 18-05-2010 03:58:05 6 C 6.75 g/m*3 6 C 0 km/h
2180 18-05-2010 04:10:05 6.3 C 6.96 g/m*3 6.3 C 0 km/h
2181 18-05-2010 04:22:05 6.3 C 6.96 g/m*3 6.3 C 0 km/h
2182 18-05-2010 04:34:05 6.3 C 6.96 g/m*3 6.3 C 0 km/h
2183 18-05-2010 04:46:05 6.2 C 6.91 g/m*3 6.2 C 0 km/h
2184 18-05-2010 04:58:05 6.3 C 6.88 g/m*3 6.3 C 0 km/h
2185 18-05-2010 05:10:05 6.4 C 7 g/m*3 6.4 C 0 km/h
2186 18-05-2010 05:22:05 6.5 C 7.05 g/m*3 6.5 C 0 km/h
2187 18-05-2010 05:34:05 6.4 C 6.93 g/m*3 6.4 C 0 km/h
2188 18-05-2010 05:46:05 6.5 C 6.97 g/m*3 6.5 C 0 km/h
2189 18-05-2010 05:58:05 6.7 C 7.07 g/m*3 6.7 C 0 km/h
2190 18-05-2010 06:10:05 6.9 C 7.16 g/m*3 6.9 C 0 km/h
2191 18-05-2010 06:22:05 6.9 C 7.16 g/m*3 6.9 C 0 km/h
2192 18-05-2010 06:34:05 7.1 C 7.18 g/m*3 7.1 C 0 km/h
2193 18-05-2010 06:46:05 7.3 C 7.27 g/m*3 7.3 C 0 km/h
2194 18-05-2010 06:58:05 7.5 C 7.28 g/m*3 7.5 C 0 km/h
2195 18-05-2010 07:10:04 7.9 C 7.47 g/m*3 7.9 C 0 km/h
2196 18-05-2010 07:22:03 7.9 C 7.39 g/m*3 7.9 C 0 km/h
2197 18-05-2010 07:34:03 8 C 7.36 g/m*3 8 C 0 km/h
2198 18-05-2010 07:46:01 8.5 C 7.6 g/m*3 8.5 C 0 km/h
2199 18-05-2010 07:58:01 8.7 C 7.52 g/m*3 8.7 C 0 km/h
2200 18-05-2010 08:10:02 9 C 7.23 g/m*3 9 C 0 km/h
Sensor: Nr:Datum:Temp:Abs-Feuchte:Windchill:Wind:
Aussen-T/F 2201 18-05-2010 08:22:01 8.7 C 6.66 g/m*3 8.7 C 0 km/h
2202 18-05-2010 08:34:02 9 C 6.44 g/m*3 9 C 0 km/h
2203 18-05-2010 08:46:02 9.3 C 6.56 g/m*3 9.3 C 0 km/h
2204 18-05-2010 08:58:02 9.2 C 6.52 g/m*3 9.2 C 0 km/h
2205 18-05-2010 09:10:01 9.3 C 6.47 g/m*3 9.3 C 0 km/h
2206 18-05-2010 09:22:02 9.6 C 6.41 g/m*3 9.6 C 0 km/h
2207 18-05-2010 09:34:01 9.9 C 6.35 g/m*3 9.9 C 0 km/h
2208 18-05-2010 09:46:02 9.7 C 6.08 g/m*3 9.7 C 0 km/h
2209 18-05-2010 09:58:02 10 C 6.01 g/m*3 10 C 0 km/h
2210 18-05-2010 10:10:01 10.5 C 6.01 g/m*3 10.5 C 0 km/h
2211 18-05-2010 10:22:01 10.5 C 6.01 g/m*3 10.5 C 0 km/h
2212 18-05-2010 10:34:02 10.6 C 5.66 g/m*3 10.6 C 0 km/h
2213 18-05-2010 10:46:02 11.2 C 5.57 g/m*3 11.2 C 0 km/h
2214 18-05-2010 10:58:02 11.4 C 5.65 g/m*3 11.4 C 0 km/h
2215 18-05-2010 11:10:02 12.5 C 5.61 g/m*3 12.5 C 0 km/h
2216 18-05-2010 11:22:02 12.4 C 5.24 g/m*3 12.4 C 0 km/h
2217 18-05-2010 11:34:02 12.1 C 5.25 g/m*3 12.1 C 0 km/h
2218 18-05-2010 11:46:02 13 C 5.22 g/m*3 13 C 0 km/h
2219 18-05-2010 11:58:02 13.7 C 5.21 g/m*3 13.7 C 0 km/h
2220 18-05-2010 12:10:03 13.7 C 4.86 g/m*3 13.7 C 0 km/h
2221 18-05-2010 12:22:02 12.7 C 5.12 g/m*3 12.7 C 0 km/h
2222 18-05-2010 12:34:02 14.2 C 5.13 g/m*3 14.2 C 0 km/h
2223 18-05-2010 12:46:01 14.4 C 4.82 g/m*3 14.4 C 0 km/h
2224 18-05-2010 12:58:01 15.2 C 4.67 g/m*3 15.2 C 0 km/h
2225 18-05-2010 13:10:02 16.8 C 5 g/m*3 16.8 C 0 km/h
Sensor: Nr:Datum:Temp:Abs-Feuchte:Windchill:Wind:
Aussen-T/F 2226 18-05-2010 13:22:01 16.9 C 4.46 g/m*3 16.9 C 0 km/h
2227 18-05-2010 13:34:01 16.5 C 4.49 g/m*3 16.5 C 0 km/h
2228 18-05-2010 13:46:01 17.8 C 4.4 g/m*3 17.8 C 0 km/h
2229 18-05-2010 13:58:01 15.8 C 4.04 g/m*3 15.8 C 0 km/h
2230 18-05-2010 14:10:02 15.1 C 4.13 g/m*3 15.1 C 0 km/h
2231 18-05-2010 14:22:01 15.8 C 4.17 g/m*3 15.8 C 0 km/h
2232 18-05-2010 14:34:01 15 C 4.23 g/m*3 15 C 0 km/h
2233 18-05-2010 14:46:01 15.8 C 4.31 g/m*3 15.8 C 0 km/h
2234 18-05-2010 14:58:01 16.3 C 4.16 g/m*3 16.3 C 0 km/h
2235 18-05-2010 15:10:02 16.4 C 4.47 g/m*3 16.4 C 0 km/h
2236 18-05-2010 15:22:02 16.5 C 4.21 g/m*3 16.5 C 0 km/h
2237 18-05-2010 15:34:01 16.6 C 3.96 g/m*3 16.6 C 0 km/h
2238 18-05-2010 15:46:02 16 C 3.95 g/m*3 16 C 0 km/h
2239 18-05-2010 15:58:02 16.9 C 4.17 g/m*3 16.9 C 0 km/h
2240 18-05-2010 16:10:01 18.2 C 4.04 g/m*3 18.2 C 0 km/h
2241 18-05-2010 16:22:02 18.2 C 3.89 g/m*3 18.2 C 0 km/h
2242 18-05-2010 16:34:01 17.9 C 3.05 g/m*3 17.9 C 0 km/h
2243 18-05-2010 16:46:02 17.6 C 3.3 g/m*3 17.6 C 0 km/h
2244 18-05-2010 16:58:02 16.8 C 3.29 g/m*3 16.8 C 0 km/h
2245 18-05-2010 17:10:02 16.6 C 3.53 g/m*3 16.6 C 0 km/h
2246 18-05-2010 17:22:02 17.7 C 3.77 g/m*3 17.7 C 0 km/h
2247 18-05-2010 17:34:02 17.5 C 4.03 g/m*3 17.5 C 0 km/h
2248 18-05-2010 17:46:02 16.8 C 3.86 g/m*3 16.8 C 0 km/h
2249 18-05-2010 17:58:02 17.2 C 3.66 g/m*3 17.2 C 0 km/h
2250 18-05-2010 18:10:01 18.2 C 3.57 g/m*3 18.2 C 0 km/h
Sensor: Nr:Datum:Temp:Abs-Feuchte:Windchill:Wind:
Aussen-T/F 2251 18-05-2010 18:22:02 18.2 C 3.73 g/m*3 18.2 C 0 km/h
2252 18-05-2010 18:34:02 16.9 C 3.88 g/m*3 16.9 C 0 km/h
2253 18-05-2010 18:46:02 16.2 C 4.14 g/m*3 16.2 C 0 km/h
2254 18-05-2010 18:58:02 16.4 C 4.33 g/m*3 16.4 C 0 km/h
2255 18-05-2010 19:10:02 15.7 C 4.42 g/m*3 15.7 C 0 km/h
2256 18-05-2010 19:22:02 16.1 C 4.25 g/m*3 16.1 C 0 km/h
2257 18-05-2010 19:34:03 15.3 C 4.31 g/m*3 15.3 C 0 km/h
2258 18-05-2010 19:46:02 14.8 C 4.56 g/m*3 14.8 C 0 km/h
2259 18-05-2010 19:58:02 14.7 C 4.66 g/m*3 14.7 C 0 km/h
2260 18-05-2010 20:10:02 14.5 C 4.6 g/m*3 14.5 C 0 km/h
2261 18-05-2010 20:22:01 14.4 C 4.94 g/m*3 14.4 C 0 km/h
2262 18-05-2010 20:34:02 14.5 C 4.85 g/m*3 14.5 C 0 km/h
2263 18-05-2010 20:46:02 14.1 C 4.85 g/m*3 14.1 C 0 km/h
2264 18-05-2010 20:58:02 13.8 C 4.89 g/m*3 13.8 C 0 km/h
2265 18-05-2010 21:10:02 13.5 C 5.03 g/m*3 13.5 C 0 km/h
2266 18-05-2010 21:22:02 13.1 C 4.79 g/m*3 13.1 C 0 km/h
2267 18-05-2010 21:34:02 12.6 C 4.76 g/m*3 12.6 C 0 km/h
2268 18-05-2010 21:46:02 12.4 C 4.48 g/m*3 12.4 C 0 km/h
2269 18-05-2010 21:58:02 12.4 C 4.37 g/m*3 12.4 C 0 km/h
2270 18-05-2010 22:10:02 12 C 4.37 g/m*3 12 C 0 km/h
2271 18-05-2010 22:22:02 11.7 C 4.39 g/m*3 11.7 C 0 km/h
2272 18-05-2010 22:35:02 11.5 C 4.44 g/m*3 11.5 C 0 km/h
2273 18-05-2010 22:47:02 11.2 C 4.66 g/m*3 11.2 C 0 km/h
2274 18-05-2010 22:59:02 10.8 C 4.94 g/m*3 10.8 C 0 km/h
2275 18-05-2010 23:11:02 10.5 C 5.04 g/m*3 10.5 C 0 km/h
Sensor: Nr:Datum:Temp:Abs-Feuchte:Windchill:Wind:
Aussen-T/F 2276 18-05-2010 23:23:02 10.2 C 5.33 g/m*3 10.2 C 0 km/h
2277 18-05-2010 23:35:03 9.9 C 5.51 g/m*3 9.9 C 0 km/h
2278 18-05-2010 23:47:03 9.7 C 5.53 g/m*3 9.7 C 0 km/h
2279 18-05-2010 23:59:03 9.6 C 5.59 g/m*3 9.6 C 0 km/h
2280 19-05-2010 00:11:03 9.4 C 5.79 g/m*3 9.4 C 0 km/h
2281 19-05-2010 00:23:03 9.4 C 5.79 g/m*3 9.4 C 0 km/h
2282 19-05-2010 00:35:03 9.3 C 5.75 g/m*3 9.3 C 0 km/h
2283 19-05-2010 00:47:03 9.3 C 5.75 g/m*3 9.3 C 0 km/h
2284 19-05-2010 00:59:03 9.2 C 5.71 g/m*3 9.2 C 0 km/h
2285 19-05-2010 01:11:03 9.2 C 5.54 g/m*3 9.2 C 0 km/h
2286 19-05-2010 01:23:03 9.3 C 5.39 g/m*3 9.3 C 0 km/h
2287 19-05-2010 01:35:03 9.3 C 5.3 g/m*3 9.3 C 0 km/h
2288 19-05-2010 01:47:03 9.3 C 5.3 g/m*3 9.3 C 0 km/h
2289 19-05-2010 01:59:03 9.3 C 5.3 g/m*3 9.3 C 0 km/h
2290 19-05-2010 02:11:03 9.2 C 5.27 g/m*3 9.2 C 0 km/h
2291 19-05-2010 02:23:03 9.1 C 5.32 g/m*3 9.1 C 0 km/h
2292 19-05-2010 02:35:03 9.2 C 5.36 g/m*3 9.2 C 0 km/h
2293 19-05-2010 02:47:03 9 C 5.29 g/m*3 9 C 0 km/h
2294 19-05-2010 02:59:03 8.8 C 5.4 g/m*3 8.8 C 0 km/h
2295 19-05-2010 03:11:03 8.8 C 5.4 g/m*3 8.8 C 0 km/h
2296 19-05-2010 03:23:03 8.8 C 5.31 g/m*3 8.8 C 0 km/h
2297 19-05-2010 03:35:03 8.7 C 5.36 g/m*3 8.7 C 0 km/h
2298 19-05-2010 03:47:03 8.6 C 5.33 g/m*3 8.6 C 0 km/h
2299 19-05-2010 03:59:03 8.5 C 5.38 g/m*3 8.5 C 0 km/h
2300 19-05-2010 04:11:04 8.4 C 5.43 g/m*3 8.4 C 0 km/h
Sensor: Nr:Datum:Temp:Abs-Feuchte:Windchill:Wind:
Aussen-T/F 2301 19-05-2010 04:23:04 8.2 C 5.44 g/m*3 8.2 C 0 km/h
2302 19-05-2010 04:35:04 8.1 C 5.49 g/m*3 8.1 C 0 km/h
2303 19-05-2010 04:47:04 8.1 C 5.66 g/m*3 8.1 C 0 km/h
2304 19-05-2010 04:59:04 8 C 5.7 g/m*3 8 C 0 km/h
2305 19-05-2010 05:11:04 8 C 5.7 g/m*3 8 C 0 km/h
2306 19-05-2010 05:23:04 7.9 C 5.83 g/m*3 7.9 C 0 km/h
2307 19-05-2010 05:35:04 7.9 C 5.91 g/m*3 7.9 C 0 km/h
2308 19-05-2010 05:47:04 7.9 C 5.91 g/m*3 7.9 C 0 km/h
2309 19-05-2010 05:59:04 7.9 C 5.91 g/m*3 7.9 C 0 km/h
2310 19-05-2010 06:11:04 7.8 C 5.96 g/m*3 7.8 C 0 km/h
2311 19-05-2010 06:23:04 8 C 5.95 g/m*3 8 C 0 km/h
2312 19-05-2010 06:35:04 8.1 C 5.91 g/m*3 8.1 C 0 km/h
2313 19-05-2010 06:47:04 8.1 C 5.91 g/m*3 8.1 C 0 km/h
2314 19-05-2010 06:59:04 8.2 C 5.95 g/m*3 8.2 C 0 km/h
2315 19-05-2010 07:11:02 8.4 C 6.02 g/m*3 8.4 C 0 km/h
2316 19-05-2010 07:23:02 8.5 C 5.89 g/m*3 8.5 C 0 km/h
2317 19-05-2010 07:35:02 8.6 C 5.84 g/m*3 8.6 C 0 km/h
2318 19-05-2010 07:47:02 8.7 C 5.88 g/m*3 8.7 C 0 km/h
2319 19-05-2010 07:59:02 9.1 C 5.86 g/m*3 9.1 C 0 km/h
2320 19-05-2010 08:11:02 9.1 C 5.68 g/m*3 9.1 C 0 km/h
2321 19-05-2010 08:23:02 9.3 C 5.66 g/m*3 9.3 C 0 km/h
2322 19-05-2010 08:35:02 9 C 5.55 g/m*3 9 C 0 km/h
2323 19-05-2010 08:47:02 9.1 C 5.59 g/m*3 9.1 C 0 km/h
2324 19-05-2010 08:59:02 9.2 C 5.63 g/m*3 9.2 C 0 km/h
2325 19-05-2010 09:11:01 8.9 C 5.69 g/m*3 8.9 C 0 km/h
Sensor: Nr:Datum:Temp:Abs-Feuchte:Windchill:Wind:
Aussen-T/F 2326 19-05-2010 09:23:01 9.1 C 5.77 g/m*3 9.1 C 0 km/h
2327 19-05-2010 09:35:01 9.2 C 5.71 g/m*3 9.2 C 0 km/h
2328 19-05-2010 09:47:02 9.2 C 5.71 g/m*3 9.2 C 0 km/h
2329 19-05-2010 09:59:02 9.5 C 5.73 g/m*3 9.5 C 0 km/h
2330 19-05-2010 10:11:02 9.6 C 5.77 g/m*3 9.6 C 0 km/h
2331 19-05-2010 10:23:02 9.6 C 5.68 g/m*3 9.6 C 0 km/h
2332 19-05-2010 10:35:01 9.8 C 5.75 g/m*3 9.8 C 0 km/h
2333 19-05-2010 10:47:02 9.5 C 5.64 g/m*3 9.5 C 0 km/h
2334 19-05-2010 10:59:02 9.6 C 5.77 g/m*3 9.6 C 0 km/h
2335 19-05-2010 11:11:01 9.7 C 5.81 g/m*3 9.7 C 0 km/h
2336 19-05-2010 11:23:02 10.1 C 5.77 g/m*3 10.1 C 0 km/h
2337 19-05-2010 11:35:02 10.3 C 5.84 g/m*3 10.3 C 0 km/h
2338 19-05-2010 11:47:02 10.7 C 5.89 g/m*3 10.7 C 0 km/h
2339 19-05-2010 11:59:02 10.3 C 5.75 g/m*3 10.3 C 0 km/h
2340 19-05-2010 12:11:02 10.7 C 5.99 g/m*3 10.7 C 0 km/h
2341 19-05-2010 12:23:02 10.9 C 5.97 g/m*3 10.9 C 0 km/h
2342 19-05-2010 12:35:02 10.7 C 5.8 g/m*3 10.7 C 0 km/h
2343 19-05-2010 12:47:02 11.1 C 5.64 g/m*3 11.1 C 0 km/h
2344 19-05-2010 12:59:02 11.7 C 5.75 g/m*3 11.7 C 0 km/h
2345 19-05-2010 13:11:02 11.9 C 5.61 g/m*3 11.9 C 0 km/h
2346 19-05-2010 13:23:01 11.7 C 5.33 g/m*3 11.7 C 0 km/h
2347 19-05-2010 13:35:02 11.5 C 5.99 g/m*3 11.5 C 0 km/h
2348 19-05-2010 13:47:02 11.3 C 6.32 g/m*3 11.3 C 0 km/h
2349 19-05-2010 13:59:02 11.3 C 6.32 g/m*3 11.3 C 0 km/h
2350 19-05-2010 14:11:02 11.4 C 6.47 g/m*3 11.4 C 0 km/h
Sensor: Nr:Datum:Temp:Abs-Feuchte:Windchill:Wind:
Aussen-T/F 2351 19-05-2010 14:23:02 11.2 C 6.39 g/m*3 11.2 C 0 km/h
2352 19-05-2010 14:35:02 10.9 C 6.76 g/m*3 10.9 C 0 km/h
2353 19-05-2010 14:47:02 11.9 C 7.31 g/m*3 11.9 C 0 km/h
2354 19-05-2010 14:59:02 11.9 C 6.99 g/m*3 11.9 C 0 km/h
2355 19-05-2010 15:11:02 11.8 C 7.37 g/m*3 11.8 C 0 km/h
2356 19-05-2010 15:23:02 11.5 C 7.64 g/m*3 11.5 C 0 km/h
2357 19-05-2010 15:35:02 11.4 C 7.9 g/m*3 11.4 C 0 km/h
2358 19-05-2010 15:47:02 11.1 C 7.86 g/m*3 11.1 C 0 km/h
2359 19-05-2010 15:59:02 11.2 C 8.01 g/m*3 11.2 C 0 km/h
2360 19-05-2010 16:11:02 11 C 8.01 g/m*3 11 C 0 km/h
2361 19-05-2010 16:23:02 10.8 C 8.01 g/m*3 10.8 C 0 km/h
2362 19-05-2010 16:35:02 10.7 C 8.05 g/m*3 10.7 C 0 km/h
2363 19-05-2010 16:47:02 10.8 C 8.2 g/m*3 10.8 C 0 km/h
2364 19-05-2010 16:59:02 10.6 C 8.1 g/m*3 10.6 C 0 km/h
2365 19-05-2010 17:11:02 10.7 C 8.25 g/m*3 10.7 C 0 km/h
2366 19-05-2010 17:23:03 10.6 C 8.3 g/m*3 10.6 C 0 km/h
2367 19-05-2010 17:35:02 10.7 C 8.35 g/m*3 10.7 C 0 km/h
2368 19-05-2010 17:47:02 10.7 C 8.35 g/m*3 10.7 C 0 km/h
2369 19-05-2010 17:59:02 10.7 C 8.35 g/m*3 10.7 C 0 km/h
2370 19-05-2010 18:11:02 11.1 C 8.46 g/m*3 11.1 C 0 km/h
2371 19-05-2010 18:23:03 11.1 C 8.36 g/m*3 11.1 C 0 km/h
2372 19-05-2010 18:35:02 11.1 C 8.16 g/m*3 11.1 C 0 km/h
2373 19-05-2010 18:47:02 11.2 C 8.11 g/m*3 11.2 C 0 km/h
2374 19-05-2010 18:59:02 11.2 C 8.01 g/m*3 11.2 C 0 km/h
2375 19-05-2010 19:11:02 11.3 C 7.96 g/m*3 11.3 C 0 km/h
Sensor: Nr:Datum:Temp:Abs-Feuchte:Windchill:Wind:
Aussen-T/F 2376 19-05-2010 19:23:02 11.4 C 8.01 g/m*3 11.4 C 0 km/h
2377 19-05-2010 19:35:02 11.5 C 8.06 g/m*3 11.5 C 0 km/h
2378 19-05-2010 19:47:02 11.6 C 8.11 g/m*3 11.6 C 0 km/h
2379 19-05-2010 19:59:02 11.6 C 8 g/m*3 11.6 C 0 km/h
2380 19-05-2010 20:11:02 11.6 C 8 g/m*3 11.6 C 0 km/h
2381 19-05-2010 20:23:02 11.7 C 7.95 g/m*3 11.7 C 0 km/h
2382 19-05-2010 20:35:01 11.7 C 7.84 g/m*3 11.7 C 0 km/h
2383 19-05-2010 20:47:02 11.8 C 7.68 g/m*3 11.8 C 0 km/h
2384 19-05-2010 20:59:02 12 C 7.14 g/m*3 12 C 0 km/h
2385 19-05-2010 21:11:01 12.6 C 6.2 g/m*3 12.6 C 0 km/h
2386 19-05-2010 21:23:02 12.8 C 6.16 g/m*3 12.8 C 0 km/h
2387 19-05-2010 21:35:02 13.2 C 5.51 g/m*3 13.2 C 0 km/h
2388 19-05-2010 21:47:02 13 C 5.78 g/m*3 13 C 0 km/h
2389 19-05-2010 21:59:03 13.1 C 5.48 g/m*3 13.1 C 0 km/h
2390 19-05-2010 22:11:02 13.2 C 5.51 g/m*3 13.2 C 0 km/h
2391 19-05-2010 22:23:02 13.1 C 5.71 g/m*3 13.1 C 0 km/h
2392 19-05-2010 22:35:03 13.2 C 5.63 g/m*3 13.2 C 0 km/h
2393 19-05-2010 22:47:02 13 C 5.67 g/m*3 13 C 0 km/h
2394 19-05-2010 22:59:03 12.8 C 5.94 g/m*3 12.8 C 0 km/h
2395 19-05-2010 23:11:01 12.8 C 5.94 g/m*3 12.8 C 0 km/h
2396 19-05-2010 23:23:02 12.8 C 5.82 g/m*3 12.8 C 0 km/h
2397 19-05-2010 23:35:02 12.8 C 5.94 g/m*3 12.8 C 0 km/h
2398 19-05-2010 23:47:02 12.9 C 5.75 g/m*3 12.9 C 0 km/h
2399 19-05-2010 23:59:02 12.7 C 5.68 g/m*3 12.7 C 0 km/h
2400 20-05-2010 00:11:02 12.9 C 5.52 g/m*3 12.9 C 0 km/h
Sensor: Nr:Datum:Temp:Abs-Feuchte:Windchill:Wind:
Aussen-T/F 2401 20-05-2010 00:23:03 12.8 C 5.49 g/m*3 12.8 C 0 km/h
2402 20-05-2010 00:35:02 12.8 C 5.26 g/m*3 12.8 C 0 km/h
2403 20-05-2010 00:47:02 13 C 4.99 g/m*3 13 C 0 km/h
2404 20-05-2010 00:59:02 13 C 4.76 g/m*3 13 C 0 km/h
2405 20-05-2010 01:11:02 12.8 C 4.93 g/m*3 12.8 C 0 km/h
2406 20-05-2010 01:23:03 12.6 C 5.2 g/m*3 12.6 C 0 km/h
2407 20-05-2010 01:35:02 12.5 C 5.61 g/m*3 12.5 C 0 km/h
2408 20-05-2010 01:47:03 12.4 C 5.68 g/m*3 12.4 C 0 km/h
2409 20-05-2010 01:59:03 12.2 C 5.61 g/m*3 12.2 C 0 km/h
2410 20-05-2010 02:11:02 12.1 C 5.47 g/m*3 12.1 C 0 km/h
2411 20-05-2010 02:23:03 12 C 5.65 g/m*3 12 C 0 km/h
2412 20-05-2010 02:35:02 11.8 C 5.68 g/m*3 11.8 C 0 km/h
2413 20-05-2010 02:48:04 11.7 C 5.65 g/m*3 11.7 C 0 km/h
2414 20-05-2010 03:00:04 11.5 C 5.68 g/m*3 11.5 C 0 km/h
2415 20-05-2010 03:12:03 11.7 C 5.54 g/m*3 11.7 C 0 km/h
2416 20-05-2010 03:24:03 11.5 C 5.37 g/m*3 11.5 C 0 km/h
2417 20-05-2010 03:36:01 11.4 C 5.44 g/m*3 11.4 C 0 km/h
2418 20-05-2010 03:48:01 11.5 C 5.47 g/m*3 11.5 C 0 km/h
2419 20-05-2010 04:00:01 11.2 C 5.47 g/m*3 11.2 C 0 km/h
2420 20-05-2010 04:12:02 11.3 C 5.3 g/m*3 11.3 C 0 km/h
2421 20-05-2010 04:24:01 11.2 C 5.27 g/m*3 11.2 C 0 km/h
2422 20-05-2010 04:36:02 11.1 C 5.24 g/m*3 11.1 C 0 km/h
2423 20-05-2010 04:48:01 11 C 5.2 g/m*3 11 C 0 km/h
2424 20-05-2010 05:00:01 11.1 C 5.24 g/m*3 11.1 C 0 km/h
2425 20-05-2010 05:12:02 11.1 C 5.14 g/m*3 11.1 C 0 km/h
Sensor: Nr:Datum:Temp:Abs-Feuchte:Windchill:Wind:
Aussen-T/F 2426 20-05-2010 05:24:02 11 C 5.31 g/m*3 11 C 0 km/h
2427 20-05-2010 05:36:02 11 C 5.2 g/m*3 11 C 0 km/h
2428 20-05-2010 05:48:01 10.9 C 5.27 g/m*3 10.9 C 0 km/h
2429 20-05-2010 06:00:01 10.9 C 5.27 g/m*3 10.9 C 0 km/h
2430 20-05-2010 06:12:02 10.9 C 5.37 g/m*3 10.9 C 0 km/h
2431 20-05-2010 06:24:02 11 C 5 g/m*3 11 C 0 km/h
2432 20-05-2010 06:36:02 11.1 C 5.04 g/m*3 11.1 C 0 km/h
2433 20-05-2010 06:48:02 11.2 C 5.27 g/m*3 11.2 C 0 km/h
2434 20-05-2010 07:00:02 11.2 C 5.17 g/m*3 11.2 C 0 km/h
2435 20-05-2010 07:12:02 11.2 C 5.17 g/m*3 11.2 C 0 km/h
2436 20-05-2010 07:24:02 11.2 C 5.17 g/m*3 11.2 C 0 km/h
2437 20-05-2010 07:36:01 11.4 C 5.44 g/m*3 11.4 C 0 km/h
2438 20-05-2010 07:48:02 11.3 C 5.3 g/m*3 11.3 C 0 km/h
2439 20-05-2010 08:00:02 11.2 C 5.27 g/m*3 11.2 C 0 km/h
2440 20-05-2010 08:12:01 11 C 5.2 g/m*3 11 C 0 km/h
2441 20-05-2010 08:24:02 11 C 5.31 g/m*3 11 C 0 km/h
2442 20-05-2010 08:36:01 11.1 C 5.44 g/m*3 11.1 C 0 km/h
2443 20-05-2010 08:48:02 11.4 C 5.54 g/m*3 11.4 C 0 km/h
2444 20-05-2010 09:00:02 11.8 C 5.47 g/m*3 11.8 C 0 km/h
2445 20-05-2010 09:12:02 11.8 C 5.37 g/m*3 11.8 C 0 km/h
2446 20-05-2010 09:24:02 11.8 C 5.47 g/m*3 11.8 C 0 km/h
2447 20-05-2010 09:36:01 11.7 C 5.44 g/m*3 11.7 C 0 km/h
2448 20-05-2010 09:48:02 12 C 5.33 g/m*3 12 C 0 km/h
2449 20-05-2010 10:00:02 12.1 C 5.36 g/m*3 12.1 C 0 km/h
2450 20-05-2010 10:12:01 12.1 C 5.36 g/m*3 12.1 C 0 km/h
Sensor: Nr:Datum:Temp:Abs-Feuchte:Windchill:Wind:
Aussen-T/F 2451 20-05-2010 10:24:02 12.4 C 5.46 g/m*3 12.4 C 0 km/h
2452 20-05-2010 10:36:01 12.5 C 5.39 g/m*3 12.5 C 0 km/h
2453 20-05-2010 10:48:02 12.4 C 5.35 g/m*3 12.4 C 0 km/h
2454 20-05-2010 11:00:02 12.5 C 5.28 g/m*3 12.5 C 0 km/h
2455 20-05-2010 11:12:02 12.7 C 5.23 g/m*3 12.7 C 0 km/h
2456 20-05-2010 11:24:02 13.1 C 5.14 g/m*3 13.1 C 0 km/h
2457 20-05-2010 11:36:02 13.4 C 5 g/m*3 13.4 C 0 km/h
2458 20-05-2010 11:48:02 13.8 C 5.12 g/m*3 13.8 C 0 km/h
2459 20-05-2010 12:00:02 13.8 C 5 g/m*3 13.8 C 0 km/h
2460 20-05-2010 12:12:01 13.8 C 4.89 g/m*3 13.8 C 0 km/h
2461 20-05-2010 12:24:01 14.4 C 4.82 g/m*3 14.4 C 0 km/h
2462 20-05-2010 12:36:02 14.2 C 4.88 g/m*3 14.2 C 0 km/h
2463 20-05-2010 12:48:02 14 C 4.82 g/m*3 14 C 0 km/h
2464 20-05-2010 13:00:02 14 C 4.95 g/m*3 14 C 0 km/h
2465 20-05-2010 13:12:02 14.1 C 5.1 g/m*3 14.1 C 0 km/h
2466 20-05-2010 13:24:01 13 C 6.01 g/m*3 13 C 0 km/h
2467 20-05-2010 13:36:02 12.9 C 6.88 g/m*3 12.9 C 0 km/h
2468 20-05-2010 13:48:02 13.1 C 7.3 g/m*3 13.1 C 0 km/h
2469 20-05-2010 14:00:02 12.8 C 7.39 g/m*3 12.8 C 0 km/h
2470 20-05-2010 14:12:02 13.5 C 7.84 g/m*3 13.5 C 0 km/h
2471 20-05-2010 14:24:02 13.9 C 7.67 g/m*3 13.9 C 0 km/h
2472 20-05-2010 14:36:02 13.9 C 7.43 g/m*3 13.9 C 0 km/h
2473 20-05-2010 14:48:02 13.8 C 7.63 g/m*3 13.8 C 0 km/h
2474 20-05-2010 15:00:02 13.7 C 7.7 g/m*3 13.7 C 0 km/h
2475 20-05-2010 15:12:03 13.4 C 7.56 g/m*3 13.4 C 0 km/h
Sensor: Nr:Datum:Temp:Abs-Feuchte:Windchill:Wind:
Aussen-T/F 2476 20-05-2010 15:24:02 12 C 7.67 g/m*3 12 C 0 km/h
2477 20-05-2010 15:36:02 12.1 C 7.83 g/m*3 12.1 C 0 km/h
2478 20-05-2010 15:48:02 12.5 C 7.59 g/m*3 12.5 C 0 km/h
2479 20-05-2010 16:00:02 13.1 C 7.87 g/m*3 13.1 C 0 km/h
2480 20-05-2010 16:12:02 12.9 C 7.55 g/m*3 12.9 C 0 km/h
2481 20-05-2010 16:24:01 12.4 C 7.21 g/m*3 12.4 C 0 km/h
2482 20-05-2010 16:36:02 12.6 C 7.85 g/m*3 12.6 C 0 km/h
2483 20-05-2010 16:48:02 12.8 C 8.06 g/m*3 12.8 C 0 km/h
2484 20-05-2010 17:00:02 13.3 C 8.2 g/m*3 13.3 C 0 km/h
2485 20-05-2010 17:12:02 14.2 C 7.82 g/m*3 14.2 C 0 km/h
2486 20-05-2010 17:24:02 14 C 7.24 g/m*3 14 C 0 km/h
2487 20-05-2010 17:36:02 14.3 C 7.86 g/m*3 14.3 C 0 km/h
2488 20-05-2010 17:48:02 14.2 C 7.57 g/m*3 14.2 C 0 km/h
2489 20-05-2010 18:00:02 14.4 C 7.91 g/m*3 14.4 C 0 km/h
2490 20-05-2010 18:12:02 14.6 C 7.88 g/m*3 14.6 C 0 km/h
2491 20-05-2010 18:24:02 14.7 C 7.81 g/m*3 14.7 C 0 km/h
2492 20-05-2010 18:36:02 15 C 8.08 g/m*3 15 C 0 km/h
2493 20-05-2010 18:48:02 14.8 C 7.73 g/m*3 14.8 C 0 km/h
2494 20-05-2010 19:00:02 14.7 C 8.06 g/m*3 14.7 C 0 km/h
2495 20-05-2010 19:12:02 14.8 C 8.23 g/m*3 14.8 C 0 km/h
2496 20-05-2010 19:24:03 14.8 C 8.23 g/m*3 14.8 C 0 km/h
2497 20-05-2010 19:36:02 14.9 C 8.28 g/m*3 14.9 C 0 km/h
2498 20-05-2010 19:48:02 14.8 C 8.11 g/m*3 14.8 C 0 km/h
2499 20-05-2010 20:00:02 14.8 C 8.11 g/m*3 14.8 C 0 km/h
2500 20-05-2010 20:12:02 14.7 C 8.06 g/m*3 14.7 C 0 km/h
Sensor: Nr:Datum:Temp:Abs-Feuchte:Windchill:Wind:
Aussen-T/F 2501 20-05-2010 20:24:03 14.4 C 7.91 g/m*3 14.4 C 0 km/h
2502 20-05-2010 20:36:02 14.1 C 7.65 g/m*3 14.1 C 0 km/h
2503 20-05-2010 20:48:03 13.8 C 7.86 g/m*3 13.8 C 0 km/h
2504 20-05-2010 21:00:03 13.5 C 7.95 g/m*3 13.5 C 0 km/h
2505 20-05-2010 21:12:02 13.2 C 7.58 g/m*3 13.2 C 0 km/h
2506 20-05-2010 21:24:02 12.8 C 7.5 g/m*3 12.8 C 0 km/h
2507 20-05-2010 21:36:02 12.8 C 7.62 g/m*3 12.8 C 0 km/h
2508 20-05-2010 21:48:02 12.6 C 7.41 g/m*3 12.6 C 0 km/h
2509 20-05-2010 22:00:02 12.5 C 7.37 g/m*3 12.5 C 0 km/h
2510 20-05-2010 22:12:02 12.4 C 7.32 g/m*3 12.4 C 0 km/h
2511 20-05-2010 22:24:02 12.2 C 7.01 g/m*3 12.2 C 0 km/h
2512 20-05-2010 22:36:02 12.2 C 7.12 g/m*3 12.2 C 0 km/h
2513 20-05-2010 22:49:03 12.2 C 7.23 g/m*3 12.2 C 0 km/h
2514 20-05-2010 23:01:03 12.2 C 7.34 g/m*3 12.2 C 0 km/h
2515 20-05-2010 23:13:03 12.1 C 7.51 g/m*3 12.1 C 0 km/h
2516 20-05-2010 23:25:03 12.1 C 7.61 g/m*3 12.1 C 0 km/h
2517 20-05-2010 23:37:03 11.7 C 7.64 g/m*3 11.7 C 0 km/h
2518 20-05-2010 23:49:03 11.4 C 7.6 g/m*3 11.4 C 0 km/h
2519 21-05-2010 00:01:03 11.1 C 7.45 g/m*3 11.1 C 0 km/h
2520 21-05-2010 00:13:03 10.7 C 7.27 g/m*3 10.7 C 0 km/h
2521 21-05-2010 00:25:03 10.6 C 7.32 g/m*3 10.6 C 0 km/h
2522 21-05-2010 00:37:03 10.5 C 7.27 g/m*3 10.5 C 0 km/h
2523 21-05-2010 00:49:03 10.3 C 7.18 g/m*3 10.3 C 0 km/h
2524 21-05-2010 01:01:03 10.1 C 7.19 g/m*3 10.1 C 0 km/h
2525 21-05-2010 01:13:03 10.1 C 7.28 g/m*3 10.1 C 0 km/h
Sensor: Nr:Datum:Temp:Abs-Feuchte:Windchill:Wind:
Aussen-T/F 2526 21-05-2010 01:25:03 10.2 C 7.33 g/m*3 10.2 C 0 km/h
2527 21-05-2010 01:37:03 10.2 C 7.33 g/m*3 10.2 C 0 km/h
2528 21-05-2010 01:49:03 10.1 C 7.38 g/m*3 10.1 C 0 km/h
2529 21-05-2010 02:01:03 10 C 7.33 g/m*3 10 C 0 km/h
2530 21-05-2010 02:13:03 9.7 C 7.28 g/m*3 9.7 C 0 km/h
2531 21-05-2010 02:25:03 9.5 C 7.28 g/m*3 9.5 C 0 km/h
2532 21-05-2010 02:37:03 9.2 C 7.23 g/m*3 9.2 C 0 km/h
2533 21-05-2010 02:49:04 9.1 C 7.19 g/m*3 9.1 C 0 km/h
2534 21-05-2010 03:01:04 9 C 7.23 g/m*3 9 C 0 km/h
2535 21-05-2010 03:13:04 8.8 C 7.31 g/m*3 8.8 C 0 km/h
2536 21-05-2010 03:25:04 8.6 C 7.22 g/m*3 8.6 C 0 km/h
2537 21-05-2010 03:37:04 8.5 C 7.34 g/m*3 8.5 C 0 km/h
2538 21-05-2010 03:49:04 8.2 C 7.2 g/m*3 8.2 C 0 km/h
2539 21-05-2010 04:01:04 8.1 C 7.16 g/m*3 8.1 C 0 km/h
2540 21-05-2010 04:13:04 8 C 7.11 g/m*3 8 C 0 km/h
2541 21-05-2010 04:25:04 7.9 C 7.15 g/m*3 7.9 C 0 km/h
2542 21-05-2010 04:37:04 7.8 C 7.1 g/m*3 7.8 C 0 km/h
2543 21-05-2010 04:49:04 7.6 C 7.09 g/m*3 7.6 C 0 km/h
2544 21-05-2010 05:01:04 8.1 C 7.32 g/m*3 8.1 C 0 km/h
2545 21-05-2010 05:13:04 8.2 C 7.37 g/m*3 8.2 C 0 km/h
2546 21-05-2010 05:25:04 8.2 C 7.37 g/m*3 8.2 C 0 km/h
2547 21-05-2010 05:37:04 8.1 C 7.32 g/m*3 8.1 C 0 km/h
2548 21-05-2010 05:49:04 7.9 C 7.23 g/m*3 7.9 C 0 km/h
2549 21-05-2010 06:01:04 7.8 C 7.26 g/m*3 7.8 C 0 km/h
2550 21-05-2010 06:13:04 7.9 C 7.39 g/m*3 7.9 C 0 km/h
Sensor: Nr:Datum:Temp:Abs-Feuchte:Windchill:Wind:
Aussen-T/F 2551 21-05-2010 06:25:04 8 C 7.36 g/m*3 8 C 0 km/h
2552 21-05-2010 06:37:04 8.2 C 7.45 g/m*3 8.2 C 0 km/h
2553 21-05-2010 06:49:04 8.5 C 7.68 g/m*3 8.5 C 0 km/h
2554 21-05-2010 07:01:02 8.7 C 7.78 g/m*3 8.7 C 0 km/h
2555 21-05-2010 07:13:02 8.6 C 7.65 g/m*3 8.6 C 0 km/h
2556 21-05-2010 07:25:03 8.4 C 7.47 g/m*3 8.4 C 0 km/h
2557 21-05-2010 07:37:02 8.4 C 7.47 g/m*3 8.4 C 0 km/h
2558 21-05-2010 07:49:02 8.5 C 7.51 g/m*3 8.5 C 0 km/h
2559 21-05-2010 08:01:02 8.7 C 7.52 g/m*3 8.7 C 0 km/h
2560 21-05-2010 08:13:02 8.8 C 7.57 g/m*3 8.8 C 0 km/h
2561 21-05-2010 08:25:02 9.2 C 7.5 g/m*3 9.2 C 0 km/h
2562 21-05-2010 08:37:03 9.6 C 7.6 g/m*3 9.6 C 0 km/h
2563 21-05-2010 08:49:02 9.7 C 7.56 g/m*3 9.7 C 0 km/h
2564 21-05-2010 09:01:01 9.9 C 7.66 g/m*3 9.9 C 0 km/h
2565 21-05-2010 09:13:01 10.2 C 7.71 g/m*3 10.2 C 0 km/h
2566 21-05-2010 09:25:02 10.6 C 7.91 g/m*3 10.6 C 0 km/h
2567 21-05-2010 09:37:02 11.4 C 8.11 g/m*3 11.4 C 0 km/h
2568 21-05-2010 09:49:02 12 C 8.1 g/m*3 12 C 0 km/h
2569 21-05-2010 10:01:03 12.8 C 8.4 g/m*3 12.8 C 0 km/h
2570 21-05-2010 10:13:03 13.6 C 8.47 g/m*3 13.6 C 0 km/h
2571 21-05-2010 10:25:02 14.5 C 8.46 g/m*3 14.5 C 0 km/h
2572 21-05-2010 10:37:03 15.5 C 8.2 g/m*3 15.5 C 0 km/h
2573 21-05-2010 10:49:02 16.5 C 7.72 g/m*3 16.5 C 0 km/h
2574 21-05-2010 11:01:02 17.2 C 7.47 g/m*3 17.2 C 0 km/h
2575 21-05-2010 11:13:02 17.8 C 7.59 g/m*3 17.8 C 0 km/h
Sensor: Nr:Datum:Temp:Abs-Feuchte:Windchill:Wind:
Aussen-T/F 2576 21-05-2010 11:25:01 18.6 C 7.48 g/m*3 18.6 C 0 km/h
2577 21-05-2010 11:37:02 19.2 C 7.42 g/m*3 19.2 C 0 km/h
2578 21-05-2010 11:49:02 19.5 C 6.71 g/m*3 19.5 C 0 km/h
2579 21-05-2010 12:01:02 19.2 C 6.27 g/m*3 19.2 C 0 km/h
2580 21-05-2010 12:13:02 20.6 C 6.62 g/m*3 20.6 C 0 km/h
2581 21-05-2010 12:25:02 20.9 C 6.19 g/m*3 20.9 C 0 km/h
2582 21-05-2010 12:37:02 20.8 C 5.61 g/m*3 20.8 C 0 km/h
2583 21-05-2010 12:49:02 21.2 C 5.37 g/m*3 21.2 C 0 km/h
2584 21-05-2010 13:01:02 21.9 C 5.79 g/m*3 21.9 C 0 km/h
2585 21-05-2010 13:13:02 23.7 C 5.35 g/m*3 23.7 C 0 km/h
2586 21-05-2010 13:25:02 24.8 C 5.01 g/m*3 24.8 C 0 km/h
2587 21-05-2010 13:37:02 25.2 C 4.89 g/m*3 25.2 C 0 km/h
2588 21-05-2010 13:49:02 23.3 C 4.39 g/m*3 23.3 C 0 km/h
2589 21-05-2010 14:01:02 23.1 C 5.17 g/m*3 23.1 C 0 km/h
2590 21-05-2010 14:13:02 23.5 C 5.29 g/m*3 23.5 C 0 km/h
2591 21-05-2010 14:25:02 24.4 C 5.12 g/m*3 24.4 C 0 km/h
2592 21-05-2010 14:37:02 23.8 C 4.95 g/m*3 23.8 C 0 km/h
2593 21-05-2010 14:49:02 24.6 C 5.63 g/m*3 24.6 C 0 km/h
2594 21-05-2010 15:01:02 23.9 C 4.98 g/m*3 23.9 C 0 km/h
2595 21-05-2010 15:13:02 25.2 C 5.12 g/m*3 25.2 C 0 km/h
2596 21-05-2010 15:25:03 25.8 C 5.54 g/m*3 25.8 C 0 km/h
2597 21-05-2010 15:37:02 25.7 C 4.79 g/m*3 25.7 C 0 km/h
2598 21-05-2010 15:49:02 26.5 C 5.26 g/m*3 26.5 C 0 km/h
2599 21-05-2010 16:01:02 26.3 C 4.95 g/m*3 26.3 C 0 km/h
2600 21-05-2010 16:13:02 24.4 C 4.9 g/m*3 24.4 C 0 km/h
Sensor: Nr:Datum:Temp:Abs-Feuchte:Windchill:Wind:
Aussen-T/F 2601 21-05-2010 16:25:02 25.3 C 4.92 g/m*3 25.3 C 0 km/h
2602 21-05-2010 16:37:02 25 C 4.83 g/m*3 25 C 0 km/h
2603 21-05-2010 16:49:02 25.4 C 4.71 g/m*3 25.4 C 0 km/h
2604 21-05-2010 17:01:02 26.4 C 4.98 g/m*3 26.4 C 0 km/h
2605 21-05-2010 17:13:02 25.7 C 4.79 g/m*3 25.7 C 0 km/h
2606 21-05-2010 17:25:02 26.1 C 4.9 g/m*3 26.1 C 0 km/h
2607 21-05-2010 17:37:02 26.7 C 5.06 g/m*3 26.7 C 0 km/h
2608 21-05-2010 17:49:02 25.8 C 4.82 g/m*3 25.8 C 0 km/h
2609 21-05-2010 18:01:01 26.4 C 4.98 g/m*3 26.4 C 0 km/h
2610 21-05-2010 18:13:01 27 C 5.15 g/m*3 27 C 0 km/h
2611 21-05-2010 18:25:02 26.2 C 4.92 g/m*3 26.2 C 0 km/h
2612 21-05-2010 18:37:02 25.3 C 4.92 g/m*3 25.3 C 0 km/h
2613 21-05-2010 18:49:02 24.8 C 5.24 g/m*3 24.8 C 0 km/h
2614 21-05-2010 19:01:01 24.9 C 5.72 g/m*3 24.9 C 0 km/h
2615 21-05-2010 19:13:01 24.6 C 5.63 g/m*3 24.6 C 0 km/h
2616 21-05-2010 19:25:01 24.6 C 5.85 g/m*3 24.6 C 0 km/h
2617 21-05-2010 19:37:02 24.1 C 5.69 g/m*3 24.1 C 0 km/h
2618 21-05-2010 19:49:02 24 C 6.09 g/m*3 24 C 0 km/h
2619 21-05-2010 20:01:02 23.6 C 5.96 g/m*3 23.6 C 0 km/h
2620 21-05-2010 20:13:02 23.3 C 6.27 g/m*3 23.3 C 0 km/h
2621 21-05-2010 20:25:02 22.9 C 6.34 g/m*3 22.9 C 0 km/h
2622 21-05-2010 20:37:02 22.3 C 6.12 g/m*3 22.3 C 0 km/h
2623 21-05-2010 20:49:02 21.2 C 6.49 g/m*3 21.2 C 0 km/h
2624 21-05-2010 21:01:03 20.8 C 6.52 g/m*3 20.8 C 0 km/h
2625 21-05-2010 21:13:03 20.4 C 6.55 g/m*3 20.4 C 0 km/h
Sensor: Nr:Datum:Temp:Abs-Feuchte:Windchill:Wind:
Aussen-T/F 2626 21-05-2010 21:25:03 20 C 6.57 g/m*3 20 C 0 km/h
2627 21-05-2010 21:37:03 19.8 C 6.66 g/m*3 19.8 C 0 km/h
2628 21-05-2010 21:49:02 19.4 C 6.67 g/m*3 19.4 C 0 km/h
2629 21-05-2010 22:01:02 18.9 C 6.97 g/m*3 18.9 C 0 km/h
2630 21-05-2010 22:13:02 18.4 C 6.92 g/m*3 18.4 C 0 km/h
2631 21-05-2010 22:25:02 18.2 C 7.15 g/m*3 18.2 C 0 km/h
2632 21-05-2010 22:37:02 17.9 C 7.33 g/m*3 17.9 C 0 km/h
2633 21-05-2010 22:49:02 17 C 7.38 g/m*3 17 C 0 km/h
2634 21-05-2010 23:01:02 17 C 7.23 g/m*3 17 C 0 km/h
2635 21-05-2010 23:13:02 16.4 C 7.12 g/m*3 16.4 C 0 km/h
2636 21-05-2010 23:25:02 16.2 C 7.17 g/m*3 16.2 C 0 km/h
2637 21-05-2010 23:38:04 15.9 C 7.31 g/m*3 15.9 C 0 km/h
2638 21-05-2010 23:50:04 15.8 C 7.54 g/m*3 15.8 C 0 km/h
2639 22-05-2010 00:02:04 15.6 C 7.58 g/m*3 15.6 C 0 km/h
2640 22-05-2010 00:14:04 15.4 C 7.49 g/m*3 15.4 C 0 km/h
2641 22-05-2010 00:26:04 15.1 C 7.61 g/m*3 15.1 C 0 km/h
2642 22-05-2010 00:38:04 14.8 C 7.73 g/m*3 14.8 C 0 km/h
2643 22-05-2010 00:50:04 14.5 C 7.71 g/m*3 14.5 C 0 km/h
2644 22-05-2010 01:02:04 14.4 C 7.79 g/m*3 14.4 C 0 km/h
2645 22-05-2010 01:14:04 14.1 C 7.77 g/m*3 14.1 C 0 km/h
2646 22-05-2010 01:26:04 13.9 C 7.91 g/m*3 13.9 C 0 km/h
2647 22-05-2010 01:38:04 13.6 C 7.77 g/m*3 13.6 C 0 km/h
2648 22-05-2010 01:50:04 13.4 C 7.9 g/m*3 13.4 C 0 km/h
2649 22-05-2010 02:02:04 13.2 C 7.92 g/m*3 13.2 C 0 km/h
2650 22-05-2010 02:14:04 12.9 C 7.89 g/m*3 12.9 C 0 km/h
Sensor: Nr:Datum:Temp:Abs-Feuchte:Windchill:Wind:
Aussen-T/F 2651 22-05-2010 02:26:04 12.7 C 7.9 g/m*3 12.7 C 0 km/h
2652 22-05-2010 02:38:04 12.5 C 7.92 g/m*3 12.5 C 0 km/h
2653 22-05-2010 02:50:04 12.4 C 7.98 g/m*3 12.4 C 0 km/h
2654 22-05-2010 03:02:04 12.3 C 7.93 g/m*3 12.3 C 0 km/h
2655 22-05-2010 03:14:04 12.1 C 7.94 g/m*3 12.1 C 0 km/h
2656 22-05-2010 03:26:04 12 C 7.89 g/m*3 12 C 0 km/h
2657 22-05-2010 03:38:05 11.9 C 7.94 g/m*3 11.9 C 0 km/h
2658 22-05-2010 03:50:05 11.7 C 7.95 g/m*3 11.7 C 0 km/h
2659 22-05-2010 04:02:05 11.5 C 7.95 g/m*3 11.5 C 0 km/h
2660 22-05-2010 04:14:05 11.2 C 7.91 g/m*3 11.2 C 0 km/h
2661 22-05-2010 04:26:05 11 C 7.81 g/m*3 11 C 0 km/h
2662 22-05-2010 04:38:05 10.9 C 7.96 g/m*3 10.9 C 0 km/h
2663 22-05-2010 04:50:05 10.7 C 7.86 g/m*3 10.7 C 0 km/h
2664 22-05-2010 05:02:05 10.7 C 7.86 g/m*3 10.7 C 0 km/h
2665 22-05-2010 05:14:05 10.3 C 7.76 g/m*3 10.3 C 0 km/h
2666 22-05-2010 05:26:05 10.3 C 7.76 g/m*3 10.3 C 0 km/h
2667 22-05-2010 05:38:05 10.2 C 7.8 g/m*3 10.2 C 0 km/h
2668 22-05-2010 05:50:05 10 C 7.71 g/m*3 10 C 0 km/h
2669 22-05-2010 06:02:05 9.9 C 7.75 g/m*3 9.9 C 0 km/h
2670 22-05-2010 06:14:05 9.9 C 7.75 g/m*3 9.9 C 0 km/h
2671 22-05-2010 06:26:05 9.9 C 7.75 g/m*3 9.9 C 0 km/h
2672 22-05-2010 06:38:05 10.1 C 7.75 g/m*3 10.1 C 0 km/h
2673 22-05-2010 06:50:05 10 C 7.71 g/m*3 10 C 0 km/h
2674 22-05-2010 07:02:05 10.2 C 7.8 g/m*3 10.2 C 0 km/h
2675 22-05-2010 07:14:05 10.2 C 7.8 g/m*3 10.2 C 0 km/h
Sensor: Nr:Datum:Temp:Abs-Feuchte:Windchill:Wind:
Aussen-T/F 2676 22-05-2010 07:26:03 10.3 C 7.85 g/m*3 10.3 C 0 km/h
2677 22-05-2010 07:38:03 10.7 C 8.05 g/m*3 10.7 C 0 km/h
2678 22-05-2010 07:50:02 11.3 C 8.36 g/m*3 11.3 C 0 km/h
2679 22-05-2010 08:02:02 11.7 C 8.26 g/m*3 11.7 C 0 km/h
2680 22-05-2010 08:14:02 12 C 8.1 g/m*3 12 C 0 km/h
2681 22-05-2010 08:26:02 12.3 C 8.04 g/m*3 12.3 C 0 km/h
2682 22-05-2010 08:38:03 12.6 C 7.85 g/m*3 12.6 C 0 km/h
2683 22-05-2010 08:50:02 13 C 7.48 g/m*3 13 C 0 km/h
2684 22-05-2010 09:02:02 13.3 C 7.39 g/m*3 13.3 C 0 km/h
2685 22-05-2010 09:14:02 13.7 C 7.46 g/m*3 13.7 C 0 km/h
2686 22-05-2010 09:26:02 13.9 C 7.55 g/m*3 13.9 C 0 km/h
2687 22-05-2010 09:38:02 14.3 C 7.13 g/m*3 14.3 C 0 km/h
2688 22-05-2010 09:50:02 14.8 C 7.09 g/m*3 14.8 C 0 km/h
2689 22-05-2010 10:02:02 15.3 C 6.4 g/m*3 15.3 C 0 km/h
2690 22-05-2010 10:14:02 15.8 C 6.33 g/m*3 15.8 C 0 km/h
2691 22-05-2010 10:26:02 16 C 6.13 g/m*3 16 C 0 km/h
2692 22-05-2010 10:38:02 16.7 C 6.4 g/m*3 16.7 C 0 km/h
2693 22-05-2010 10:50:01 17 C 6.22 g/m*3 17 C 0 km/h
2694 22-05-2010 11:02:02 17.6 C 6.3 g/m*3 17.6 C 0 km/h
2695 22-05-2010 11:14:02 18 C 6.14 g/m*3 18 C 0 km/h
2696 22-05-2010 11:26:01 18.1 C 6.03 g/m*3 18.1 C 0 km/h
2697 22-05-2010 11:38:02 18.7 C 6.08 g/m*3 18.7 C 0 km/h
2698 22-05-2010 11:50:02 19.1 C 5.9 g/m*3 19.1 C 0 km/h
2699 22-05-2010 12:02:02 19.3 C 5.81 g/m*3 19.3 C 0 km/h
2700 22-05-2010 12:14:02 20.2 C 5.94 g/m*3 20.2 C 0 km/h
Sensor: Nr:Datum:Temp:Abs-Feuchte:Windchill:Wind:
Aussen-T/F 2701 22-05-2010 12:26:01 21.8 C 5.95 g/m*3 21.8 C 0 km/h
2702 22-05-2010 12:38:01 21.3 C 5.59 g/m*3 21.3 C 0 km/h
2703 22-05-2010 12:50:01 23.3 C 5.85 g/m*3 23.3 C 0 km/h
2704 22-05-2010 13:02:01 23.7 C 5.78 g/m*3 23.7 C 0 km/h
2705 22-05-2010 13:14:01 24.2 C 5.72 g/m*3 24.2 C 0 km/h
2706 22-05-2010 13:26:01 24.2 C 5.5 g/m*3 24.2 C 0 km/h
2707 22-05-2010 13:38:00 24.7 C 5.43 g/m*3 24.7 C 0 km/h
2708 22-05-2010 13:50:01 24.4 C 5.56 g/m*3 24.4 C 0 km/h
2709 22-05-2010 14:02:01 24 C 5 g/m*3 24 C 0 km/h
2710 22-05-2010 14:14:01 23.6 C 5.74 g/m*3 23.6 C 0 km/h
2711 22-05-2010 14:26:01 24 C 5.66 g/m*3 24 C 0 km/h
2712 22-05-2010 14:38:01 23.9 C 5.84 g/m*3 23.9 C 0 km/h
2713 22-05-2010 14:50:01 24.3 C 5.75 g/m*3 24.3 C 0 km/h
2714 22-05-2010 15:02:01 24.9 C 5.95 g/m*3 24.9 C 0 km/h
2715 22-05-2010 15:14:01 25.4 C 5.89 g/m*3 25.4 C 0 km/h
2716 22-05-2010 15:26:02 25.6 C 5.95 g/m*3 25.6 C 0 km/h
2717 22-05-2010 15:38:01 25.3 C 6.09 g/m*3 25.3 C 0 km/h
2718 22-05-2010 15:50:03 25.5 C 5.92 g/m*3 25.5 C 0 km/h
2719 22-05-2010 16:02:02 25.7 C 6.22 g/m*3 25.7 C 0 km/h
2720 22-05-2010 16:14:02 25.8 C 6.02 g/m*3 25.8 C 0 km/h
2721 22-05-2010 16:26:03 26.1 C 6.12 g/m*3 26.1 C 0 km/h
2722 22-05-2010 16:38:02 25.6 C 6.19 g/m*3 25.6 C 0 km/h
2723 22-05-2010 16:50:02 26.3 C 6.19 g/m*3 26.3 C 0 km/h
2724 22-05-2010 17:02:01 26.7 C 6.33 g/m*3 26.7 C 0 km/h
2725 22-05-2010 17:14:01 27 C 6.18 g/m*3 27 C 0 km/h
Sensor: Nr:Datum:Temp:Abs-Feuchte:Windchill:Wind:
Aussen-T/F 2726 22-05-2010 17:26:02 27.1 C 6.47 g/m*3 27.1 C 0 km/h
2727 22-05-2010 17:38:01 27.2 C 6.51 g/m*3 27.2 C 0 km/h
2728 22-05-2010 17:50:02 26.4 C 6.47 g/m*3 26.4 C 0 km/h
2729 22-05-2010 18:02:02 26.4 C 6.47 g/m*3 26.4 C 0 km/h
2730 22-05-2010 18:14:02 26.9 C 6.65 g/m*3 26.9 C 0 km/h
2731 22-05-2010 18:26:02 26.6 C 6.54 g/m*3 26.6 C 0 km/h
2732 22-05-2010 18:38:03 26.1 C 6.37 g/m*3 26.1 C 0 km/h
2733 22-05-2010 18:50:02 26.8 C 6.62 g/m*3 26.8 C 0 km/h
2734 22-05-2010 19:02:02 26.4 C 6.47 g/m*3 26.4 C 0 km/h
2735 22-05-2010 19:14:02 26.6 C 6.54 g/m*3 26.6 C 0 km/h
2736 22-05-2010 19:26:02 26.4 C 6.72 g/m*3 26.4 C 0 km/h
2737 22-05-2010 19:38:02 26.2 C 6.65 g/m*3 26.2 C 0 km/h
2738 22-05-2010 19:50:01 25.9 C 7.02 g/m*3 25.9 C 0 km/h
2739 22-05-2010 20:02:02 25.4 C 6.83 g/m*3 25.4 C 0 km/h
2740 22-05-2010 20:14:02 24.9 C 7.1 g/m*3 24.9 C 0 km/h
2741 22-05-2010 20:26:01 24.6 C 7.43 g/m*3 24.6 C 0 km/h
2742 22-05-2010 20:38:02 24.2 C 7.48 g/m*3 24.2 C 0 km/h
2743 22-05-2010 20:50:02 23.3 C 7.32 g/m*3 23.3 C 0 km/h
2744 22-05-2010 21:02:02 22.7 C 7.48 g/m*3 22.7 C 0 km/h
2745 22-05-2010 21:14:02 22 C 7.76 g/m*3 22 C 0 km/h
2746 22-05-2010 21:26:02 21.2 C 7.41 g/m*3 21.2 C 0 km/h
2747 22-05-2010 21:38:02 20.8 C 7.24 g/m*3 20.8 C 0 km/h
2748 22-05-2010 21:50:02 20.3 C 7.03 g/m*3 20.3 C 0 km/h
2749 22-05-2010 22:02:03 19.9 C 7.22 g/m*3 19.9 C 0 km/h
2750 22-05-2010 22:14:03 19.5 C 6.88 g/m*3 19.5 C 0 km/h
Sensor: Nr:Datum:Temp:Abs-Feuchte:Windchill:Wind:
Aussen-T/F 2751 22-05-2010 22:26:02 19.4 C 6.84 g/m*3 19.4 C 0 km/h
2752 22-05-2010 22:38:02 19.2 C 7.26 g/m*3 19.2 C 0 km/h
2753 22-05-2010 22:50:02 18.7 C 7.36 g/m*3 18.7 C 0 km/h
2754 22-05-2010 23:02:02 18.4 C 7.39 g/m*3 18.4 C 0 km/h
2755 22-05-2010 23:14:02 18.1 C 7.42 g/m*3 18.1 C 0 km/h
2756 22-05-2010 23:26:01 17.9 C 7.48 g/m*3 17.9 C 0 km/h
2757 22-05-2010 23:38:02 17.6 C 7.5 g/m*3 17.6 C 0 km/h
2758 22-05-2010 23:50:02 17.5 C 7.6 g/m*3 17.5 C 0 km/h
2759 23-05-2010 00:02:02 17.3 C 7.66 g/m*3 17.3 C 0 km/h
2760 23-05-2010 00:14:02 17.1 C 7.71 g/m*3 17.1 C 0 km/h
2761 23-05-2010 00:26:02 16.6 C 7.91 g/m*3 16.6 C 0 km/h
2762 23-05-2010 00:38:02 16.2 C 7.86 g/m*3 16.2 C 0 km/h
2763 23-05-2010 00:50:01 16 C 8.04 g/m*3 16 C 0 km/h
2764 23-05-2010 01:02:02 15.7 C 8.16 g/m*3 15.7 C 0 km/h
2765 23-05-2010 01:14:02 15.4 C 8.15 g/m*3 15.4 C 0 km/h
2766 23-05-2010 01:26:02 15.2 C 8.18 g/m*3 15.2 C 0 km/h
2767 23-05-2010 01:38:02 14.9 C 8.28 g/m*3 14.9 C 0 km/h
2768 23-05-2010 01:50:02 14.5 C 8.33 g/m*3 14.5 C 0 km/h
2769 23-05-2010 02:02:02 14.4 C 8.41 g/m*3 14.4 C 0 km/h
2770 23-05-2010 02:14:02 14.2 C 8.3 g/m*3 14.2 C 0 km/h
2771 23-05-2010 02:26:02 14.2 C 8.43 g/m*3 14.2 C 0 km/h
2772 23-05-2010 02:38:01 14 C 8.32 g/m*3 14 C 0 km/h
2773 23-05-2010 02:50:02 13.9 C 8.51 g/m*3 13.9 C 0 km/h
2774 23-05-2010 03:02:02 13.8 C 8.46 g/m*3 13.8 C 0 km/h
2775 23-05-2010 03:14:01 13.7 C 8.53 g/m*3 13.7 C 0 km/h
Sensor: Nr:Datum:Temp:Abs-Feuchte:Windchill:Wind:
Aussen-T/F 2776 23-05-2010 03:26:01 13.5 C 8.54 g/m*3 13.5 C 0 km/h
2777 23-05-2010 03:38:01 13.2 C 8.5 g/m*3 13.2 C 0 km/h
2778 23-05-2010 03:50:01 12.9 C 8.45 g/m*3 12.9 C 0 km/h
2779 23-05-2010 04:02:02 12.8 C 8.51 g/m*3 12.8 C 0 km/h
2780 23-05-2010 04:14:02 12.7 C 8.46 g/m*3 12.7 C 0 km/h
2781 23-05-2010 04:26:01 12.7 C 8.57 g/m*3 12.7 C 0 km/h
2782 23-05-2010 04:38:02 12.4 C 8.41 g/m*3 12.4 C 0 km/h
2783 23-05-2010 04:50:01 12.3 C 8.47 g/m*3 12.3 C 0 km/h
2784 23-05-2010 05:02:02 12.1 C 8.36 g/m*3 12.1 C 0 km/h
2785 23-05-2010 05:14:02 12 C 8.42 g/m*3 12 C 0 km/h
2786 23-05-2010 05:26:01 11.9 C 8.37 g/m*3 11.9 C 0 km/h
2787 23-05-2010 05:38:01 11.8 C 8.31 g/m*3 11.8 C 0 km/h
2788 23-05-2010 05:50:01 11.8 C 8.42 g/m*3 11.8 C 0 km/h
2789 23-05-2010 06:02:01 11.6 C 8.32 g/m*3 11.6 C 0 km/h
2790 23-05-2010 06:14:02 11.5 C 8.26 g/m*3 11.5 C 0 km/h
2791 23-05-2010 06:26:01 11.5 C 8.37 g/m*3 11.5 C 0 km/h
2792 23-05-2010 06:38:01 11.5 C 8.37 g/m*3 11.5 C 0 km/h
2793 23-05-2010 06:50:01 11.5 C 8.37 g/m*3 11.5 C 0 km/h
2794 23-05-2010 07:02:01 11.5 C 8.47 g/m*3 11.5 C 0 km/h
2795 23-05-2010 07:14:01 11.8 C 8.63 g/m*3 11.8 C 0 km/h
2796 23-05-2010 07:26:02 11.9 C 8.68 g/m*3 11.9 C 0 km/h
2797 23-05-2010 07:38:01 12.1 C 8.69 g/m*3 12.1 C 0 km/h
2798 23-05-2010 07:50:01 12.4 C 8.85 g/m*3 12.4 C 0 km/h
2799 23-05-2010 08:02:01 12.7 C 8.91 g/m*3 12.7 C 0 km/h
2800 23-05-2010 08:14:01 13.3 C 9.24 g/m*3 13.3 C 0 km/h
Sensor: Nr:Datum:Temp:Abs-Feuchte:Windchill:Wind:
Aussen-T/F 2801 23-05-2010 08:26:02 14 C 9.41 g/m*3 14 C 0 km/h
2802 23-05-2010 08:38:01 14.4 C 9.27 g/m*3 14.4 C 0 km/h
2803 23-05-2010 08:50:01 14.8 C 9.37 g/m*3 14.8 C 0 km/h
2804 23-05-2010 09:02:01 15.2 C 9.22 g/m*3 15.2 C 0 km/h
2805 23-05-2010 09:14:01 15.7 C 9.37 g/m*3 15.7 C 0 km/h
2806 23-05-2010 09:26:02 16.1 C 9.32 g/m*3 16.1 C 0 km/h
2807 23-05-2010 09:38:01 16.7 C 9.38 g/m*3 16.7 C 0 km/h
2808 23-05-2010 09:50:02 17.2 C 9.08 g/m*3 17.2 C 0 km/h
2809 23-05-2010 10:02:01 17.8 C 9.41 g/m*3 17.8 C 0 km/h
2810 23-05-2010 10:14:01 18.7 C 9.45 g/m*3 18.7 C 0 km/h
2811 23-05-2010 10:26:01 19.2 C 9.4 g/m*3 19.2 C 0 km/h
2812 23-05-2010 10:38:01 20 C 9.16 g/m*3 20 C 0 km/h
2813 23-05-2010 10:50:01 20.3 C 9.15 g/m*3 20.3 C 0 km/h
2814 23-05-2010 11:02:01 20.5 C 8.9 g/m*3 20.5 C 0 km/h
2815 23-05-2010 11:14:02 21.2 C 8.9 g/m*3 21.2 C 0 km/h
2816 23-05-2010 11:26:01 20.4 C 8.49 g/m*3 20.4 C 0 km/h
2817 23-05-2010 11:38:02 20.9 C 8.74 g/m*3 20.9 C 0 km/h
2818 23-05-2010 11:50:02 21.5 C 8.11 g/m*3 21.5 C 0 km/h
2819 23-05-2010 12:02:01 22.1 C 8 g/m*3 22.1 C 0 km/h
2820 23-05-2010 12:14:01 23.1 C 7.65 g/m*3 23.1 C 0 km/h
2821 23-05-2010 12:26:01 23.7 C 6.84 g/m*3 23.7 C 0 km/h
2822 23-05-2010 12:38:02 24.6 C 6.75 g/m*3 24.6 C 0 km/h
2823 23-05-2010 12:50:01 24.7 C 5.66 g/m*3 24.7 C 0 km/h
2824 23-05-2010 13:02:01 25.1 C 4.86 g/m*3 25.1 C 0 km/h
2825 23-05-2010 13:14:01 25.8 C 4.82 g/m*3 25.8 C 0 km/h
Sensor: Nr:Datum:Temp:Abs-Feuchte:Windchill:Wind:
Aussen-T/F 2826 23-05-2010 13:26:01 27.2 C 5.2 g/m*3 27.2 C 0 km/h
2827 23-05-2010 13:38:02 26.9 C 5.37 g/m*3 26.9 C 0 km/h
2828 23-05-2010 13:50:01 26.8 C 5.09 g/m*3 26.8 C 0 km/h
2829 23-05-2010 14:02:02 26.2 C 4.92 g/m*3 26.2 C 0 km/h
2830 23-05-2010 14:14:02 25.5 C 5.45 g/m*3 25.5 C 0 km/h
2831 23-05-2010 14:26:01 25.6 C 5.48 g/m*3 25.6 C 0 km/h
2832 23-05-2010 14:38:01 25.8 C 6.02 g/m*3 25.8 C 0 km/h
2833 23-05-2010 14:50:01 27.4 C 6.31 g/m*3 27.4 C 0 km/h
2834 23-05-2010 15:02:02 27.7 C 5.88 g/m*3 27.7 C 0 km/h
2835 23-05-2010 15:14:02 27.2 C 5.99 g/m*3 27.2 C 0 km/h
2836 23-05-2010 15:26:01 27.9 C 5.68 g/m*3 27.9 C 0 km/h
2837 23-05-2010 15:38:01 28.2 C 5.77 g/m*3 28.2 C 0 km/h
2838 23-05-2010 15:50:01 28.4 C 5.56 g/m*3 28.4 C 0 km/h
2839 23-05-2010 16:02:01 28.2 C 5.5 g/m*3 28.2 C 0 km/h
2840 23-05-2010 16:14:01 28.6 C 5.62 g/m*3 28.6 C 0 km/h
2841 23-05-2010 16:26:01 29 C 5.74 g/m*3 29 C 0 km/h
2842 23-05-2010 16:38:01 28.9 C 5.71 g/m*3 28.9 C 0 km/h
2843 23-05-2010 16:50:01 29 C 5.74 g/m*3 29 C 0 km/h
2844 23-05-2010 17:02:01 30.2 C 6.13 g/m*3 30.2 C 0 km/h
2845 23-05-2010 17:14:01 30.1 C 6.1 g/m*3 30.1 C 0 km/h
2846 23-05-2010 17:26:01 29.5 C 5.9 g/m*3 29.5 C 0 km/h
2847 23-05-2010 17:38:01 29.2 C 6.1 g/m*3 29.2 C 0 km/h
2848 23-05-2010 17:50:01 29.2 C 6.1 g/m*3 29.2 C 0 km/h
2849 23-05-2010 18:02:01 28.8 C 6.53 g/m*3 28.8 C 0 km/h
2850 23-05-2010 18:14:01 29.5 C 6.49 g/m*3 29.5 C 0 km/h
Sensor: Nr:Datum:Temp:Abs-Feuchte:Windchill:Wind:
Aussen-T/F 2851 23-05-2010 18:26:02 28.6 C 6.74 g/m*3 28.6 C 0 km/h
2852 23-05-2010 18:38:01 28.4 C 6.39 g/m*3 28.4 C 0 km/h
2853 23-05-2010 18:50:02 28.8 C 6.82 g/m*3 28.8 C 0 km/h
2854 23-05-2010 19:02:01 29.8 C 6.6 g/m*3 29.8 C 0 km/h
2855 23-05-2010 19:14:01 27.9 C 6.49 g/m*3 27.9 C 0 km/h
2856 23-05-2010 19:26:02 28.1 C 6.84 g/m*3 28.1 C 0 km/h
2857 23-05-2010 19:38:01 27.4 C 6.84 g/m*3 27.4 C 0 km/h
2858 23-05-2010 19:50:02 27.4 C 7.1 g/m*3 27.4 C 0 km/h
2859 23-05-2010 20:02:01 27.1 C 7.25 g/m*3 27.1 C 0 km/h
2860 23-05-2010 20:14:01 26.4 C 7.47 g/m*3 26.4 C 0 km/h
2861 23-05-2010 20:26:01 27.2 C 7.29 g/m*3 27.2 C 0 km/h
2862 23-05-2010 20:38:01 26.3 C 7.43 g/m*3 26.3 C 0 km/h
2863 23-05-2010 20:50:01 25.4 C 7.3 g/m*3 25.4 C 0 km/h
2864 23-05-2010 21:02:01 24.5 C 7.83 g/m*3 24.5 C 0 km/h
2865 23-05-2010 21:14:01 24.1 C 7.66 g/m*3 24.1 C 0 km/h
2866 23-05-2010 21:26:01 23.4 C 7.57 g/m*3 23.4 C 0 km/h
2867 23-05-2010 21:38:02 23.1 C 7.86 g/m*3 23.1 C 0 km/h
2868 23-05-2010 21:50:01 22.6 C 8.04 g/m*3 22.6 C 0 km/h
2869 23-05-2010 22:02:02 22.2 C 8.05 g/m*3 22.2 C 0 km/h
2870 23-05-2010 22:14:02 21.7 C 8.39 g/m*3 21.7 C 0 km/h
2871 23-05-2010 22:26:01 21.3 C 8.57 g/m*3 21.3 C 0 km/h
2872 23-05-2010 22:38:02 20.9 C 8.56 g/m*3 20.9 C 0 km/h
2873 23-05-2010 22:51:05 20.7 C 8.82 g/m*3 20.7 C 0 km/h
2874 23-05-2010 23:03:05 20.4 C 8.85 g/m*3 20.4 C 0 km/h
2875 23-05-2010 23:15:05 20 C 8.81 g/m*3 20 C 0 km/h
Sensor: Nr:Datum:Temp:Abs-Feuchte:Windchill:Wind:
Aussen-T/F 2876 23-05-2010 23:27:05 19.6 C 8.95 g/m*3 19.6 C 0 km/h
2877 23-05-2010 23:39:05 19.2 C 8.9 g/m*3 19.2 C 0 km/h
2878 23-05-2010 23:51:05 18.8 C 9.18 g/m*3 18.8 C 0 km/h
2879 24-05-2010 00:03:05 18.4 C 9.12 g/m*3 18.4 C 0 km/h
2880 24-05-2010 00:15:05 18 C 9.06 g/m*3 18 C 0 km/h
2881 24-05-2010 00:27:05 17.9 C 9.16 g/m*3 17.9 C 0 km/h
2882 24-05-2010 00:39:05 17.6 C 9.3 g/m*3 17.6 C 0 km/h
2883 24-05-2010 00:51:05 17.3 C 9.28 g/m*3 17.3 C 0 km/h
2884 24-05-2010 01:03:05 17.2 C 9.23 g/m*3 17.2 C 0 km/h
2885 24-05-2010 01:15:05 16.8 C 9.44 g/m*3 16.8 C 0 km/h
2886 24-05-2010 01:27:05 16.6 C 9.46 g/m*3 16.6 C 0 km/h
2887 24-05-2010 01:39:05 16.3 C 9.43 g/m*3 16.3 C 0 km/h
2888 24-05-2010 01:51:05 16 C 9.4 g/m*3 16 C 0 km/h
2889 24-05-2010 02:03:05 15.8 C 9.56 g/m*3 15.8 C 0 km/h
2890 24-05-2010 02:15:05 15.6 C 9.44 g/m*3 15.6 C 0 km/h
2891 24-05-2010 02:27:05 15.5 C 9.52 g/m*3 15.5 C 0 km/h
2892 24-05-2010 02:39:05 15.3 C 9.4 g/m*3 15.3 C 0 km/h
2893 24-05-2010 02:51:05 15.1 C 9.29 g/m*3 15.1 C 0 km/h
2894 24-05-2010 03:03:06 14.9 C 9.43 g/m*3 14.9 C 0 km/h
2895 24-05-2010 03:15:06 14.6 C 9.26 g/m*3 14.6 C 0 km/h
2896 24-05-2010 03:27:06 14.4 C 9.27 g/m*3 14.4 C 0 km/h
2897 24-05-2010 03:39:06 14.4 C 9.27 g/m*3 14.4 C 0 km/h
2898 24-05-2010 03:51:06 14.2 C 9.28 g/m*3 14.2 C 0 km/h
2899 24-05-2010 04:03:06 14 C 9.17 g/m*3 14 C 0 km/h
2900 24-05-2010 04:15:06 13.8 C 9.29 g/m*3 13.8 C 0 km/h
Sensor: Nr:Datum:Temp:Abs-Feuchte:Windchill:Wind:
Aussen-T/F 2901 24-05-2010 04:27:06 13.8 C 9.17 g/m*3 13.8 C 0 km/h
2902 24-05-2010 04:39:06 13.8 C 9.17 g/m*3 13.8 C 0 km/h
2903 24-05-2010 04:51:06 13.7 C 9.12 g/m*3 13.7 C 0 km/h
2904 24-05-2010 05:03:06 13.5 C 9.01 g/m*3 13.5 C 0 km/h
2905 24-05-2010 05:15:06 13.3 C 8.9 g/m*3 13.3 C 0 km/h
2906 24-05-2010 05:27:06 13 C 8.73 g/m*3 13 C 0 km/h
2907 24-05-2010 05:39:06 13 C 8.85 g/m*3 13 C 0 km/h
2908 24-05-2010 05:51:06 12.8 C 8.85 g/m*3 12.8 C 0 km/h
2909 24-05-2010 06:03:06 12.9 C 9.02 g/m*3 12.9 C 0 km/h
2910 24-05-2010 06:15:06 12.7 C 8.79 g/m*3 12.7 C 0 km/h
2911 24-05-2010 06:27:06 12.5 C 8.8 g/m*3 12.5 C 0 km/h
2912 24-05-2010 06:39:06 12.6 C 8.96 g/m*3 12.6 C 0 km/h
2913 24-05-2010 06:51:06 13 C 9.19 g/m*3 13 C 0 km/h
2914 24-05-2010 07:03:06 13.2 C 9.19 g/m*3 13.2 C 0 km/h
2915 24-05-2010 07:15:07 13.4 C 9.18 g/m*3 13.4 C 0 km/h
2916 24-05-2010 07:27:07 13.7 C 9.35 g/m*3 13.7 C 0 km/h
2917 24-05-2010 07:39:07 13.8 C 9.29 g/m*3 13.8 C 0 km/h
2918 24-05-2010 07:51:07 13.9 C 9.23 g/m*3 13.9 C 0 km/h
2919 24-05-2010 08:03:07 14.2 C 9.28 g/m*3 14.2 C 0 km/h
2920 24-05-2010 08:15:07 14.5 C 9.45 g/m*3 14.5 C 0 km/h
2921 24-05-2010 08:27:07 14.8 C 9.5 g/m*3 14.8 C 0 km/h
2922 24-05-2010 08:39:05 15.2 C 9.61 g/m*3 15.2 C 0 km/h
2923 24-05-2010 08:51:02 15.7 C 9.77 g/m*3 15.7 C 0 km/h
2924 24-05-2010 09:03:02 16.3 C 9.71 g/m*3 16.3 C 0 km/h
2925 24-05-2010 09:15:02 17 C 9.84 g/m*3 17 C 0 km/h
Sensor: Nr:Datum:Temp:Abs-Feuchte:Windchill:Wind:
Aussen-T/F 2926 24-05-2010 09:27:02 17.5 C 9.84 g/m*3 17.5 C 0 km/h
2927 24-05-2010 09:39:02 18.3 C 9.85 g/m*3 18.3 C 0 km/h
2928 24-05-2010 09:51:02 19 C 9.61 g/m*3 19 C 0 km/h
2929 24-05-2010 10:03:02 19.7 C 9.85 g/m*3 19.7 C 0 km/h
2930 24-05-2010 10:15:02 20.4 C 9.55 g/m*3 20.4 C 0 km/h
2931 24-05-2010 10:27:02 21.3 C 9.69 g/m*3 21.3 C 0 km/h
2932 24-05-2010 10:39:02 21.7 C 9.16 g/m*3 21.7 C 0 km/h
2933 24-05-2010 10:51:02 22.4 C 9.14 g/m*3 22.4 C 0 km/h
2934 24-05-2010 11:03:02 22.9 C 9.2 g/m*3 22.9 C 0 km/h
2935 24-05-2010 11:15:01 23.3 C 8.57 g/m*3 23.3 C 0 km/h
2936 24-05-2010 11:27:01 23.8 C 8.82 g/m*3 23.8 C 0 km/h
2937 24-05-2010 11:39:02 24.2 C 8.58 g/m*3 24.2 C 0 km/h
2938 24-05-2010 11:51:02 24.9 C 8.7 g/m*3 24.9 C 0 km/h
2939 24-05-2010 12:03:02 25.7 C 8.38 g/m*3 25.7 C 0 km/h
2940 24-05-2010 12:15:02 25.4 C 7.3 g/m*3 25.4 C 0 km/h
2941 24-05-2010 12:27:02 25.8 C 7.22 g/m*3 25.8 C 0 km/h
2942 24-05-2010 12:39:02 26.6 C 6.29 g/m*3 26.6 C 0 km/h
2943 24-05-2010 12:51:02 27.4 C 6.84 g/m*3 27.4 C 0 km/h
2944 24-05-2010 13:03:02 26.9 C 6.4 g/m*3 26.9 C 0 km/h
2945 24-05-2010 13:15:02 27 C 6.43 g/m*3 27 C 0 km/h
2946 24-05-2010 13:27:02 27.1 C 6.73 g/m*3 27.1 C 0 km/h
2947 24-05-2010 13:39:02 27 C 6.43 g/m*3 27 C 0 km/h
2948 24-05-2010 13:51:02 26.5 C 6.51 g/m*3 26.5 C 0 km/h
2949 24-05-2010 14:03:02 27 C 6.43 g/m*3 27 C 0 km/h
2950 24-05-2010 14:15:02 27.2 C 6.51 g/m*3 27.2 C 0 km/h
Sensor: Nr:Datum:Temp:Abs-Feuchte:Windchill:Wind:
Aussen-T/F 2951 24-05-2010 14:27:02 28.4 C 6.67 g/m*3 28.4 C 0 km/h
2952 24-05-2010 14:39:02 28.8 C 5.97 g/m*3 28.8 C 0 km/h
2953 24-05-2010 14:51:01 30 C 6.37 g/m*3 30 C 0 km/h
2954 24-05-2010 15:03:02 29.1 C 6.06 g/m*3 29.1 C 0 km/h
2955 24-05-2010 15:15:02 28.1 C 6.29 g/m*3 28.1 C 0 km/h
2956 24-05-2010 15:27:02 27.6 C 6.65 g/m*3 27.6 C 0 km/h
2957 24-05-2010 15:39:02 28.3 C 6.36 g/m*3 28.3 C 0 km/h
2958 24-05-2010 15:51:02 27.8 C 6.72 g/m*3 27.8 C 0 km/h
2959 24-05-2010 16:03:02 27.3 C 6.8 g/m*3 27.3 C 0 km/h
2960 24-05-2010 16:15:02 27.3 C 6.54 g/m*3 27.3 C 0 km/h
2961 24-05-2010 16:27:02 27.3 C 6.54 g/m*3 27.3 C 0 km/h
2962 24-05-2010 16:39:01 27.7 C 6.42 g/m*3 27.7 C 0 km/h
2963 24-05-2010 16:51:02 28.5 C 6.15 g/m*3 28.5 C 0 km/h
2964 24-05-2010 17:03:01 28.5 C 6.15 g/m*3 28.5 C 0 km/h
2965 24-05-2010 17:15:02 28.1 C 5.47 g/m*3 28.1 C 0 km/h
2966 24-05-2010 17:27:02 27.9 C 5.41 g/m*3 27.9 C 0 km/h
2967 24-05-2010 17:39:01 27.9 C 5.68 g/m*3 27.9 C 0 km/h
2968 24-05-2010 17:51:03 28.6 C 5.62 g/m*3 28.6 C 0 km/h
2969 24-05-2010 18:03:02 27.8 C 5.65 g/m*3 27.8 C 0 km/h
2970 24-05-2010 18:15:02 28 C 5.44 g/m*3 28 C 0 km/h
2971 24-05-2010 18:27:03 29.2 C 5.81 g/m*3 29.2 C 0 km/h
2972 24-05-2010 18:39:02 28.8 C 5.68 g/m*3 28.8 C 0 km/h
2973 24-05-2010 18:51:02 29.1 C 5.78 g/m*3 29.1 C 0 km/h
2974 24-05-2010 19:03:02 29.2 C 5.81 g/m*3 29.2 C 0 km/h
2975 24-05-2010 19:15:02 28.4 C 5.56 g/m*3 28.4 C 0 km/h
Sensor: Nr:Datum:Temp:Abs-Feuchte:Windchill:Wind:
Aussen-T/F 2976 24-05-2010 19:27:02 28.4 C 5.84 g/m*3 28.4 C 0 km/h
2977 24-05-2010 19:39:02 27.9 C 5.68 g/m*3 27.9 C 0 km/h
2978 24-05-2010 19:51:02 27.9 C 5.95 g/m*3 27.9 C 0 km/h
2979 24-05-2010 20:03:01 27.5 C 6.35 g/m*3 27.5 C 0 km/h
2980 24-05-2010 20:15:02 27.4 C 6.58 g/m*3 27.4 C 0 km/h
2981 24-05-2010 20:27:02 27.2 C 6.51 g/m*3 27.2 C 0 km/h
2982 24-05-2010 20:39:01 25.8 C 6.5 g/m*3 25.8 C 0 km/h
2983 24-05-2010 20:51:02 25.3 C 7.02 g/m*3 25.3 C 0 km/h
2984 24-05-2010 21:03:01 24.7 C 7.02 g/m*3 24.7 C 0 km/h
2985 24-05-2010 21:15:02 24.1 C 7 g/m*3 24.1 C 0 km/h
2986 24-05-2010 21:27:02 23.7 C 7.49 g/m*3 23.7 C 0 km/h
2987 24-05-2010 21:39:01 23.3 C 7.32 g/m*3 23.3 C 0 km/h
2988 24-05-2010 21:51:02 23.1 C 7.23 g/m*3 23.1 C 0 km/h
2989 24-05-2010 22:03:03 22.7 C 7.48 g/m*3 22.7 C 0 km/h
2990 24-05-2010 22:15:02 22.3 C 7.7 g/m*3 22.3 C 0 km/h
2991 24-05-2010 22:27:02 21.9 C 7.91 g/m*3 21.9 C 0 km/h
2992 24-05-2010 22:39:02 21.5 C 8.11 g/m*3 21.5 C 0 km/h
2993 24-05-2010 22:52:03 20.9 C 8.38 g/m*3 20.9 C 0 km/h
2994 24-05-2010 23:04:03 20.5 C 8.36 g/m*3 20.5 C 0 km/h
2995 24-05-2010 23:16:03 20.2 C 8.22 g/m*3 20.2 C 0 km/h
2996 24-05-2010 23:28:03 19.7 C 8.32 g/m*3 19.7 C 0 km/h
2997 24-05-2010 23:40:03 19.6 C 8.27 g/m*3 19.6 C 0 km/h
2998 24-05-2010 23:52:03 19.3 C 8.29 g/m*3 19.3 C 0 km/h
2999 25-05-2010 00:04:03 19.1 C 8.36 g/m*3 19.1 C 0 km/h
3000 25-05-2010 00:16:04 18.7 C 8.49 g/m*3 18.7 C 0 km/h
Sensor: Nr:Datum:Temp:Abs-Feuchte:Windchill:Wind:
Aussen-T/F 3001 25-05-2010 00:28:04 18.5 C 8.54 g/m*3 18.5 C 0 km/h
3002 25-05-2010 00:40:04 18.2 C 8.55 g/m*3 18.2 C 0 km/h
3003 25-05-2010 00:52:04 18 C 8.75 g/m*3 18 C 0 km/h
3004 25-05-2010 01:04:04 17.8 C 8.8 g/m*3 17.8 C 0 km/h
3005 25-05-2010 01:16:04 17.5 C 8.8 g/m*3 17.5 C 0 km/h
3006 25-05-2010 01:28:04 17.2 C 8.79 g/m*3 17.2 C 0 km/h
3007 25-05-2010 01:40:04 16.8 C 9.01 g/m*3 16.8 C 0 km/h
3008 25-05-2010 01:52:04 16.6 C 8.9 g/m*3 16.6 C 0 km/h
3009 25-05-2010 02:04:04 16.2 C 8.96 g/m*3 16.2 C 0 km/h
3010 25-05-2010 02:16:04 16.1 C 8.91 g/m*3 16.1 C 0 km/h
3011 25-05-2010 02:28:04 16 C 8.86 g/m*3 16 C 0 km/h
3012 25-05-2010 02:40:04 15.9 C 8.94 g/m*3 15.9 C 0 km/h
3013 25-05-2010 02:52:04 15.8 C 9.02 g/m*3 15.8 C 0 km/h
3014 25-05-2010 03:04:04 15.5 C 8.99 g/m*3 15.5 C 0 km/h
3015 25-05-2010 03:16:04 15.2 C 9.09 g/m*3 15.2 C 0 km/h
3016 25-05-2010 03:28:04 14.8 C 9.12 g/m*3 14.8 C 0 km/h
3017 25-05-2010 03:40:04 14.7 C 9.19 g/m*3 14.7 C 0 km/h
3018 25-05-2010 03:52:04 14.6 C 9.13 g/m*3 14.6 C 0 km/h
3019 25-05-2010 04:04:04 14.6 C 9.13 g/m*3 14.6 C 0 km/h
3020 25-05-2010 04:16:04 14.5 C 9.2 g/m*3 14.5 C 0 km/h
3021 25-05-2010 04:28:04 14.1 C 9.1 g/m*3 14.1 C 0 km/h
3022 25-05-2010 04:40:05 13.8 C 9.17 g/m*3 13.8 C 0 km/h
3023 25-05-2010 04:52:05 13.9 C 9.23 g/m*3 13.9 C 0 km/h
3024 25-05-2010 05:04:05 14.1 C 9.22 g/m*3 14.1 C 0 km/h
3025 25-05-2010 05:16:05 14 C 9.05 g/m*3 14 C 0 km/h
Sensor: Nr:Datum:Temp:Abs-Feuchte:Windchill:Wind:
Aussen-T/F 3026 25-05-2010 05:28:05 13.8 C 9.06 g/m*3 13.8 C 0 km/h
3027 25-05-2010 05:40:05 13.8 C 9.17 g/m*3 13.8 C 0 km/h
3028 25-05-2010 05:52:05 13.8 C 9.06 g/m*3 13.8 C 0 km/h
3029 25-05-2010 06:04:05 14 C 9.17 g/m*3 14 C 0 km/h
3030 25-05-2010 06:16:05 14.1 C 9.1 g/m*3 14.1 C 0 km/h
3031 25-05-2010 06:28:05 14.5 C 9.33 g/m*3 14.5 C 0 km/h
3032 25-05-2010 06:40:05 15 C 9.23 g/m*3 15 C 0 km/h
3033 25-05-2010 06:52:05 15.3 C 9.27 g/m*3 15.3 C 0 km/h
3034 25-05-2010 07:04:05 15.4 C 9.2 g/m*3 15.4 C 0 km/h
3035 25-05-2010 07:16:05 15.5 C 8.99 g/m*3 15.5 C 0 km/h
3036 25-05-2010 07:28:06 15.6 C 9.18 g/m*3 15.6 C 0 km/h
3037 25-05-2010 07:40:06 15.6 C 9.04 g/m*3 15.6 C 0 km/h
3038 25-05-2010 07:52:06 15.9 C 9.21 g/m*3 15.9 C 0 km/h
3039 25-05-2010 08:04:06 16.1 C 9.18 g/m*3 16.1 C 0 km/h
3040 25-05-2010 08:16:06 16.2 C 9.1 g/m*3 16.2 C 0 km/h
3041 25-05-2010 08:28:06 16.5 C 8.99 g/m*3 16.5 C 0 km/h
3042 25-05-2010 08:40:03 17.2 C 9.23 g/m*3 17.2 C 0 km/h
3043 25-05-2010 08:52:01 17.9 C 9.16 g/m*3 17.9 C 0 km/h
3044 25-05-2010 09:04:02 18.1 C 8.81 g/m*3 18.1 C 0 km/h
3045 25-05-2010 09:16:01 18.2 C 8.39 g/m*3 18.2 C 0 km/h
3046 25-05-2010 09:28:01 18.5 C 8.23 g/m*3 18.5 C 0 km/h
3047 25-05-2010 09:40:02 18.9 C 7.45 g/m*3 18.9 C 0 km/h
3048 25-05-2010 09:52:02 19.4 C 7.17 g/m*3 19.4 C 0 km/h
3049 25-05-2010 10:04:02 19.8 C 7 g/m*3 19.8 C 0 km/h
3050 25-05-2010 10:16:01 20.2 C 6.99 g/m*3 20.2 C 0 km/h
Sensor: Nr:Datum:Temp:Abs-Feuchte:Windchill:Wind:
Aussen-T/F 3051 25-05-2010 10:28:01 20.9 C 6.92 g/m*3 20.9 C 0 km/h
3052 25-05-2010 10:40:02 21.2 C 6.67 g/m*3 21.2 C 0 km/h
3053 25-05-2010 10:52:02 21 C 6.59 g/m*3 21 C 0 km/h
3054 25-05-2010 11:04:02 21.2 C 6.49 g/m*3 21.2 C 0 km/h
3055 25-05-2010 11:16:02 21.2 C 7.04 g/m*3 21.2 C 0 km/h
3056 25-05-2010 11:28:02 21.2 C 6.3 g/m*3 21.2 C 0 km/h
3057 25-05-2010 11:40:02 21.8 C 6.33 g/m*3 21.8 C 0 km/h
3058 25-05-2010 11:52:02 22.8 C 6.1 g/m*3 22.8 C 0 km/h
3059 25-05-2010 12:04:01 22.6 C 5.42 g/m*3 22.6 C 0 km/h
3060 25-05-2010 12:16:01 23.7 C 5.78 g/m*3 23.7 C 0 km/h
3061 25-05-2010 12:28:01 23.5 C 5.71 g/m*3 23.5 C 0 km/h
3062 25-05-2010 12:40:02 24 C 5.44 g/m*3 24 C 0 km/h
3063 25-05-2010 12:52:02 25.9 C 6.05 g/m*3 25.9 C 0 km/h
3064 25-05-2010 13:04:01 25.5 C 5.21 g/m*3 25.5 C 0 km/h
3065 25-05-2010 13:16:02 26.2 C 5.42 g/m*3 26.2 C 0 km/h
3066 25-05-2010 13:28:02 27.3 C 5.23 g/m*3 27.3 C 0 km/h
3067 25-05-2010 13:40:01 27.8 C 5.38 g/m*3 27.8 C 0 km/h
3068 25-05-2010 13:52:02 26.8 C 5.35 g/m*3 26.8 C 0 km/h
3069 25-05-2010 14:04:01 25.3 C 5.15 g/m*3 25.3 C 0 km/h
3070 25-05-2010 14:16:02 26.1 C 5.63 g/m*3 26.1 C 0 km/h
3071 25-05-2010 14:28:03 26.5 C 5.76 g/m*3 26.5 C 0 km/h
3072 25-05-2010 14:40:01 26.7 C 5.82 g/m*3 26.7 C 0 km/h
3073 25-05-2010 14:52:02 27 C 5.4 g/m*3 27 C 0 km/h
3074 25-05-2010 15:04:02 27.4 C 6.05 g/m*3 27.4 C 0 km/h
3075 25-05-2010 15:16:02 26.3 C 5.69 g/m*3 26.3 C 0 km/h
Sensor: Nr:Datum:Temp:Abs-Feuchte:Windchill:Wind:
Aussen-T/F 3076 25-05-2010 15:28:02 26.6 C 5.79 g/m*3 26.6 C 0 km/h
3077 25-05-2010 15:40:02 26.5 C 5.51 g/m*3 26.5 C 0 km/h
3078 25-05-2010 15:52:02 27.7 C 5.62 g/m*3 27.7 C 0 km/h
3079 25-05-2010 16:04:02 28.1 C 5.47 g/m*3 28.1 C 0 km/h
3080 25-05-2010 16:16:01 27.6 C 5.85 g/m*3 27.6 C 0 km/h
3081 25-05-2010 16:28:01 27.9 C 5.95 g/m*3 27.9 C 0 km/h
3082 25-05-2010 16:40:02 27.9 C 6.22 g/m*3 27.9 C 0 km/h
3083 25-05-2010 16:52:02 28.1 C 5.74 g/m*3 28.1 C 0 km/h
3084 25-05-2010 17:04:02 28.7 C 6.22 g/m*3 28.7 C 0 km/h
3085 25-05-2010 17:16:02 27.5 C 5.82 g/m*3 27.5 C 0 km/h
3086 25-05-2010 17:28:02 28.6 C 5.9 g/m*3 28.6 C 0 km/h
3087 25-05-2010 17:40:02 28.1 C 6.02 g/m*3 28.1 C 0 km/h
3088 25-05-2010 17:52:02 27.4 C 6.05 g/m*3 27.4 C 0 km/h
3089 25-05-2010 18:04:02 27.2 C 5.99 g/m*3 27.2 C 0 km/h
3090 25-05-2010 18:16:02 26 C 5.36 g/m*3 26 C 0 km/h
3091 25-05-2010 18:28:02 27 C 5.66 g/m*3 27 C 0 km/h
3092 25-05-2010 18:40:02 25.8 C 5.78 g/m*3 25.8 C 0 km/h
3093 25-05-2010 18:52:02 25.6 C 5.71 g/m*3 25.6 C 0 km/h
3094 25-05-2010 19:04:02 25.2 C 5.82 g/m*3 25.2 C 0 km/h
3095 25-05-2010 19:16:02 25.2 C 5.82 g/m*3 25.2 C 0 km/h
3096 25-05-2010 19:28:02 24 C 5.87 g/m*3 24 C 0 km/h
3097 25-05-2010 19:40:02 24.2 C 5.94 g/m*3 24.2 C 0 km/h
3098 25-05-2010 19:52:02 23.7 C 6.2 g/m*3 23.7 C 0 km/h
3099 25-05-2010 20:04:02 23.5 C 6.13 g/m*3 23.5 C 0 km/h
3100 25-05-2010 20:16:03 23.2 C 6.24 g/m*3 23.2 C 0 km/h
Sensor: Nr:Datum:Temp:Abs-Feuchte:Windchill:Wind:
Aussen-T/F 3101 25-05-2010 20:28:03 22.8 C 6.3 g/m*3 22.8 C 0 km/h
3102 25-05-2010 20:40:02 22.5 C 6.19 g/m*3 22.5 C 0 km/h
3103 25-05-2010 20:52:02 22.2 C 6.28 g/m*3 22.2 C 0 km/h
3104 25-05-2010 21:04:02 22 C 6.4 g/m*3 22 C 0 km/h
3105 25-05-2010 21:16:02 21.7 C 6.87 g/m*3 21.7 C 0 km/h
3106 25-05-2010 21:28:02 21.2 C 7.04 g/m*3 21.2 C 0 km/h
3107 25-05-2010 21:40:02 20.7 C 7.2 g/m*3 20.7 C 0 km/h
3108 25-05-2010 21:52:02 20.3 C 6.86 g/m*3 20.3 C 0 km/h
3109 25-05-2010 22:04:02 19.7 C 6.79 g/m*3 19.7 C 0 km/h
3110 25-05-2010 22:16:02 19.5 C 6.88 g/m*3 19.5 C 0 km/h
3111 25-05-2010 22:28:02 19.3 C 6.97 g/m*3 19.3 C 0 km/h
3112 25-05-2010 22:41:48 19.4 C 7.01 g/m*3 19.4 C 0 km/h
3113 25-05-2010 22:53:48 19.3 C 6.8 g/m*3 19.3 C 0 km/h
3114 25-05-2010 23:05:48 19.1 C 6.56 g/m*3 19.1 C 0 km/h
3115 25-05-2010 23:17:48 18.8 C 6.76 g/m*3 18.8 C 0 km/h
3116 25-05-2010 23:29:48 18.8 C 7.09 g/m*3 18.8 C 0 km/h
3117 25-05-2010 23:41:48 18.7 C 6.88 g/m*3 18.7 C 0 km/h
3118 25-05-2010 23:53:48 18.8 C 6.93 g/m*3 18.8 C 0 km/h
3119 26-05-2010 00:05:48 18.9 C 6.8 g/m*3 18.9 C 0 km/h
3120 26-05-2010 00:17:48 18.7 C 6.72 g/m*3 18.7 C 0 km/h
3121 26-05-2010 00:29:48 18.5 C 6.8 g/m*3 18.5 C 0 km/h
3122 26-05-2010 00:41:48 18.3 C 6.25 g/m*3 18.3 C 0 km/h
3123 26-05-2010 00:53:48 18.2 C 6.22 g/m*3 18.2 C 0 km/h
3124 26-05-2010 01:05:48 18.1 C 6.03 g/m*3 18.1 C 0 km/h
3125 26-05-2010 01:17:49 18.1 C 6.03 g/m*3 18.1 C 0 km/h
Sensor: Nr:Datum:Temp:Abs-Feuchte:Windchill:Wind:
Aussen-T/F 3126 26-05-2010 01:29:49 17.9 C 6.41 g/m*3 17.9 C 0 km/h
3127 26-05-2010 01:41:49 15.8 C 7.81 g/m*3 15.8 C 0 km/h
3128 26-05-2010 01:53:49 14.4 C 7.91 g/m*3 14.4 C 0 km/h
3129 26-05-2010 02:05:49 14.2 C 8.3 g/m*3 14.2 C 0 km/h
3130 26-05-2010 02:17:49 14.6 C 8.38 g/m*3 14.6 C 0 km/h
3131 26-05-2010 02:29:49 14.6 C 8.38 g/m*3 14.6 C 0 km/h
3132 26-05-2010 02:41:49 14.3 C 8.72 g/m*3 14.3 C 0 km/h
3133 26-05-2010 02:53:49 14.4 C 9.02 g/m*3 14.4 C 0 km/h
3134 26-05-2010 03:05:49 14.4 C 8.9 g/m*3 14.4 C 0 km/h
3135 26-05-2010 03:17:50 14.5 C 8.58 g/m*3 14.5 C 0 km/h
3136 26-05-2010 03:29:50 14.8 C 8.49 g/m*3 14.8 C 0 km/h
3137 26-05-2010 03:41:50 14.7 C 8.18 g/m*3 14.7 C 0 km/h
3138 26-05-2010 03:53:50 14.6 C 8.01 g/m*3 14.6 C 0 km/h
3139 26-05-2010 04:05:50 14.8 C 7.85 g/m*3 14.8 C 0 km/h
3140 26-05-2010 04:17:50 14.7 C 7.81 g/m*3 14.7 C 0 km/h
3141 26-05-2010 04:29:50 14.7 C 7.68 g/m*3 14.7 C 0 km/h
3142 26-05-2010 04:41:50 14.7 C 7.55 g/m*3 14.7 C 0 km/h
3143 26-05-2010 04:53:50 14.7 C 7.55 g/m*3 14.7 C 0 km/h
3144 26-05-2010 05:05:50 14.7 C 7.3 g/m*3 14.7 C 0 km/h
3145 26-05-2010 05:17:50 14.7 C 7.43 g/m*3 14.7 C 0 km/h
3146 26-05-2010 05:29:50 14.7 C 7.3 g/m*3 14.7 C 0 km/h
3147 26-05-2010 05:41:50 14.7 C 7.43 g/m*3 14.7 C 0 km/h
3148 26-05-2010 05:53:50 14.5 C 7.34 g/m*3 14.5 C 0 km/h
3149 26-05-2010 06:05:50 14.7 C 7.55 g/m*3 14.7 C 0 km/h
3150 26-05-2010 06:17:51 14.7 C 7.68 g/m*3 14.7 C 0 km/h
Sensor: Nr:Datum:Temp:Abs-Feuchte:Windchill:Wind:
Aussen-T/F 3151 26-05-2010 06:29:51 14.5 C 7.84 g/m*3 14.5 C 0 km/h
3152 26-05-2010 06:41:51 14.7 C 8.06 g/m*3 14.7 C 0 km/h
3153 26-05-2010 06:53:51 14.8 C 7.85 g/m*3 14.8 C 0 km/h
3154 26-05-2010 07:05:03 15 C 7.18 g/m*3 15 C 0 km/h
3155 26-05-2010 07:17:02 15.4 C 6.83 g/m*3 15.4 C 0 km/h
3156 26-05-2010 07:29:02 15.8 C 6.46 g/m*3 15.8 C 0 km/h
3157 26-05-2010 07:41:03 16 C 6.27 g/m*3 16 C 0 km/h
3158 26-05-2010 07:53:02 16.2 C 6.48 g/m*3 16.2 C 0 km/h
3159 26-05-2010 08:05:02 16 C 6.4 g/m*3 16 C 0 km/h
3160 26-05-2010 08:17:02 15.9 C 6.37 g/m*3 15.9 C 0 km/h
3161 26-05-2010 08:29:02 15.8 C 6.33 g/m*3 15.8 C 0 km/h
3162 26-05-2010 08:41:02 15.9 C 6.64 g/m*3 15.9 C 0 km/h
3163 26-05-2010 08:53:02 16.2 C 6.48 g/m*3 16.2 C 0 km/h
3164 26-05-2010 09:05:02 16.9 C 6.47 g/m*3 16.9 C 0 km/h
3165 26-05-2010 09:17:02 17.1 C 6.11 g/m*3 17.1 C 0 km/h
3166 26-05-2010 09:29:02 17 C 6.22 g/m*3 17 C 0 km/h
3167 26-05-2010 09:41:01 16.4 C 6.7 g/m*3 16.4 C 0 km/h
3168 26-05-2010 09:53:02 16 C 6.81 g/m*3 16 C 0 km/h
3169 26-05-2010 10:05:01 16.4 C 6.56 g/m*3 16.4 C 0 km/h
3170 26-05-2010 10:17:02 15.8 C 7.4 g/m*3 15.8 C 0 km/h
3171 26-05-2010 10:29:02 15.1 C 8 g/m*3 15.1 C 0 km/h
3172 26-05-2010 10:41:02 14.1 C 8.86 g/m*3 14.1 C 0 km/h
3173 26-05-2010 10:53:02 14.2 C 9.4 g/m*3 14.2 C 0 km/h
3174 26-05-2010 11:05:02 13.4 C 9.18 g/m*3 13.4 C 0 km/h
3175 26-05-2010 11:17:02 12.9 C 9.35 g/m*3 12.9 C 0 km/h
Sensor: Nr:Datum:Temp:Abs-Feuchte:Windchill:Wind:
Aussen-T/F 3176 26-05-2010 11:29:02 13.2 C 9.64 g/m*3 13.2 C 0 km/h
3177 26-05-2010 11:41:02 13.3 C 9.82 g/m*3 13.3 C 0 km/h
3178 26-05-2010 11:53:01 13.4 C 10 g/m*3 13.4 C 0 km/h
3179 26-05-2010 12:05:02 13.2 C 9.87 g/m*3 13.2 C 0 km/h
3180 26-05-2010 12:17:01 13.3 C 9.94 g/m*3 13.3 C 0 km/h
3181 26-05-2010 12:29:01 13.2 C 9.87 g/m*3 13.2 C 0 km/h
3182 26-05-2010 12:41:01 12.8 C 9.74 g/m*3 12.8 C 0 km/h
3183 26-05-2010 12:53:01 13 C 9.87 g/m*3 13 C 0 km/h
3184 26-05-2010 13:05:02 12.8 C 9.74 g/m*3 12.8 C 0 km/h
3185 26-05-2010 13:17:02 13.2 C 10.1 g/m*3 13.2 C 0 km/h
3186 26-05-2010 13:29:02 12.8 C 9.74 g/m*3 12.8 C 0 km/h
3187 26-05-2010 13:41:01 12.6 C 9.51 g/m*3 12.6 C 0 km/h
3188 26-05-2010 13:53:01 13 C 9.75 g/m*3 13 C 0 km/h
3189 26-05-2010 14:05:01 13.9 C 9.83 g/m*3 13.9 C 0 km/h
3190 26-05-2010 14:17:02 15.2 C 10.12 g/m*3 15.2 C 0 km/h
3191 26-05-2010 14:29:02 15.8 C 9.83 g/m*3 15.8 C 0 km/h
3192 26-05-2010 14:41:01 15.6 C 9.44 g/m*3 15.6 C 0 km/h
3193 26-05-2010 14:53:03 15.5 C 9.39 g/m*3 15.5 C 0 km/h
3194 26-05-2010 15:05:02 15.4 C 9.33 g/m*3 15.4 C 0 km/h
3195 26-05-2010 15:17:02 14.5 C 9.45 g/m*3 14.5 C 0 km/h
3196 26-05-2010 15:29:02 14.1 C 9.59 g/m*3 14.1 C 0 km/h
3197 26-05-2010 15:41:02 14.4 C 10.01 g/m*3 14.4 C 0 km/h
3198 26-05-2010 15:53:02 15.4 C 10.77 g/m*3 15.4 C 0 km/h
3199 26-05-2010 16:05:01 17.8 C 11.23 g/m*3 17.8 C 0 km/h
3200 26-05-2010 16:17:02 19.4 C 11.18 g/m*3 19.4 C 0 km/h
Sensor: Nr:Datum:Temp:Abs-Feuchte:Windchill:Wind:
Aussen-T/F 3201 26-05-2010 16:29:02 20.3 C 10.73 g/m*3 20.3 C 0 km/h
3202 26-05-2010 16:41:02 18.8 C 9.99 g/m*3 18.8 C 0 km/h
3203 26-05-2010 16:53:02 18.5 C 9.97 g/m*3 18.5 C 0 km/h
3204 26-05-2010 17:05:03 16.8 C 10.58 g/m*3 16.8 C 0 km/h
3205 26-05-2010 17:17:02 16.2 C 10.76 g/m*3 16.2 C 0 km/h
3206 26-05-2010 17:29:02 15.6 C 11.17 g/m*3 15.6 C 0 km/h
3207 26-05-2010 17:41:02 16.2 C 11.86 g/m*3 16.2 C 0 km/h
3208 26-05-2010 17:53:02 17.1 C 12.52 g/m*3 17.1 C 0 km/h
3209 26-05-2010 18:05:02 16.1 C 11.51 g/m*3 16.1 C 0 km/h
3210 26-05-2010 18:17:02 15.5 C 11.5 g/m*3 15.5 C 0 km/h
3211 26-05-2010 18:29:02 17 C 12.73 g/m*3 17 C 0 km/h
3212 26-05-2010 18:41:01 18.7 C 13.93 g/m*3 18.7 C 0 km/h
3213 26-05-2010 18:53:02 18.8 C 13.69 g/m*3 18.8 C 0 km/h
3214 26-05-2010 19:05:01 19.1 C 13.28 g/m*3 19.1 C 0 km/h
3215 26-05-2010 19:17:01 19.2 C 13.19 g/m*3 19.2 C 0 km/h
3216 26-05-2010 19:29:01 19.2 C 13.03 g/m*3 19.2 C 0 km/h
3217 26-05-2010 19:41:02 19.3 C 12.77 g/m*3 19.3 C 0 km/h
3218 26-05-2010 19:53:02 18.1 C 11.9 g/m*3 18.1 C 0 km/h
3219 26-05-2010 20:05:02 17.2 C 11.72 g/m*3 17.2 C 0 km/h
3220 26-05-2010 20:17:02 17.2 C 11.86 g/m*3 17.2 C 0 km/h
3221 26-05-2010 20:29:02 17 C 11.87 g/m*3 17 C 0 km/h
3222 26-05-2010 20:41:02 16.7 C 11.8 g/m*3 16.7 C 0 km/h
3223 26-05-2010 20:53:02 16.2 C 11.58 g/m*3 16.2 C 0 km/h
3224 26-05-2010 21:05:03 16.1 C 11.65 g/m*3 16.1 C 0 km/h
3225 26-05-2010 21:17:02 16 C 11.72 g/m*3 16 C 0 km/h
Sensor: Nr:Datum:Temp:Abs-Feuchte:Windchill:Wind:
Aussen-T/F 3226 26-05-2010 21:29:02 15.7 C 10.97 g/m*3 15.7 C 0 km/h
3227 26-05-2010 21:41:03 14.6 C 9.89 g/m*3 14.6 C 0 km/h
3228 26-05-2010 21:53:02 13.6 C 9.18 g/m*3 13.6 C 0 km/h
3229 26-05-2010 22:05:02 13.1 C 8.9 g/m*3 13.1 C 0 km/h
3230 26-05-2010 22:18:04 13.1 C 9.01 g/m*3 13.1 C 0 km/h
3231 26-05-2010 22:30:04 12.9 C 9.02 g/m*3 12.9 C 0 km/h
3232 26-05-2010 22:42:04 12.6 C 8.63 g/m*3 12.6 C 0 km/h
3233 26-05-2010 22:54:04 12.6 C 8.63 g/m*3 12.6 C 0 km/h
3234 26-05-2010 23:06:04 12.7 C 8.91 g/m*3 12.7 C 0 km/h
3235 26-05-2010 23:18:04 12.5 C 8.47 g/m*3 12.5 C 0 km/h
3236 26-05-2010 23:30:04 12.4 C 8.3 g/m*3 12.4 C 0 km/h
3237 26-05-2010 23:42:05 12.5 C 8.47 g/m*3 12.5 C 0 km/h
3238 26-05-2010 23:54:05 12.5 C 8.36 g/m*3 12.5 C 0 km/h
3239 27-05-2010 00:06:05 12.5 C